PWSweather.com
Personal Weather Stations
Station Observations
283002842
28300 Mainvilliers, France, MainvilliersFR 28300

28300 Mainvilliers, FranceMainvilliersFR 28300

Lat: 48.4504566, Lon: 1.4527078

Elevation: 156

Station Type: Station météorologique PCE-FWS20

http://meteo28300.fr

High Low Average
Temperature 54.1°F12.3°C 47.5°F8.6°C 50.1°F10.1°C
Dew Point 50.4°F10.2°C 43.9°F6.6°C 46.6°F8.1°C
Winds 14.5 mph 23.3 kmh 0.7 mph 1.1 kmh 6.0 mph SE9.7 kmh SE
Wind Gusts 18.3 mph29.5 kmh 4.5 mph7.2 kmh 11.0 mph17.7 kmh
Humidity 95% 76% 88%
Pressure 29.91 in1012.9 mb 29.67 in1004.7 mb -
Precipitation 0.05 in1.3 mm - -
Hour Temp Dew Point Humidity Winds Wind Gusts Pressure Precip Precip Rate Daily Precip Total
12:00 AM 48.4°F9.1°C 44.1°F6.7°C 85% 3.1 mph E5.0 kmh E 6.9 mph11.1 kmh 29.90 in1012.5 mb 0.00 in0.0 mm 0.00 in0.0 mm 0.00 in0.0 mm
12:01 AM 48.4°F9.1°C 44.1°F6.7°C 85% 2.2 mph E3.5 kmh E 6.9 mph11.1 kmh 29.90 in1012.5 mb 0.00 in0.0 mm 0.00 in0.0 mm 0.00 in0.0 mm
12:02 AM 48.4°F9.1°C 44.1°F6.7°C 85% 2.2 mph E3.5 kmh E 6.9 mph11.1 kmh 29.90 in1012.5 mb 0.00 in0.0 mm 0.00 in0.0 mm 0.00 in0.0 mm
12:03 AM 48.4°F9.1°C 44.1°F6.7°C 85% 2.2 mph E3.5 kmh E 6.9 mph11.1 kmh 29.90 in1012.5 mb 0.00 in0.0 mm 0.00 in0.0 mm 0.00 in0.0 mm
12:04 AM 48.4°F9.1°C 44.1°F6.7°C 85% 2.2 mph E3.5 kmh E 6.9 mph11.1 kmh 29.90 in1012.5 mb 0.00 in0.0 mm 0.00 in0.0 mm 0.00 in0.0 mm
12:05 AM 48.4°F9.1°C 44.1°F6.7°C 85% 2.2 mph ENE3.5 kmh ENE 6.9 mph11.1 kmh 29.90 in1012.5 mb 0.00 in0.0 mm 0.00 in0.0 mm 0.00 in0.0 mm
12:06 AM 48.4°F9.1°C 44.1°F6.7°C 85% 2.2 mph ENE3.5 kmh ENE 6.9 mph11.1 kmh 29.90 in1012.5 mb 0.00 in0.0 mm 0.00 in0.0 mm 0.00 in0.0 mm
12:07 AM 48.2°F9.0°C 43.9°F6.6°C 85% 3.8 mph ENE6.1 kmh ENE 6.0 mph9.7 kmh 29.90 in1012.5 mb 0.00 in0.0 mm 0.00 in0.0 mm 0.00 in0.0 mm
12:08 AM 48.2°F9.0°C 43.9°F6.6°C 85% 2.2 mph ENE3.5 kmh ENE 6.0 mph9.7 kmh 29.91 in1012.9 mb 0.00 in0.0 mm 0.00 in0.0 mm 0.00 in0.0 mm
12:09 AM 48.2°F9.0°C 43.9°F6.6°C 85% 3.1 mph ENE5.0 kmh ENE 6.0 mph9.7 kmh 29.90 in1012.5 mb 0.00 in0.0 mm 0.00 in0.0 mm 0.00 in0.0 mm
12:10 AM 48.2°F9.0°C 43.9°F6.6°C 85% 4.5 mph ENE7.2 kmh ENE 6.0 mph9.7 kmh 29.91 in1012.9 mb 0.00 in0.0 mm 0.00 in0.0 mm 0.00 in0.0 mm
12:11 AM 48.2°F9.0°C 43.9°F6.6°C 85% 4.5 mph E7.2 kmh E 6.9 mph11.1 kmh 29.90 in1012.5 mb 0.00 in0.0 mm 0.00 in0.0 mm 0.00 in0.0 mm
12:12 AM 48.2°F9.0°C 43.9°F6.6°C 85% 6.9 mph E11.1 kmh E 8.3 mph13.4 kmh 29.91 in1012.9 mb 0.00 in0.0 mm 0.00 in0.0 mm 0.00 in0.0 mm
12:13 AM 48.2°F9.0°C 43.9°F6.6°C 85% 3.8 mph E6.1 kmh E 8.3 mph13.4 kmh 29.90 in1012.5 mb 0.00 in0.0 mm 0.00 in0.0 mm 0.00 in0.0 mm
12:14 AM 48.2°F9.0°C 43.9°F6.6°C 85% 4.5 mph E7.2 kmh E 8.3 mph13.4 kmh 29.90 in1012.5 mb 0.00 in0.0 mm 0.00 in0.0 mm 0.00 in0.0 mm
12:15 AM 48.2°F9.0°C 43.9°F6.6°C 85% 3.1 mph E5.0 kmh E 8.3 mph13.4 kmh 29.90 in1012.5 mb 0.00 in0.0 mm 0.00 in0.0 mm 0.00 in0.0 mm
12:16 AM 48.2°F9.0°C 43.9°F6.6°C 85% 3.8 mph E6.1 kmh E 8.3 mph13.4 kmh 29.90 in1012.5 mb 0.00 in0.0 mm 0.00 in0.0 mm 0.00 in0.0 mm
12:17 AM 48.2°F9.0°C 43.9°F6.6°C 85% 3.8 mph E6.1 kmh E 8.3 mph13.4 kmh 29.90 in1012.5 mb 0.00 in0.0 mm 0.00 in0.0 mm 0.00 in0.0 mm
12:18 AM 48.2°F9.0°C 43.9°F6.6°C 85% 3.8 mph E6.1 kmh E 8.3 mph13.4 kmh 29.91 in1012.9 mb 0.00 in0.0 mm 0.00 in0.0 mm 0.00 in0.0 mm
12:19 AM 48.2°F9.0°C 43.9°F6.6°C 85% 2.2 mph E3.5 kmh E 8.3 mph13.4 kmh 29.90 in1012.5 mb 0.00 in0.0 mm 0.00 in0.0 mm 0.00 in0.0 mm
12:20 AM 48.2°F9.0°C 43.9°F6.6°C 85% 3.8 mph E6.1 kmh E 8.3 mph13.4 kmh 29.90 in1012.5 mb 0.00 in0.0 mm 0.00 in0.0 mm 0.00 in0.0 mm
12:21 AM 48.2°F9.0°C 43.9°F6.6°C 85% 4.5 mph E7.2 kmh E 9.2 mph14.8 kmh 29.90 in1012.5 mb 0.00 in0.0 mm 0.00 in0.0 mm 0.00 in0.0 mm
12:22 AM 48.2°F9.0°C 43.9°F6.6°C 85% 2.2 mph E3.5 kmh E 9.2 mph14.8 kmh 29.90 in1012.5 mb 0.00 in0.0 mm 0.00 in0.0 mm 0.00 in0.0 mm
12:23 AM 48.2°F9.0°C 43.9°F6.6°C 85% 3.8 mph E6.1 kmh E 9.2 mph14.8 kmh 29.90 in1012.5 mb 0.00 in0.0 mm 0.00 in0.0 mm 0.00 in0.0 mm
12:24 AM 48.2°F9.0°C 43.9°F6.6°C 85% 4.5 mph E7.2 kmh E 9.2 mph14.8 kmh 29.90 in1012.5 mb 0.00 in0.0 mm 0.00 in0.0 mm 0.00 in0.0 mm
12:25 AM 48.2°F9.0°C 43.9°F6.6°C 85% 5.4 mph E8.7 kmh E 9.2 mph14.8 kmh 29.90 in1012.5 mb 0.00 in0.0 mm 0.00 in0.0 mm 0.00 in0.0 mm
12:26 AM 48.2°F9.0°C 43.9°F6.6°C 85% 4.5 mph ESE7.2 kmh ESE 9.2 mph14.8 kmh 29.90 in1012.5 mb 0.00 in0.0 mm 0.00 in0.0 mm 0.00 in0.0 mm
12:27 AM 48.2°F9.0°C 43.9°F6.6°C 85% 3.1 mph ESE5.0 kmh ESE 9.2 mph14.8 kmh 29.90 in1012.5 mb 0.00 in0.0 mm 0.00 in0.0 mm 0.00 in0.0 mm
12:28 AM 48.2°F9.0°C 43.9°F6.6°C 85% 3.1 mph ESE5.0 kmh ESE 9.2 mph14.8 kmh 29.90 in1012.5 mb 0.00 in0.0 mm 0.00 in0.0 mm 0.00 in0.0 mm
12:29 AM 48.2°F9.0°C 43.9°F6.6°C 85% 3.8 mph ESE6.1 kmh ESE 9.2 mph14.8 kmh 29.90 in1012.5 mb 0.00 in0.0 mm 0.00 in0.0 mm 0.00 in0.0 mm
12:30 AM 48.2°F9.0°C 43.9°F6.6°C 85% 3.8 mph ESE6.1 kmh ESE 9.2 mph14.8 kmh 29.90 in1012.5 mb 0.00 in0.0 mm 0.00 in0.0 mm 0.00 in0.0 mm
12:31 AM 48.2°F9.0°C 43.9°F6.6°C 85% 5.4 mph SE8.7 kmh SE 7.6 mph12.2 kmh 29.90 in1012.5 mb 0.00 in0.0 mm 0.00 in0.0 mm 0.00 in0.0 mm
12:32 AM 48.2°F9.0°C 43.9°F6.6°C 85% 5.4 mph SE8.7 kmh SE 7.6 mph12.2 kmh 29.90 in1012.5 mb 0.00 in0.0 mm 0.00 in0.0 mm 0.00 in0.0 mm
12:33 AM 48.2°F9.0°C 44.2°F6.8°C 86% 7.6 mph ESE12.2 kmh ESE 10.7 mph17.2 kmh 29.89 in1012.2 mb 0.00 in0.0 mm 0.00 in0.0 mm 0.00 in0.0 mm
12:34 AM 48.2°F9.0°C 44.2°F6.8°C 86% 5.4 mph ESE8.7 kmh ESE 10.7 mph17.2 kmh 29.89 in1012.2 mb 0.00 in0.0 mm 0.00 in0.0 mm 0.00 in0.0 mm
12:35 AM 48.2°F9.0°C 44.2°F6.8°C 86% 5.4 mph ESE8.7 kmh ESE 10.7 mph17.2 kmh 29.89 in1012.2 mb 0.00 in0.0 mm 0.00 in0.0 mm 0.00 in0.0 mm
12:36 AM 48.2°F9.0°C 44.2°F6.8°C 86% 6.0 mph E9.7 kmh E 10.7 mph17.2 kmh 29.90 in1012.5 mb 0.00 in0.0 mm 0.00 in0.0 mm 0.00 in0.0 mm
12:37 AM 48.2°F9.0°C 44.2°F6.8°C 86% 4.5 mph E7.2 kmh E 10.7 mph17.2 kmh 29.90 in1012.5 mb 0.00 in0.0 mm 0.00 in0.0 mm 0.00 in0.0 mm
12:38 AM 48.2°F9.0°C 44.2°F6.8°C 86% 5.4 mph E8.7 kmh E 10.7 mph17.2 kmh 29.90 in1012.5 mb 0.00 in0.0 mm 0.00 in0.0 mm 0.00 in0.0 mm
12:39 AM 48.2°F9.0°C 44.2°F6.8°C 86% 3.8 mph E6.1 kmh E 10.7 mph17.2 kmh 29.89 in1012.2 mb 0.00 in0.0 mm 0.00 in0.0 mm 0.00 in0.0 mm
12:40 AM 48.2°F9.0°C 44.2°F6.8°C 86% 5.4 mph ESE8.7 kmh ESE 10.7 mph17.2 kmh 29.90 in1012.5 mb 0.00 in0.0 mm 0.00 in0.0 mm 0.00 in0.0 mm
12:41 AM 48.2°F9.0°C 44.2°F6.8°C 86% 2.2 mph ESE3.5 kmh ESE 10.7 mph17.2 kmh 29.89 in1012.2 mb 0.00 in0.0 mm 0.00 in0.0 mm 0.00 in0.0 mm
12:42 AM 48.2°F9.0°C 44.2°F6.8°C 86% 6.0 mph ESE9.7 kmh ESE 10.7 mph17.2 kmh 29.89 in1012.2 mb 0.00 in0.0 mm 0.00 in0.0 mm 0.00 in0.0 mm
12:43 AM 48.2°F9.0°C 44.2°F6.8°C 86% 3.1 mph ESE5.0 kmh ESE 10.7 mph17.2 kmh 29.89 in1012.2 mb 0.00 in0.0 mm 0.00 in0.0 mm 0.00 in0.0 mm
12:44 AM 48.2°F9.0°C 44.2°F6.8°C 86% 2.2 mph ESE3.5 kmh ESE 9.2 mph14.8 kmh 29.89 in1012.2 mb 0.00 in0.0 mm 0.00 in0.0 mm 0.00 in0.0 mm
12:45 AM 48.2°F9.0°C 44.2°F6.8°C 86% 3.8 mph SE6.1 kmh SE 9.2 mph14.8 kmh 29.90 in1012.5 mb 0.00 in0.0 mm 0.00 in0.0 mm 0.00 in0.0 mm
12:46 AM 48.0°F8.9°C 44.0°F6.7°C 86% 5.4 mph SE8.7 kmh SE 9.2 mph14.8 kmh 29.89 in1012.2 mb 0.00 in0.0 mm 0.00 in0.0 mm 0.00 in0.0 mm
12:47 AM 48.0°F8.9°C 44.0°F6.7°C 86% 3.8 mph SE6.1 kmh SE 9.2 mph14.8 kmh 29.89 in1012.2 mb 0.00 in0.0 mm 0.00 in0.0 mm 0.00 in0.0 mm
12:48 AM 48.2°F9.0°C 44.2°F6.8°C 86% 3.1 mph SE5.0 kmh SE 9.2 mph14.8 kmh 29.89 in1012.2 mb 0.00 in0.0 mm 0.00 in0.0 mm 0.00 in0.0 mm
12:49 AM 48.0°F8.9°C 44.0°F6.7°C 86% 4.5 mph SE7.2 kmh SE 9.2 mph14.8 kmh 29.89 in1012.2 mb 0.00 in0.0 mm 0.00 in0.0 mm 0.00 in0.0 mm
12:50 AM 48.2°F9.0°C 44.2°F6.8°C 86% 4.5 mph SE7.2 kmh SE 9.2 mph14.8 kmh 29.89 in1012.2 mb 0.00 in0.0 mm 0.00 in0.0 mm 0.00 in0.0 mm
12:51 AM 48.0°F8.9°C 44.0°F6.7°C 86% 4.5 mph ESE7.2 kmh ESE 9.2 mph14.8 kmh 29.89 in1012.2 mb 0.00 in0.0 mm 0.00 in0.0 mm 0.00 in0.0 mm
12:52 AM 48.0°F8.9°C 44.0°F6.7°C 86% 4.5 mph ESE7.2 kmh ESE 9.2 mph14.8 kmh 29.89 in1012.2 mb 0.00 in0.0 mm 0.00 in0.0 mm 0.00 in0.0 mm
12:53 AM 48.0°F8.9°C 44.0°F6.7°C 86% 3.1 mph ESE5.0 kmh ESE 6.9 mph11.1 kmh 29.89 in1012.2 mb 0.00 in0.0 mm 0.00 in0.0 mm 0.00 in0.0 mm
12:54 AM 48.0°F8.9°C 44.0°F6.7°C 86% 6.9 mph ESE11.1 kmh ESE 7.6 mph12.2 kmh 29.89 in1012.2 mb 0.00 in0.0 mm 0.00 in0.0 mm 0.00 in0.0 mm
12:55 AM 48.0°F8.9°C 44.0°F6.7°C 86% 5.4 mph ESE8.7 kmh ESE 7.6 mph12.2 kmh 29.89 in1012.2 mb 0.00 in0.0 mm 0.00 in0.0 mm 0.00 in0.0 mm
12:56 AM 48.0°F8.9°C 44.0°F6.7°C 86% 4.5 mph ESE7.2 kmh ESE 7.6 mph12.2 kmh 29.89 in1012.2 mb 0.00 in0.0 mm 0.00 in0.0 mm 0.00 in0.0 mm
12:57 AM 48.0°F8.9°C 44.0°F6.7°C 86% 6.0 mph E9.7 kmh E 7.6 mph12.2 kmh 29.89 in1012.2 mb 0.00 in0.0 mm 0.00 in0.0 mm 0.00 in0.0 mm
12:58 AM 48.0°F8.9°C 44.0°F6.7°C 86% 6.0 mph E9.7 kmh E 7.6 mph12.2 kmh 29.89 in1012.2 mb 0.00 in0.0 mm 0.00 in0.0 mm 0.00 in0.0 mm
12:59 AM 48.0°F8.9°C 44.0°F6.7°C 86% 3.8 mph ENE6.1 kmh ENE 7.6 mph12.2 kmh 29.89 in1012.2 mb 0.00 in0.0 mm 0.00 in0.0 mm 0.00 in0.0 mm
01:00 AM 48.0°F8.9°C 44.0°F6.7°C 86% 2.2 mph NE3.5 kmh NE 7.6 mph12.2 kmh 29.89 in1012.2 mb 0.00 in0.0 mm 0.00 in0.0 mm 0.00 in0.0 mm
01:01 AM 47.8°F8.8°C 43.9°F6.6°C 86% 2.2 mph NE3.5 kmh NE 7.6 mph12.2 kmh 29.89 in1012.2 mb 0.00 in0.0 mm 0.00 in0.0 mm 0.00 in0.0 mm
01:02 AM 47.8°F8.8°C 43.9°F6.6°C 86% 1.6 mph NE2.6 kmh NE 7.6 mph12.2 kmh 29.89 in1012.2 mb 0.00 in0.0 mm 0.00 in0.0 mm 0.00 in0.0 mm
01:03 AM 47.8°F8.8°C 43.9°F6.6°C 86% 3.8 mph NE6.1 kmh NE 7.6 mph12.2 kmh 29.89 in1012.2 mb 0.00 in0.0 mm 0.00 in0.0 mm 0.00 in0.0 mm
01:04 AM 47.8°F8.8°C 43.9°F6.6°C 86% 4.5 mph NE7.2 kmh NE 7.6 mph12.2 kmh 29.89 in1012.2 mb 0.00 in0.0 mm 0.00 in0.0 mm 0.00 in0.0 mm
01:05 AM 48.0°F8.9°C 44.3°F6.8°C 87% 3.1 mph NE5.0 kmh NE 7.6 mph12.2 kmh 29.89 in1012.2 mb 0.00 in0.0 mm 0.00 in0.0 mm 0.00 in0.0 mm
01:06 AM 48.0°F8.9°C 44.3°F6.8°C 87% 2.2 mph NE3.5 kmh NE 7.6 mph12.2 kmh 29.89 in1012.2 mb 0.00 in0.0 mm 0.00 in0.0 mm 0.00 in0.0 mm
01:07 AM 48.0°F8.9°C 44.3°F6.8°C 87% 4.5 mph NE7.2 kmh NE 7.6 mph12.2 kmh 29.89 in1012.2 mb 0.00 in0.0 mm 0.00 in0.0 mm 0.00 in0.0 mm
01:08 AM 48.0°F8.9°C 44.3°F6.8°C 87% 3.1 mph ENE5.0 kmh ENE 7.6 mph12.2 kmh 29.89 in1012.2 mb 0.00 in0.0 mm 0.00 in0.0 mm 0.00 in0.0 mm
01:09 AM 48.0°F8.9°C 44.3°F6.8°C 87% 2.2 mph E3.5 kmh E 7.6 mph12.2 kmh 29.89 in1012.2 mb 0.00 in0.0 mm 0.00 in0.0 mm 0.00 in0.0 mm
01:10 AM 48.0°F8.9°C 44.3°F6.8°C 87% 3.8 mph E6.1 kmh E 6.0 mph9.7 kmh 29.89 in1012.2 mb 0.00 in0.0 mm 0.00 in0.0 mm 0.00 in0.0 mm
01:11 AM 48.0°F8.9°C 44.3°F6.8°C 87% 3.8 mph E6.1 kmh E 6.0 mph9.7 kmh 29.89 in1012.2 mb 0.00 in0.0 mm 0.00 in0.0 mm 0.00 in0.0 mm
01:12 AM 48.0°F8.9°C 44.3°F6.8°C 87% 3.1 mph E5.0 kmh E 6.0 mph9.7 kmh 29.89 in1012.2 mb 0.00 in0.0 mm 0.00 in0.0 mm 0.00 in0.0 mm
01:13 AM 48.0°F8.9°C 44.3°F6.8°C 87% 3.8 mph E6.1 kmh E 6.0 mph9.7 kmh 29.89 in1012.2 mb 0.00 in0.0 mm 0.00 in0.0 mm 0.00 in0.0 mm
01:14 AM 48.0°F8.9°C 44.3°F6.8°C 87% 3.8 mph E6.1 kmh E 6.0 mph9.7 kmh 29.89 in1012.2 mb 0.00 in0.0 mm 0.00 in0.0 mm 0.00 in0.0 mm
01:15 AM 48.0°F8.9°C 44.3°F6.8°C 87% 1.6 mph E2.6 kmh E 6.0 mph9.7 kmh 29.89 in1012.2 mb 0.00 in0.0 mm 0.00 in0.0 mm 0.00 in0.0 mm
01:16 AM 48.0°F8.9°C 44.3°F6.8°C 87% 3.1 mph E5.0 kmh E 6.0 mph9.7 kmh 29.89 in1012.2 mb 0.00 in0.0 mm 0.00 in0.0 mm 0.00 in0.0 mm
01:17 AM 48.0°F8.9°C 44.3°F6.8°C 87% 3.8 mph E6.1 kmh E 6.0 mph9.7 kmh 29.89 in1012.2 mb 0.00 in0.0 mm 0.00 in0.0 mm 0.00 in0.0 mm
01:18 AM 48.0°F8.9°C 44.3°F6.8°C 87% 3.1 mph E5.0 kmh E 6.0 mph9.7 kmh 29.89 in1012.2 mb 0.00 in0.0 mm 0.00 in0.0 mm 0.00 in0.0 mm
01:19 AM 48.0°F8.9°C 44.3°F6.8°C 87% 3.1 mph E5.0 kmh E 6.0 mph9.7 kmh 29.89 in1012.2 mb 0.00 in0.0 mm 0.00 in0.0 mm 0.00 in0.0 mm
01:20 AM 48.0°F8.9°C 44.3°F6.8°C 87% 2.2 mph E3.5 kmh E 6.0 mph9.7 kmh 29.89 in1012.2 mb 0.00 in0.0 mm 0.00 in0.0 mm 0.00 in0.0 mm
01:21 AM 48.0°F8.9°C 44.3°F6.8°C 87% 2.2 mph E3.5 kmh E 6.0 mph9.7 kmh 29.89 in1012.2 mb 0.00 in0.0 mm 0.00 in0.0 mm 0.00 in0.0 mm
01:22 AM 48.0°F8.9°C 44.3°F6.8°C 87% 3.1 mph E5.0 kmh E 6.0 mph9.7 kmh 29.89 in1012.2 mb 0.00 in0.0 mm 0.00 in0.0 mm 0.00 in0.0 mm
01:23 AM 48.0°F8.9°C 44.3°F6.8°C 87% 3.1 mph E5.0 kmh E 6.0 mph9.7 kmh 29.89 in1012.2 mb 0.00 in0.0 mm 0.00 in0.0 mm 0.00 in0.0 mm
01:24 AM 48.0°F8.9°C 44.3°F6.8°C 87% 1.6 mph E2.6 kmh E 6.0 mph9.7 kmh 29.89 in1012.2 mb 0.00 in0.0 mm 0.00 in0.0 mm 0.00 in0.0 mm
01:25 AM 48.0°F8.9°C 44.3°F6.8°C 87% 3.8 mph E6.1 kmh E 6.0 mph9.7 kmh 29.89 in1012.2 mb 0.00 in0.0 mm 0.00 in0.0 mm 0.00 in0.0 mm
01:26 AM 48.0°F8.9°C 44.3°F6.8°C 87% 3.1 mph E5.0 kmh E 6.0 mph9.7 kmh 29.89 in1012.2 mb 0.00 in0.0 mm 0.00 in0.0 mm 0.00 in0.0 mm
01:27 AM 48.0°F8.9°C 44.3°F6.8°C 87% 3.8 mph E6.1 kmh E 6.0 mph9.7 kmh 29.89 in1012.2 mb 0.00 in0.0 mm 0.00 in0.0 mm 0.00 in0.0 mm
01:28 AM 48.0°F8.9°C 44.3°F6.8°C 87% 3.8 mph E6.1 kmh E 5.4 mph8.7 kmh 29.89 in1012.2 mb 0.00 in0.0 mm 0.00 in0.0 mm 0.00 in0.0 mm
01:29 AM 48.0°F8.9°C 44.3°F6.8°C 87% 2.2 mph E3.5 kmh E 5.4 mph8.7 kmh 29.89 in1012.2 mb 0.00 in0.0 mm 0.00 in0.0 mm 0.00 in0.0 mm
01:30 AM 48.0°F8.9°C 44.3°F6.8°C 87% 3.8 mph E6.1 kmh E 5.4 mph8.7 kmh 29.89 in1012.2 mb 0.00 in0.0 mm 0.00 in0.0 mm 0.00 in0.0 mm
01:31 AM 48.0°F8.9°C 44.3°F6.8°C 87% 3.8 mph E6.1 kmh E 5.4 mph8.7 kmh 29.89 in1012.2 mb 0.00 in0.0 mm 0.00 in0.0 mm 0.00 in0.0 mm
01:32 AM 48.0°F8.9°C 44.3°F6.8°C 87% 1.6 mph E2.6 kmh E 5.4 mph8.7 kmh 29.89 in1012.2 mb 0.00 in0.0 mm 0.00 in0.0 mm 0.00 in0.0 mm
01:33 AM 48.0°F8.9°C 44.3°F6.8°C 87% 1.6 mph E2.6 kmh E 5.4 mph8.7 kmh 29.89 in1012.2 mb 0.00 in0.0 mm 0.00 in0.0 mm 0.00 in0.0 mm
01:34 AM 48.0°F8.9°C 44.3°F6.8°C 87% 3.1 mph E5.0 kmh E 5.4 mph8.7 kmh 29.89 in1012.2 mb 0.00 in0.0 mm 0.00 in0.0 mm 0.00 in0.0 mm
01:35 AM 48.0°F8.9°C 44.3°F6.8°C 87% 4.5 mph E7.2 kmh E 6.0 mph9.7 kmh 29.89 in1012.2 mb 0.00 in0.0 mm 0.00 in0.0 mm 0.00 in0.0 mm
01:36 AM 48.0°F8.9°C 44.3°F6.8°C 87% 4.5 mph ESE7.2 kmh ESE 6.0 mph9.7 kmh 29.89 in1012.2 mb 0.00 in0.0 mm 0.00 in0.0 mm 0.00 in0.0 mm
01:37 AM 48.0°F8.9°C 44.3°F6.8°C 87% 1.6 mph E2.6 kmh E 6.0 mph9.7 kmh 29.89 in1012.2 mb 0.00 in0.0 mm 0.00 in0.0 mm 0.00 in0.0 mm
01:38 AM 48.0°F8.9°C 44.3°F6.8°C 87% 2.2 mph E3.5 kmh E 6.0 mph9.7 kmh 29.89 in1012.2 mb 0.00 in0.0 mm 0.00 in0.0 mm 0.00 in0.0 mm
01:39 AM 48.0°F8.9°C 44.3°F6.8°C 87% 1.6 mph E2.6 kmh E 6.0 mph9.7 kmh 29.89 in1012.2 mb 0.00 in0.0 mm 0.00 in0.0 mm 0.00 in0.0 mm
01:40 AM 48.0°F8.9°C 44.3°F6.8°C 87% 1.6 mph ESE2.6 kmh ESE 6.0 mph9.7 kmh 29.89 in1012.2 mb 0.00 in0.0 mm 0.00 in0.0 mm 0.00 in0.0 mm
01:41 AM 48.0°F8.9°C 44.3°F6.8°C 87% 3.8 mph ESE6.1 kmh ESE 6.0 mph9.7 kmh 29.89 in1012.2 mb 0.00 in0.0 mm 0.00 in0.0 mm 0.00 in0.0 mm
01:42 AM 48.0°F8.9°C 44.3°F6.8°C 87% 0.7 mph E1.1 kmh E 6.0 mph9.7 kmh 29.89 in1012.2 mb 0.00 in0.0 mm 0.00 in0.0 mm 0.00 in0.0 mm
01:43 AM 48.0°F8.9°C 44.3°F6.8°C 87% 1.6 mph E2.6 kmh E 6.0 mph9.7 kmh 29.89 in1012.2 mb 0.00 in0.0 mm 0.00 in0.0 mm 0.00 in0.0 mm
01:44 AM 48.0°F8.9°C 44.3°F6.8°C 87% 2.2 mph E3.5 kmh E 6.0 mph9.7 kmh 29.89 in1012.2 mb 0.00 in0.0 mm 0.00 in0.0 mm 0.00 in0.0 mm
01:45 AM 48.0°F8.9°C 44.3°F6.8°C 87% 3.1 mph E5.0 kmh E 6.0 mph9.7 kmh 29.89 in1012.2 mb 0.00 in0.0 mm 0.00 in0.0 mm 0.00 in0.0 mm
01:46 AM 48.0°F8.9°C 44.3°F6.8°C 87% 3.1 mph E5.0 kmh E 6.0 mph9.7 kmh 29.89 in1012.2 mb 0.00 in0.0 mm 0.00 in0.0 mm 0.00 in0.0 mm
01:47 AM 48.0°F8.9°C 44.3°F6.8°C 87% 1.6 mph E2.6 kmh E 5.4 mph8.7 kmh 29.89 in1012.2 mb 0.00 in0.0 mm 0.00 in0.0 mm 0.00 in0.0 mm
01:48 AM 48.0°F8.9°C 44.3°F6.8°C 87% 2.2 mph E3.5 kmh E 5.4 mph8.7 kmh 29.89 in1012.2 mb 0.00 in0.0 mm 0.00 in0.0 mm 0.00 in0.0 mm
01:49 AM 48.0°F8.9°C 44.6°F7.0°C 88% 2.2 mph E3.5 kmh E 5.4 mph8.7 kmh 29.89 in1012.2 mb 0.00 in0.0 mm 0.00 in0.0 mm 0.00 in0.0 mm
01:50 AM 48.0°F8.9°C 44.6°F7.0°C 88% 3.8 mph E6.1 kmh E 5.4 mph8.7 kmh 29.89 in1012.2 mb 0.00 in0.0 mm 0.00 in0.0 mm 0.00 in0.0 mm
01:51 AM 48.0°F8.9°C 44.6°F7.0°C 88% 2.2 mph ENE3.5 kmh ENE 5.4 mph8.7 kmh 29.89 in1012.2 mb 0.00 in0.0 mm 0.00 in0.0 mm 0.00 in0.0 mm
01:52 AM 48.0°F8.9°C 44.6°F7.0°C 88% 1.6 mph E2.6 kmh E 4.5 mph7.2 kmh 29.89 in1012.2 mb 0.00 in0.0 mm 0.00 in0.0 mm 0.00 in0.0 mm
01:53 AM 48.0°F8.9°C 44.6°F7.0°C 88% 3.1 mph E5.0 kmh E 4.5 mph7.2 kmh 29.89 in1012.2 mb 0.00 in0.0 mm 0.00 in0.0 mm 0.00 in0.0 mm
01:54 AM 48.0°F8.9°C 44.6°F7.0°C 88% 3.8 mph E6.1 kmh E 4.5 mph7.2 kmh 29.89 in1012.2 mb 0.00 in0.0 mm 0.00 in0.0 mm 0.00 in0.0 mm
01:55 AM 48.0°F8.9°C 44.6°F7.0°C 88% 2.2 mph E3.5 kmh E 4.5 mph7.2 kmh 29.89 in1012.2 mb 0.00 in0.0 mm 0.00 in0.0 mm 0.00 in0.0 mm
01:56 AM 48.0°F8.9°C 44.6°F7.0°C 88% 2.2 mph E3.5 kmh E 4.5 mph7.2 kmh 29.89 in1012.2 mb 0.00 in0.0 mm 0.00 in0.0 mm 0.00 in0.0 mm
01:57 AM 48.0°F8.9°C 44.6°F7.0°C 88% 0.7 mph E1.1 kmh E 4.5 mph7.2 kmh 29.89 in1012.2 mb 0.00 in0.0 mm 0.00 in0.0 mm 0.00 in0.0 mm
01:58 AM 48.0°F8.9°C 44.6°F7.0°C 88% 3.1 mph E5.0 kmh E 4.5 mph7.2 kmh 29.89 in1012.2 mb 0.00 in0.0 mm 0.00 in0.0 mm 0.00 in0.0 mm
01:59 AM 48.0°F8.9°C 44.6°F7.0°C 88% 2.2 mph E3.5 kmh E 4.5 mph7.2 kmh 29.89 in1012.2 mb 0.00 in0.0 mm 0.00 in0.0 mm 0.00 in0.0 mm
02:00 AM 48.0°F8.9°C 44.6°F7.0°C 88% 3.8 mph E6.1 kmh E 4.5 mph7.2 kmh 29.89 in1012.2 mb 0.00 in0.0 mm 0.00 in0.0 mm 0.00 in0.0 mm
02:01 AM 48.0°F8.9°C 44.6°F7.0°C 88% 3.8 mph E6.1 kmh E 4.5 mph7.2 kmh 29.89 in1012.2 mb 0.00 in0.0 mm 0.00 in0.0 mm 0.00 in0.0 mm
02:02 AM 48.0°F8.9°C 44.6°F7.0°C 88% 3.8 mph E6.1 kmh E 4.5 mph7.2 kmh 29.89 in1012.2 mb 0.00 in0.0 mm 0.00 in0.0 mm 0.00 in0.0 mm
02:03 AM 48.0°F8.9°C 44.6°F7.0°C 88% 3.8 mph E6.1 kmh E 4.5 mph7.2 kmh 29.89 in1012.2 mb 0.00 in0.0 mm 0.00 in0.0 mm 0.00 in0.0 mm
02:04 AM 48.0°F8.9°C 44.6°F7.0°C 88% 3.8 mph E6.1 kmh E 4.5 mph7.2 kmh 29.89 in1012.2 mb 0.00 in0.0 mm 0.00 in0.0 mm 0.00 in0.0 mm
02:05 AM 48.0°F8.9°C 44.6°F7.0°C 88% 3.8 mph E6.1 kmh E 4.5 mph7.2 kmh 29.89 in1012.2 mb 0.00 in0.0 mm 0.00 in0.0 mm 0.00 in0.0 mm
02:06 AM 48.0°F8.9°C 44.6°F7.0°C 88% 3.8 mph E6.1 kmh E 4.5 mph7.2 kmh 29.89 in1012.2 mb 0.00 in0.0 mm 0.00 in0.0 mm 0.00 in0.0 mm
02:07 AM 48.2°F9.0°C 44.8°F7.1°C 88% 4.5 mph E7.2 kmh E 6.0 mph9.7 kmh 29.89 in1012.2 mb 0.00 in0.0 mm 0.00 in0.0 mm 0.00 in0.0 mm
02:08 AM 48.2°F9.0°C 44.8°F7.1°C 88% 4.5 mph E7.2 kmh E 6.0 mph9.7 kmh 29.89 in1012.2 mb 0.00 in0.0 mm 0.00 in0.0 mm 0.00 in0.0 mm
02:09 AM 48.0°F8.9°C 44.6°F7.0°C 88% 3.8 mph E6.1 kmh E 6.0 mph9.7 kmh 29.89 in1012.2 mb 0.00 in0.0 mm 0.00 in0.0 mm 0.00 in0.0 mm
02:10 AM 48.0°F8.9°C 44.6°F7.0°C 88% 3.1 mph E5.0 kmh E 6.0 mph9.7 kmh 29.89 in1012.2 mb 0.00 in0.0 mm 0.00 in0.0 mm 0.00 in0.0 mm
02:11 AM 48.0°F8.9°C 44.6°F7.0°C 88% 3.8 mph E6.1 kmh E 6.0 mph9.7 kmh 29.89 in1012.2 mb 0.00 in0.0 mm 0.00 in0.0 mm 0.00 in0.0 mm
02:12 AM 48.0°F8.9°C 44.6°F7.0°C 88% 5.4 mph E8.7 kmh E 6.9 mph11.1 kmh 29.89 in1012.2 mb 0.00 in0.0 mm 0.00 in0.0 mm 0.00 in0.0 mm
02:13 AM 48.2°F9.0°C 44.8°F7.1°C 88% 3.1 mph E5.0 kmh E 6.9 mph11.1 kmh 29.89 in1012.2 mb 0.00 in0.0 mm 0.00 in0.0 mm 0.00 in0.0 mm
02:14 AM 48.2°F9.0°C 44.8°F7.1°C 88% 3.1 mph E5.0 kmh E 6.9 mph11.1 kmh 29.89 in1012.2 mb 0.00 in0.0 mm 0.00 in0.0 mm 0.00 in0.0 mm
02:15 AM 48.2°F9.0°C 44.8°F7.1°C 88% 4.5 mph E7.2 kmh E 6.9 mph11.1 kmh 29.89 in1012.2 mb 0.00 in0.0 mm 0.00 in0.0 mm 0.00 in0.0 mm
02:16 AM 48.2°F9.0°C 44.8°F7.1°C 88% 3.8 mph E6.1 kmh E 6.9 mph11.1 kmh 29.89 in1012.2 mb 0.00 in0.0 mm 0.00 in0.0 mm 0.00 in0.0 mm
02:17 AM 48.2°F9.0°C 44.8°F7.1°C 88% 3.8 mph E6.1 kmh E 6.9 mph11.1 kmh 29.89 in1012.2 mb 0.00 in0.0 mm 0.00 in0.0 mm 0.00 in0.0 mm
02:18 AM 48.2°F9.0°C 44.8°F7.1°C 88% 3.1 mph E5.0 kmh E 6.9 mph11.1 kmh 29.89 in1012.2 mb 0.00 in0.0 mm 0.00 in0.0 mm 0.00 in0.0 mm
02:19 AM 48.2°F9.0°C 44.8°F7.1°C 88% 3.8 mph E6.1 kmh E 6.9 mph11.1 kmh 29.89 in1012.2 mb 0.00 in0.0 mm 0.00 in0.0 mm 0.00 in0.0 mm
02:20 AM 48.2°F9.0°C 44.8°F7.1°C 88% 2.2 mph E3.5 kmh E 6.9 mph11.1 kmh 29.89 in1012.2 mb 0.00 in0.0 mm 0.00 in0.0 mm 0.00 in0.0 mm
02:21 AM 48.2°F9.0°C 44.8°F7.1°C 88% 3.8 mph ESE6.1 kmh ESE 6.9 mph11.1 kmh 29.88 in1011.9 mb 0.00 in0.0 mm 0.00 in0.0 mm 0.00 in0.0 mm
02:22 AM 48.2°F9.0°C 44.8°F7.1°C 88% 1.6 mph ESE2.6 kmh ESE 6.0 mph9.7 kmh 29.88 in1011.9 mb 0.00 in0.0 mm 0.00 in0.0 mm 0.00 in0.0 mm
02:23 AM 48.2°F9.0°C 44.8°F7.1°C 88% 2.2 mph ESE3.5 kmh ESE 6.0 mph9.7 kmh 29.88 in1011.9 mb 0.00 in0.0 mm 0.00 in0.0 mm 0.00 in0.0 mm
02:24 AM 48.0°F8.9°C 44.6°F7.0°C 88% 1.6 mph ESE2.6 kmh ESE 6.0 mph9.7 kmh 29.88 in1011.9 mb 0.00 in0.0 mm 0.00 in0.0 mm 0.00 in0.0 mm
02:25 AM 48.0°F8.9°C 44.6°F7.0°C 88% 3.1 mph ESE5.0 kmh ESE 6.0 mph9.7 kmh 29.88 in1011.9 mb 0.00 in0.0 mm 0.00 in0.0 mm 0.00 in0.0 mm
02:26 AM 48.0°F8.9°C 44.6°F7.0°C 88% 3.1 mph ESE5.0 kmh ESE 6.0 mph9.7 kmh 29.88 in1011.9 mb 0.00 in0.0 mm 0.00 in0.0 mm 0.00 in0.0 mm
02:27 AM 48.0°F8.9°C 44.6°F7.0°C 88% 4.5 mph E7.2 kmh E 6.0 mph9.7 kmh 29.88 in1011.9 mb 0.00 in0.0 mm 0.00 in0.0 mm 0.00 in0.0 mm
02:28 AM 48.0°F8.9°C 44.6°F7.0°C 88% 5.4 mph E8.7 kmh E 6.0 mph9.7 kmh 29.88 in1011.9 mb 0.00 in0.0 mm 0.00 in0.0 mm 0.00 in0.0 mm
02:29 AM 48.0°F8.9°C 44.6°F7.0°C 88% 3.8 mph E6.1 kmh E 6.0 mph9.7 kmh 29.88 in1011.9 mb 0.00 in0.0 mm 0.00 in0.0 mm 0.00 in0.0 mm
02:30 AM 48.0°F8.9°C 44.6°F7.0°C 88% 5.4 mph E8.7 kmh E 6.0 mph9.7 kmh 29.88 in1011.9 mb 0.00 in0.0 mm 0.00 in0.0 mm 0.00 in0.0 mm
02:31 AM 48.0°F8.9°C 44.6°F7.0°C 88% 2.2 mph E3.5 kmh E 6.0 mph9.7 kmh 29.88 in1011.9 mb 0.00 in0.0 mm 0.00 in0.0 mm 0.00 in0.0 mm
02:32 AM 48.0°F8.9°C 44.6°F7.0°C 88% 4.5 mph E7.2 kmh E 6.0 mph9.7 kmh 29.88 in1011.9 mb 0.00 in0.0 mm 0.00 in0.0 mm 0.00 in0.0 mm
02:33 AM 48.0°F8.9°C 44.6°F7.0°C 88% 1.6 mph E2.6 kmh E 6.0 mph9.7 kmh 29.88 in1011.9 mb 0.00 in0.0 mm 0.00 in0.0 mm 0.00 in0.0 mm
02:34 AM 48.0°F8.9°C 44.6°F7.0°C 88% 3.8 mph E6.1 kmh E 6.0 mph9.7 kmh 29.88 in1011.9 mb 0.00 in0.0 mm 0.00 in0.0 mm 0.00 in0.0 mm
02:35 AM 48.0°F8.9°C 44.6°F7.0°C 88% 3.1 mph E5.0 kmh E 6.0 mph9.7 kmh 29.88 in1011.9 mb 0.00 in0.0 mm 0.00 in0.0 mm 0.00 in0.0 mm
02:36 AM 48.0°F8.9°C 44.6°F7.0°C 88% 3.1 mph E5.0 kmh E 6.0 mph9.7 kmh 29.89 in1012.2 mb 0.00 in0.0 mm 0.00 in0.0 mm 0.00 in0.0 mm
02:37 AM 47.8°F8.8°C 44.5°F6.9°C 88% 1.6 mph E2.6 kmh E 6.0 mph9.7 kmh 29.88 in1011.9 mb 0.00 in0.0 mm 0.00 in0.0 mm 0.00 in0.0 mm
02:38 AM 47.8°F8.8°C 44.5°F6.9°C 88% 3.1 mph E5.0 kmh E 6.0 mph9.7 kmh 29.89 in1012.2 mb 0.00 in0.0 mm 0.00 in0.0 mm 0.00 in0.0 mm
02:39 AM 47.8°F8.8°C 44.5°F6.9°C 88% 3.1 mph ESE5.0 kmh ESE 6.0 mph9.7 kmh 29.88 in1011.9 mb 0.00 in0.0 mm 0.00 in0.0 mm 0.00 in0.0 mm
02:40 AM 47.8°F8.8°C 44.5°F6.9°C 88% 1.6 mph ESE2.6 kmh ESE 6.0 mph9.7 kmh 29.88 in1011.9 mb 0.00 in0.0 mm 0.00 in0.0 mm 0.00 in0.0 mm
02:41 AM 47.8°F8.8°C 44.5°F6.9°C 88% 3.8 mph ESE6.1 kmh ESE 6.0 mph9.7 kmh 29.88 in1011.9 mb 0.00 in0.0 mm 0.00 in0.0 mm 0.00 in0.0 mm
02:42 AM 47.8°F8.8°C 44.5°F6.9°C 88% 2.2 mph E3.5 kmh E 6.0 mph9.7 kmh 29.88 in1011.9 mb 0.00 in0.0 mm 0.00 in0.0 mm 0.00 in0.0 mm
02:43 AM 47.8°F8.8°C 44.5°F6.9°C 88% 3.1 mph ESE5.0 kmh ESE 6.0 mph9.7 kmh 29.89 in1012.2 mb 0.00 in0.0 mm 0.00 in0.0 mm 0.00 in0.0 mm
02:44 AM 47.8°F8.8°C 44.5°F6.9°C 88% 3.1 mph ESE5.0 kmh ESE 6.0 mph9.7 kmh 29.88 in1011.9 mb 0.00 in0.0 mm 0.00 in0.0 mm 0.00 in0.0 mm
02:45 AM 47.8°F8.8°C 44.5°F6.9°C 88% 2.2 mph ESE3.5 kmh ESE 6.0 mph9.7 kmh 29.88 in1011.9 mb 0.00 in0.0 mm 0.00 in0.0 mm 0.00 in0.0 mm
02:46 AM 47.8°F8.8°C 44.5°F6.9°C 88% 3.1 mph ESE5.0 kmh ESE 5.4 mph8.7 kmh 29.88 in1011.9 mb 0.00 in0.0 mm 0.00 in0.0 mm 0.00 in0.0 mm
02:47 AM 47.8°F8.8°C 44.8°F7.1°C 89% 3.1 mph E5.0 kmh E 5.4 mph8.7 kmh 29.89 in1012.2 mb 0.00 in0.0 mm 0.00 in0.0 mm 0.00 in0.0 mm
02:48 AM 48.0°F8.9°C 44.9°F7.2°C 89% 3.1 mph E5.0 kmh E 5.4 mph8.7 kmh 29.89 in1012.2 mb 0.00 in0.0 mm 0.00 in0.0 mm 0.00 in0.0 mm
02:49 AM 48.0°F8.9°C 44.9°F7.2°C 89% 2.2 mph E3.5 kmh E 5.4 mph8.7 kmh 29.88 in1011.9 mb 0.00 in0.0 mm 0.00 in0.0 mm 0.00 in0.0 mm
02:50 AM 48.0°F8.9°C 44.9°F7.2°C 89% 0.7 mph E1.1 kmh E 5.4 mph8.7 kmh 29.88 in1011.9 mb 0.00 in0.0 mm 0.00 in0.0 mm 0.00 in0.0 mm
02:51 AM 48.0°F8.9°C 44.9°F7.2°C 89% 3.8 mph E6.1 kmh E 5.4 mph8.7 kmh 29.88 in1011.9 mb 0.00 in0.0 mm 0.00 in0.0 mm 0.00 in0.0 mm
02:52 AM 48.0°F8.9°C 44.9°F7.2°C 89% 3.8 mph E6.1 kmh E 4.5 mph7.2 kmh 29.89 in1012.2 mb 0.00 in0.0 mm 0.00 in0.0 mm 0.00 in0.0 mm
02:53 AM 48.0°F8.9°C 44.9°F7.2°C 89% 4.5 mph E7.2 kmh E 5.4 mph8.7 kmh 29.89 in1012.2 mb 0.00 in0.0 mm 0.00 in0.0 mm 0.00 in0.0 mm
02:54 AM 48.0°F8.9°C 44.9°F7.2°C 89% 3.8 mph E6.1 kmh E 5.4 mph8.7 kmh 29.88 in1011.9 mb 0.00 in0.0 mm 0.00 in0.0 mm 0.00 in0.0 mm
02:55 AM 48.0°F8.9°C 44.9°F7.2°C 89% 3.8 mph E6.1 kmh E 5.4 mph8.7 kmh 29.89 in1012.2 mb 0.00 in0.0 mm 0.00 in0.0 mm 0.00 in0.0 mm
02:56 AM 48.0°F8.9°C 44.9°F7.2°C 89% 4.5 mph E7.2 kmh E 5.4 mph8.7 kmh 29.88 in1011.9 mb 0.00 in0.0 mm 0.00 in0.0 mm 0.00 in0.0 mm
02:57 AM 48.0°F8.9°C 44.9°F7.2°C 89% 3.8 mph E6.1 kmh E 5.4 mph8.7 kmh 29.88 in1011.9 mb 0.00 in0.0 mm 0.00 in0.0 mm 0.00 in0.0 mm
02:58 AM 48.0°F8.9°C 44.9°F7.2°C 89% 2.2 mph E3.5 kmh E 5.4 mph8.7 kmh 29.88 in1011.9 mb 0.00 in0.0 mm 0.00 in0.0 mm 0.00 in0.0 mm
02:59 AM 48.0°F8.9°C 44.9°F7.2°C 89% 3.1 mph E5.0 kmh E 5.4 mph8.7 kmh 29.88 in1011.9 mb 0.00 in0.0 mm 0.00 in0.0 mm 0.00 in0.0 mm
03:00 AM 48.0°F8.9°C 44.9°F7.2°C 89% 1.6 mph E2.6 kmh E 5.4 mph8.7 kmh 29.88 in1011.9 mb 0.00 in0.0 mm 0.00 in0.0 mm 0.00 in0.0 mm
03:01 AM 48.0°F8.9°C 44.9°F7.2°C 89% 2.2 mph ESE3.5 kmh ESE 5.4 mph8.7 kmh 29.88 in1011.9 mb 0.00 in0.0 mm 0.00 in0.0 mm 0.00 in0.0 mm
03:02 AM 48.0°F8.9°C 44.9°F7.2°C 89% 5.4 mph E8.7 kmh E 6.9 mph11.1 kmh 29.89 in1012.2 mb 0.00 in0.0 mm 0.00 in0.0 mm 0.00 in0.0 mm
03:03 AM 48.0°F8.9°C 44.9°F7.2°C 89% 5.4 mph E8.7 kmh E 6.9 mph11.1 kmh 29.88 in1011.9 mb 0.00 in0.0 mm 0.00 in0.0 mm 0.00 in0.0 mm
03:04 AM 48.0°F8.9°C 44.9°F7.2°C 89% 4.5 mph E7.2 kmh E 6.9 mph11.1 kmh 29.88 in1011.9 mb 0.00 in0.0 mm 0.00 in0.0 mm 0.00 in0.0 mm
03:05 AM 48.0°F8.9°C 44.9°F7.2°C 89% 5.4 mph E8.7 kmh E 6.9 mph11.1 kmh 29.88 in1011.9 mb 0.00 in0.0 mm 0.00 in0.0 mm 0.00 in0.0 mm
03:06 AM 48.0°F8.9°C 44.9°F7.2°C 89% 2.2 mph E3.5 kmh E 6.9 mph11.1 kmh 29.88 in1011.9 mb 0.00 in0.0 mm 0.00 in0.0 mm 0.00 in0.0 mm
03:07 AM 48.0°F8.9°C 44.9°F7.2°C 89% 3.1 mph E5.0 kmh E 6.9 mph11.1 kmh 29.88 in1011.9 mb 0.00 in0.0 mm 0.00 in0.0 mm 0.00 in0.0 mm
03:08 AM 48.0°F8.9°C 44.9°F7.2°C 89% 5.4 mph E8.7 kmh E 6.9 mph11.1 kmh 29.88 in1011.9 mb 0.00 in0.0 mm 0.00 in0.0 mm 0.00 in0.0 mm
03:09 AM 48.0°F8.9°C 44.9°F7.2°C 89% 3.8 mph E6.1 kmh E 6.9 mph11.1 kmh 29.88 in1011.9 mb 0.00 in0.0 mm 0.00 in0.0 mm 0.00 in0.0 mm
03:10 AM 48.0°F8.9°C 44.9°F7.2°C 89% 3.8 mph E6.1 kmh E 6.9 mph11.1 kmh 29.88 in1011.9 mb 0.00 in0.0 mm 0.00 in0.0 mm 0.00 in0.0 mm
03:11 AM 48.0°F8.9°C 44.9°F7.2°C 89% 3.8 mph E6.1 kmh E 6.9 mph11.1 kmh 29.88 in1011.9 mb 0.00 in0.0 mm 0.00 in0.0 mm 0.00 in0.0 mm
03:12 AM 48.0°F8.9°C 44.9°F7.2°C 89% 3.8 mph E6.1 kmh E 6.9 mph11.1 kmh 29.88 in1011.9 mb 0.00 in0.0 mm 0.00 in0.0 mm 0.00 in0.0 mm
03:13 AM 48.0°F8.9°C 44.9°F7.2°C 89% 4.5 mph E7.2 kmh E 6.9 mph11.1 kmh 29.88 in1011.9 mb 0.00 in0.0 mm 0.00 in0.0 mm 0.00 in0.0 mm
03:14 AM 48.0°F8.9°C 44.9°F7.2°C 89% 1.6 mph ESE2.6 kmh ESE 6.9 mph11.1 kmh 29.88 in1011.9 mb 0.00 in0.0 mm 0.00 in0.0 mm 0.00 in0.0 mm
03:15 AM 48.0°F8.9°C 44.9°F7.2°C 89% 3.1 mph E5.0 kmh E 6.9 mph11.1 kmh 29.88 in1011.9 mb 0.00 in0.0 mm 0.00 in0.0 mm 0.00 in0.0 mm
03:16 AM 48.0°F8.9°C 44.9°F7.2°C 89% 2.2 mph E3.5 kmh E 6.9 mph11.1 kmh 29.88 in1011.9 mb 0.00 in0.0 mm 0.00 in0.0 mm 0.00 in0.0 mm
03:17 AM 48.0°F8.9°C 44.9°F7.2°C 89% 1.6 mph E2.6 kmh E 6.9 mph11.1 kmh 29.88 in1011.9 mb 0.00 in0.0 mm 0.00 in0.0 mm 0.00 in0.0 mm
03:18 AM 48.0°F8.9°C 44.9°F7.2°C 89% 1.6 mph E2.6 kmh E 6.0 mph9.7 kmh 29.88 in1011.9 mb 0.00 in0.0 mm 0.00 in0.0 mm 0.00 in0.0 mm
03:19 AM 48.0°F8.9°C 44.9°F7.2°C 89% 4.5 mph ESE7.2 kmh ESE 6.0 mph9.7 kmh 29.88 in1011.9 mb 0.00 in0.0 mm 0.00 in0.0 mm 0.00 in0.0 mm
03:20 AM 48.0°F8.9°C 45.2°F7.3°C 90% 5.4 mph ESE8.7 kmh ESE 6.9 mph11.1 kmh 29.88 in1011.9 mb 0.00 in0.0 mm 0.00 in0.0 mm 0.00 in0.0 mm
03:21 AM 48.0°F8.9°C 45.2°F7.3°C 90% 2.2 mph ESE3.5 kmh ESE 6.9 mph11.1 kmh 29.88 in1011.9 mb 0.00 in0.0 mm 0.00 in0.0 mm 0.00 in0.0 mm
03:22 AM 48.0°F8.9°C 45.2°F7.3°C 90% 3.8 mph ESE6.1 kmh ESE 6.9 mph11.1 kmh 29.88 in1011.9 mb 0.00 in0.0 mm 0.00 in0.0 mm 0.00 in0.0 mm
03:23 AM 48.0°F8.9°C 45.2°F7.3°C 90% 5.4 mph ESE8.7 kmh ESE 6.9 mph11.1 kmh 29.88 in1011.9 mb 0.00 in0.0 mm 0.00 in0.0 mm 0.00 in0.0 mm
03:24 AM 48.0°F8.9°C 45.2°F7.3°C 90% 4.5 mph ESE7.2 kmh ESE 6.9 mph11.1 kmh 29.88 in1011.9 mb 0.00 in0.0 mm 0.00 in0.0 mm 0.00 in0.0 mm
03:25 AM 48.0°F8.9°C 45.2°F7.3°C 90% 3.8 mph ESE6.1 kmh ESE 6.9 mph11.1 kmh 29.88 in1011.9 mb 0.00 in0.0 mm 0.00 in0.0 mm 0.00 in0.0 mm
03:26 AM 48.0°F8.9°C 45.2°F7.3°C 90% 5.4 mph ESE8.7 kmh ESE 6.9 mph11.1 kmh 29.88 in1011.9 mb 0.00 in0.0 mm 0.00 in0.0 mm 0.00 in0.0 mm
03:27 AM 48.0°F8.9°C 45.2°F7.3°C 90% 3.1 mph ESE5.0 kmh ESE 6.9 mph11.1 kmh 29.88 in1011.9 mb 0.00 in0.0 mm 0.00 in0.0 mm 0.00 in0.0 mm
03:28 AM 48.0°F8.9°C 45.2°F7.3°C 90% 3.1 mph ESE5.0 kmh ESE 6.9 mph11.1 kmh 29.88 in1011.9 mb 0.00 in0.0 mm 0.00 in0.0 mm 0.00 in0.0 mm
03:29 AM 48.2°F9.0°C 45.4°F7.4°C 90% 4.5 mph E7.2 kmh E 6.9 mph11.1 kmh 29.88 in1011.9 mb 0.00 in0.0 mm 0.00 in0.0 mm 0.00 in0.0 mm
03:30 AM 48.2°F9.0°C 45.4°F7.4°C 90% 4.5 mph E7.2 kmh E 6.9 mph11.1 kmh 29.88 in1011.9 mb 0.00 in0.0 mm 0.00 in0.0 mm 0.00 in0.0 mm
03:31 AM 48.2°F9.0°C 45.4°F7.4°C 90% 5.4 mph ESE8.7 kmh ESE 8.3 mph13.4 kmh 29.87 in1011.5 mb 0.00 in0.0 mm 0.00 in0.0 mm 0.00 in0.0 mm
03:32 AM 48.2°F9.0°C 45.4°F7.4°C 90% 5.4 mph ESE8.7 kmh ESE 8.3 mph13.4 kmh 29.87 in1011.5 mb 0.00 in0.0 mm 0.00 in0.0 mm 0.00 in0.0 mm
03:33 AM 48.2°F9.0°C 45.4°F7.4°C 90% 4.5 mph ESE7.2 kmh ESE 8.3 mph13.4 kmh 29.88 in1011.9 mb 0.00 in0.0 mm 0.00 in0.0 mm 0.00 in0.0 mm
03:34 AM 48.2°F9.0°C 45.4°F7.4°C 90% 6.0 mph ESE9.7 kmh ESE 8.3 mph13.4 kmh 29.87 in1011.5 mb 0.00 in0.0 mm 0.00 in0.0 mm 0.00 in0.0 mm
03:35 AM 48.2°F9.0°C 45.4°F7.4°C 90% 6.0 mph SE9.7 kmh SE 8.3 mph13.4 kmh 29.87 in1011.5 mb 0.00 in0.0 mm 0.00 in0.0 mm 0.00 in0.0 mm
03:36 AM 48.2°F9.0°C 45.4°F7.4°C 90% 8.3 mph SE13.4 kmh SE 10.7 mph17.2 kmh 29.87 in1011.5 mb 0.00 in0.0 mm 0.00 in0.0 mm 0.00 in0.0 mm
03:37 AM 48.2°F9.0°C 45.4°F7.4°C 90% 4.5 mph SE7.2 kmh SE 10.7 mph17.2 kmh 29.88 in1011.9 mb 0.00 in0.0 mm 0.00 in0.0 mm 0.00 in0.0 mm
03:38 AM 48.2°F9.0°C 45.4°F7.4°C 90% 4.5 mph SE7.2 kmh SE 10.7 mph17.2 kmh 29.88 in1011.9 mb 0.00 in0.0 mm 0.00 in0.0 mm 0.00 in0.0 mm
03:39 AM 48.2°F9.0°C 45.4°F7.4°C 90% 4.5 mph SE7.2 kmh SE 10.7 mph17.2 kmh 29.88 in1011.9 mb 0.00 in0.0 mm 0.00 in0.0 mm 0.00 in0.0 mm
03:40 AM 48.2°F9.0°C 45.4°F7.4°C 90% 4.5 mph SE7.2 kmh SE 10.7 mph17.2 kmh 29.88 in1011.9 mb 0.00 in0.0 mm 0.00 in0.0 mm 0.00 in0.0 mm
03:41 AM 48.2°F9.0°C 45.4°F7.4°C 90% 6.9 mph SE11.1 kmh SE 10.7 mph17.2 kmh 29.88 in1011.9 mb 0.00 in0.0 mm 0.00 in0.0 mm 0.00 in0.0 mm
03:42 AM 48.2°F9.0°C 45.4°F7.4°C 90% 6.9 mph SE11.1 kmh SE 10.7 mph17.2 kmh 29.88 in1011.9 mb 0.00 in0.0 mm 0.00 in0.0 mm 0.00 in0.0 mm
03:43 AM 48.2°F9.0°C 45.4°F7.4°C 90% 10.7 mph SE17.2 kmh SE 12.1 mph19.5 kmh 29.88 in1011.9 mb 0.00 in0.0 mm 0.00 in0.0 mm 0.00 in0.0 mm
03:44 AM 48.2°F9.0°C 45.4°F7.4°C 90% 6.0 mph SE9.7 kmh SE 12.1 mph19.5 kmh 29.88 in1011.9 mb 0.00 in0.0 mm 0.00 in0.0 mm 0.00 in0.0 mm
03:45 AM 48.2°F9.0°C 45.7°F7.6°C 91% 6.9 mph SE11.1 kmh SE 12.1 mph19.5 kmh 29.88 in1011.9 mb 0.00 in0.0 mm 0.00 in0.0 mm 0.00 in0.0 mm
03:46 AM 48.2°F9.0°C 45.7°F7.6°C 91% 7.6 mph SE12.2 kmh SE 12.1 mph19.5 kmh 29.88 in1011.9 mb 0.00 in0.0 mm 0.00 in0.0 mm 0.00 in0.0 mm
03:47 AM 48.2°F9.0°C 45.7°F7.6°C 91% 3.8 mph SE6.1 kmh SE 12.1 mph19.5 kmh 29.88 in1011.9 mb 0.00 in0.0 mm 0.00 in0.0 mm 0.00 in0.0 mm
03:48 AM 48.2°F9.0°C 45.7°F7.6°C 91% 3.8 mph SE6.1 kmh SE 12.1 mph19.5 kmh 29.88 in1011.9 mb 0.00 in0.0 mm 0.00 in0.0 mm 0.00 in0.0 mm
03:49 AM 48.2°F9.0°C 45.7°F7.6°C 91% 6.0 mph SE9.7 kmh SE 12.1 mph19.5 kmh 29.88 in1011.9 mb 0.00 in0.0 mm 0.00 in0.0 mm 0.00 in0.0 mm
03:50 AM 48.2°F9.0°C 45.7°F7.6°C 91% 5.4 mph SE8.7 kmh SE 12.1 mph19.5 kmh 29.88 in1011.9 mb 0.00 in0.0 mm 0.00 in0.0 mm 0.00 in0.0 mm
03:51 AM 48.2°F9.0°C 45.7°F7.6°C 91% 5.4 mph SE8.7 kmh SE 12.1 mph19.5 kmh 29.88 in1011.9 mb 0.00 in0.0 mm 0.00 in0.0 mm 0.00 in0.0 mm
03:52 AM 48.2°F9.0°C 45.7°F7.6°C 91% 4.5 mph SE7.2 kmh SE 12.1 mph19.5 kmh 29.88 in1011.9 mb 0.00 in0.0 mm 0.00 in0.0 mm 0.00 in0.0 mm
03:53 AM 48.2°F9.0°C 45.7°F7.6°C 91% 6.9 mph SE11.1 kmh SE 12.1 mph19.5 kmh 29.88 in1011.9 mb 0.00 in0.0 mm 0.00 in0.0 mm 0.00 in0.0 mm
03:54 AM 48.2°F9.0°C 45.7°F7.6°C 91% 6.0 mph SE9.7 kmh SE 9.8 mph15.8 kmh 29.88 in1011.9 mb 0.00 in0.0 mm 0.00 in0.0 mm 0.00 in0.0 mm
03:55 AM 48.2°F9.0°C 45.7°F7.6°C 91% 4.5 mph SE7.2 kmh SE 9.2 mph14.8 kmh 29.88 in1011.9 mb 0.00 in0.0 mm 0.00 in0.0 mm 0.00 in0.0 mm
03:56 AM 48.2°F9.0°C 45.7°F7.6°C 91% 7.6 mph SE12.2 kmh SE 9.8 mph15.8 kmh 29.88 in1011.9 mb 0.00 in0.0 mm 0.00 in0.0 mm 0.00 in0.0 mm
03:57 AM 48.2°F9.0°C 45.7°F7.6°C 91% 9.2 mph SE14.8 kmh SE 10.7 mph17.2 kmh 29.88 in1011.9 mb 0.00 in0.0 mm 0.00 in0.0 mm 0.00 in0.0 mm
03:58 AM 48.2°F9.0°C 45.7°F7.6°C 91% 6.0 mph SE9.7 kmh SE 10.7 mph17.2 kmh 29.88 in1011.9 mb 0.00 in0.0 mm 0.00 in0.0 mm 0.00 in0.0 mm
03:59 AM 48.2°F9.0°C 45.7°F7.6°C 91% 6.9 mph SE11.1 kmh SE 10.7 mph17.2 kmh 29.88 in1011.9 mb 0.00 in0.0 mm 0.00 in0.0 mm 0.00 in0.0 mm
04:00 AM 48.2°F9.0°C 45.7°F7.6°C 91% 6.0 mph SE9.7 kmh SE 10.7 mph17.2 kmh 29.87 in1011.5 mb 0.00 in0.0 mm 0.00 in0.0 mm 0.00 in0.0 mm
04:01 AM 48.2°F9.0°C 45.7°F7.6°C 91% 7.6 mph SE12.2 kmh SE 10.7 mph17.2 kmh 29.88 in1011.9 mb 0.00 in0.0 mm 0.00 in0.0 mm 0.00 in0.0 mm
04:02 AM 48.2°F9.0°C 45.7°F7.6°C 91% 7.6 mph SE12.2 kmh SE 10.7 mph17.2 kmh 29.88 in1011.9 mb 0.00 in0.0 mm 0.00 in0.0 mm 0.00 in0.0 mm
04:03 AM 48.2°F9.0°C 45.7°F7.6°C 91% 7.6 mph SE12.2 kmh SE 10.7 mph17.2 kmh 29.88 in1011.9 mb 0.00 in0.0 mm 0.00 in0.0 mm 0.00 in0.0 mm
04:04 AM 48.2°F9.0°C 45.7°F7.6°C 91% 7.6 mph SE12.2 kmh SE 10.7 mph17.2 kmh 29.88 in1011.9 mb 0.00 in0.0 mm 0.00 in0.0 mm 0.00 in0.0 mm
04:05 AM 48.2°F9.0°C 45.7°F7.6°C 91% 7.6 mph SE12.2 kmh SE 10.7 mph17.2 kmh 29.87 in1011.5 mb 0.00 in0.0 mm 0.00 in0.0 mm 0.00 in0.0 mm
04:06 AM 48.2°F9.0°C 45.7°F7.6°C 91% 7.6 mph ESE12.2 kmh ESE 10.7 mph17.2 kmh 29.87 in1011.5 mb 0.00 in0.0 mm 0.00 in0.0 mm 0.00 in0.0 mm
04:07 AM 48.2°F9.0°C 45.7°F7.6°C 91% 5.4 mph ESE8.7 kmh ESE 10.7 mph17.2 kmh 29.87 in1011.5 mb 0.00 in0.0 mm 0.00 in0.0 mm 0.00 in0.0 mm
04:08 AM 48.2°F9.0°C 45.7°F7.6°C 91% 5.4 mph SE8.7 kmh SE 9.8 mph15.8 kmh 29.88 in1011.9 mb 0.00 in0.0 mm 0.00 in0.0 mm 0.00 in0.0 mm
04:09 AM 48.2°F9.0°C 45.7°F7.6°C 91% 5.4 mph SE8.7 kmh SE 9.8 mph15.8 kmh 29.87 in1011.5 mb 0.00 in0.0 mm 0.00 in0.0 mm 0.00 in0.0 mm
04:10 AM 48.2°F9.0°C 45.7°F7.6°C 91% 5.4 mph SE8.7 kmh SE 9.8 mph15.8 kmh 29.87 in1011.5 mb 0.00 in0.0 mm 0.00 in0.0 mm 0.00 in0.0 mm
04:11 AM 48.2°F9.0°C 46.0°F7.8°C 92% 6.0 mph SE9.7 kmh SE 9.8 mph15.8 kmh 29.87 in1011.5 mb 0.00 in0.0 mm 0.00 in0.0 mm 0.00 in0.0 mm
04:12 AM 48.2°F9.0°C 46.0°F7.8°C 92% 4.5 mph SE7.2 kmh SE 9.8 mph15.8 kmh 29.87 in1011.5 mb 0.00 in0.0 mm 0.00 in0.0 mm 0.00 in0.0 mm
04:13 AM 48.2°F9.0°C 46.0°F7.8°C 92% 5.4 mph SE8.7 kmh SE 9.8 mph15.8 kmh 29.87 in1011.5 mb 0.00 in0.0 mm 0.00 in0.0 mm 0.00 in0.0 mm
04:14 AM 48.2°F9.0°C 46.0°F7.8°C 92% 4.5 mph SE7.2 kmh SE 9.8 mph15.8 kmh 29.87 in1011.5 mb 0.00 in0.0 mm 0.00 in0.0 mm 0.00 in0.0 mm
04:15 AM 48.2°F9.0°C 46.0°F7.8°C 92% 6.9 mph SE11.1 kmh SE 9.8 mph15.8 kmh 29.87 in1011.5 mb 0.00 in0.0 mm 0.00 in0.0 mm 0.00 in0.0 mm
04:16 AM 48.2°F9.0°C 46.0°F7.8°C 92% 2.2 mph SE3.5 kmh SE 9.8 mph15.8 kmh 29.88 in1011.9 mb 0.00 in0.0 mm 0.00 in0.0 mm 0.00 in0.0 mm
04:17 AM 48.2°F9.0°C 46.0°F7.8°C 92% 5.4 mph SE8.7 kmh SE 9.8 mph15.8 kmh 29.87 in1011.5 mb 0.00 in0.0 mm 0.00 in0.0 mm 0.00 in0.0 mm
04:18 AM 48.2°F9.0°C 46.0°F7.8°C 92% 5.4 mph SSE8.7 kmh SSE 9.8 mph15.8 kmh 29.87 in1011.5 mb 0.00 in0.0 mm 0.00 in0.0 mm 0.00 in0.0 mm
04:19 AM 48.2°F9.0°C 46.0°F7.8°C 92% 5.4 mph SSE8.7 kmh SSE 9.8 mph15.8 kmh 29.87 in1011.5 mb 0.00 in0.0 mm 0.00 in0.0 mm 0.00 in0.0 mm
04:20 AM 48.0°F8.9°C 45.8°F7.7°C 92% 6.0 mph SSE9.7 kmh SSE 9.8 mph15.8 kmh 29.87 in1011.5 mb 0.00 in0.0 mm 0.00 in0.0 mm 0.00 in0.0 mm
04:21 AM 48.0°F8.9°C 45.8°F7.7°C 92% 6.9 mph SE11.1 kmh SE 9.8 mph15.8 kmh 29.87 in1011.5 mb 0.00 in0.0 mm 0.00 in0.0 mm 0.00 in0.0 mm
04:22 AM 48.0°F8.9°C 45.8°F7.7°C 92% 7.6 mph SE12.2 kmh SE 9.8 mph15.8 kmh 29.87 in1011.5 mb 0.00 in0.0 mm 0.00 in0.0 mm 0.00 in0.0 mm
04:23 AM 48.0°F8.9°C 45.8°F7.7°C 92% 5.4 mph SE8.7 kmh SE 9.8 mph15.8 kmh 29.87 in1011.5 mb 0.00 in0.0 mm 0.00 in0.0 mm 0.00 in0.0 mm
04:24 AM 48.0°F8.9°C 45.8°F7.7°C 92% 7.6 mph SE12.2 kmh SE 10.7 mph17.2 kmh 29.87 in1011.5 mb 0.00 in0.0 mm 0.00 in0.0 mm 0.00 in0.0 mm
04:25 AM 48.0°F8.9°C 45.8°F7.7°C 92% 3.8 mph SE6.1 kmh SE 10.7 mph17.2 kmh 29.87 in1011.5 mb 0.00 in0.0 mm 0.00 in0.0 mm 0.00 in0.0 mm
04:26 AM 48.0°F8.9°C 45.8°F7.7°C 92% 3.8 mph SE6.1 kmh SE 10.7 mph17.2 kmh 29.87 in1011.5 mb 0.00 in0.0 mm 0.00 in0.0 mm 0.00 in0.0 mm
04:27 AM 48.0°F8.9°C 45.8°F7.7°C 92% 3.1 mph SE5.0 kmh SE 10.7 mph17.2 kmh 29.87 in1011.5 mb 0.00 in0.0 mm 0.00 in0.0 mm 0.00 in0.0 mm
04:28 AM 48.0°F8.9°C 45.8°F7.7°C 92% 5.4 mph SE8.7 kmh SE 10.7 mph17.2 kmh 29.87 in1011.5 mb 0.00 in0.0 mm 0.00 in0.0 mm 0.00 in0.0 mm
04:29 AM 48.0°F8.9°C 45.8°F7.7°C 92% 6.0 mph SE9.7 kmh SE 10.7 mph17.2 kmh 29.87 in1011.5 mb 0.00 in0.0 mm 0.00 in0.0 mm 0.00 in0.0 mm
04:30 AM 48.0°F8.9°C 45.8°F7.7°C 92% 6.9 mph SE11.1 kmh SE 10.7 mph17.2 kmh 29.87 in1011.5 mb 0.00 in0.0 mm 0.00 in0.0 mm 0.00 in0.0 mm
04:31 AM 48.0°F8.9°C 45.8°F7.7°C 92% 8.3 mph SE13.4 kmh SE 10.7 mph17.2 kmh 29.87 in1011.5 mb 0.00 in0.0 mm 0.00 in0.0 mm 0.00 in0.0 mm
04:32 AM 48.0°F8.9°C 45.8°F7.7°C 92% 8.3 mph SE13.4 kmh SE 10.7 mph17.2 kmh 29.87 in1011.5 mb 0.00 in0.0 mm 0.00 in0.0 mm 0.00 in0.0 mm
04:33 AM 48.0°F8.9°C 45.8°F7.7°C 92% 6.9 mph SE11.1 kmh SE 10.7 mph17.2 kmh 29.87 in1011.5 mb 0.00 in0.0 mm 0.00 in0.0 mm 0.00 in0.0 mm
04:34 AM 48.0°F8.9°C 45.8°F7.7°C 92% 6.0 mph SE9.7 kmh SE 9.8 mph15.8 kmh 29.87 in1011.5 mb 0.00 in0.0 mm 0.00 in0.0 mm 0.00 in0.0 mm
04:35 AM 48.0°F8.9°C 45.8°F7.7°C 92% 6.9 mph SE11.1 kmh SE 9.8 mph15.8 kmh 29.87 in1011.5 mb 0.00 in0.0 mm 0.00 in0.0 mm 0.00 in0.0 mm
04:36 AM 48.0°F8.9°C 45.8°F7.7°C 92% 7.6 mph SE12.2 kmh SE 11.4 mph18.3 kmh 29.87 in1011.5 mb 0.00 in0.0 mm 0.00 in0.0 mm 0.00 in0.0 mm
04:37 AM 47.8°F8.8°C 45.6°F7.6°C 92% 8.3 mph SE13.4 kmh SE 11.4 mph18.3 kmh 29.87 in1011.5 mb 0.00 in0.0 mm 0.00 in0.0 mm 0.00 in0.0 mm
04:38 AM 47.8°F8.8°C 45.6°F7.6°C 92% 6.9 mph ESE11.1 kmh ESE 11.4 mph18.3 kmh 29.87 in1011.5 mb 0.00 in0.0 mm 0.00 in0.0 mm 0.00 in0.0 mm
04:39 AM 47.8°F8.8°C 45.6°F7.6°C 92% 3.8 mph SE6.1 kmh SE 11.4 mph18.3 kmh 29.87 in1011.5 mb 0.00 in0.0 mm 0.00 in0.0 mm 0.00 in0.0 mm
04:40 AM 47.8°F8.8°C 45.6°F7.6°C 92% 3.1 mph ESE5.0 kmh ESE 11.4 mph18.3 kmh 29.87 in1011.5 mb 0.00 in0.0 mm 0.00 in0.0 mm 0.00 in0.0 mm
04:41 AM 47.8°F8.8°C 45.6°F7.6°C 92% 6.0 mph ESE9.7 kmh ESE 11.4 mph18.3 kmh 29.87 in1011.5 mb 0.00 in0.0 mm 0.00 in0.0 mm 0.00 in0.0 mm
04:42 AM 47.8°F8.8°C 45.6°F7.6°C 92% 5.4 mph ESE8.7 kmh ESE 11.4 mph18.3 kmh 29.87 in1011.5 mb 0.00 in0.0 mm 0.00 in0.0 mm 0.00 in0.0 mm
04:43 AM 47.8°F8.8°C 45.6°F7.6°C 92% 8.3 mph ESE13.4 kmh ESE 11.4 mph18.3 kmh 29.87 in1011.5 mb 0.00 in0.0 mm 0.00 in0.0 mm 0.00 in0.0 mm
04:44 AM 47.8°F8.8°C 45.6°F7.6°C 92% 6.9 mph ESE11.1 kmh ESE 11.4 mph18.3 kmh 29.87 in1011.5 mb 0.00 in0.0 mm 0.00 in0.0 mm 0.00 in0.0 mm
04:45 AM 47.8°F8.8°C 45.6°F7.6°C 92% 3.1 mph ESE5.0 kmh ESE 11.4 mph18.3 kmh 29.87 in1011.5 mb 0.00 in0.0 mm 0.00 in0.0 mm 0.00 in0.0 mm
04:46 AM 47.8°F8.8°C 45.6°F7.6°C 92% 4.5 mph ESE7.2 kmh ESE 10.7 mph17.2 kmh 29.87 in1011.5 mb 0.00 in0.0 mm 0.00 in0.0 mm 0.00 in0.0 mm
04:47 AM 47.8°F8.8°C 45.6°F7.6°C 92% 3.1 mph ESE5.0 kmh ESE 10.7 mph17.2 kmh 29.87 in1011.5 mb 0.00 in0.0 mm 0.00 in0.0 mm 0.00 in0.0 mm
04:48 AM 47.8°F8.8°C 45.6°F7.6°C 92% 2.2 mph SE3.5 kmh SE 10.7 mph17.2 kmh 29.87 in1011.5 mb 0.00 in0.0 mm 0.00 in0.0 mm 0.00 in0.0 mm
04:49 AM 47.8°F8.8°C 45.6°F7.6°C 92% 3.1 mph SE5.0 kmh SE 10.7 mph17.2 kmh 29.87 in1011.5 mb 0.00 in0.0 mm 0.00 in0.0 mm 0.00 in0.0 mm
04:50 AM 47.8°F8.8°C 45.6°F7.6°C 92% 3.8 mph SE6.1 kmh SE 10.7 mph17.2 kmh 29.87 in1011.5 mb 0.00 in0.0 mm 0.00 in0.0 mm 0.00 in0.0 mm
04:51 AM 47.8°F8.8°C 45.6°F7.6°C 92% 3.8 mph SE6.1 kmh SE 10.7 mph17.2 kmh 29.87 in1011.5 mb 0.00 in0.0 mm 0.00 in0.0 mm 0.00 in0.0 mm
04:52 AM 47.8°F8.8°C 45.6°F7.6°C 92% 6.0 mph SE9.7 kmh SE 10.7 mph17.2 kmh 29.87 in1011.5 mb 0.00 in0.0 mm 0.00 in0.0 mm 0.00 in0.0 mm
04:53 AM 47.8°F8.8°C 45.6°F7.6°C 92% 6.9 mph SE11.1 kmh SE 10.7 mph17.2 kmh 29.87 in1011.5 mb 0.00 in0.0 mm 0.00 in0.0 mm 0.00 in0.0 mm
04:54 AM 47.8°F8.8°C 45.6°F7.6°C 92% 7.6 mph SE12.2 kmh SE 9.2 mph14.8 kmh 29.87 in1011.5 mb 0.00 in0.0 mm 0.00 in0.0 mm 0.00 in0.0 mm
04:55 AM 47.8°F8.8°C 45.6°F7.6°C 92% 6.0 mph SE9.7 kmh SE 9.2 mph14.8 kmh 29.87 in1011.5 mb 0.00 in0.0 mm 0.00 in0.0 mm 0.00 in0.0 mm
04:56 AM 47.8°F8.8°C 45.6°F7.6°C 92% 5.4 mph SE8.7 kmh SE 9.2 mph14.8 kmh 29.87 in1011.5 mb 0.00 in0.0 mm 0.00 in0.0 mm 0.00 in0.0 mm
04:57 AM 47.8°F8.8°C 45.6°F7.6°C 92% 3.8 mph SE6.1 kmh SE 9.2 mph14.8 kmh 29.87 in1011.5 mb 0.00 in0.0 mm 0.00 in0.0 mm 0.00 in0.0 mm
04:58 AM 47.8°F8.8°C 45.6°F7.6°C 92% 4.5 mph SE7.2 kmh SE 9.2 mph14.8 kmh 29.87 in1011.5 mb 0.00 in0.0 mm 0.00 in0.0 mm 0.00 in0.0 mm
04:59 AM 47.8°F8.8°C 45.6°F7.6°C 92% 4.5 mph SE7.2 kmh SE 9.2 mph14.8 kmh 29.87 in1011.5 mb 0.00 in0.0 mm 0.00 in0.0 mm 0.00 in0.0 mm
05:00 AM 47.8°F8.8°C 45.6°F7.6°C 92% 6.0 mph SE9.7 kmh SE 9.2 mph14.8 kmh 29.87 in1011.5 mb 0.00 in0.0 mm 0.00 in0.0 mm 0.00 in0.0 mm
05:01 AM 47.8°F8.8°C 45.6°F7.6°C 92% 4.5 mph SE7.2 kmh SE 9.2 mph14.8 kmh 29.87 in1011.5 mb 0.00 in0.0 mm 0.00 in0.0 mm 0.00 in0.0 mm
05:02 AM 47.8°F8.8°C 45.6°F7.6°C 92% 6.0 mph SE9.7 kmh SE 9.2 mph14.8 kmh 29.87 in1011.5 mb 0.00 in0.0 mm 0.00 in0.0 mm 0.00 in0.0 mm
05:03 AM 47.8°F8.8°C 45.9°F7.7°C 93% 7.6 mph SE12.2 kmh SE 9.2 mph14.8 kmh 29.87 in1011.5 mb 0.00 in0.0 mm 0.00 in0.0 mm 0.00 in0.0 mm
05:04 AM 47.8°F8.8°C 45.9°F7.7°C 93% 6.0 mph SE9.7 kmh SE 9.2 mph14.8 kmh 29.87 in1011.5 mb 0.00 in0.0 mm 0.00 in0.0 mm 0.00 in0.0 mm
05:05 AM 47.8°F8.8°C 45.9°F7.7°C 93% 6.0 mph SE9.7 kmh SE 9.2 mph14.8 kmh 29.87 in1011.5 mb 0.00 in0.0 mm 0.00 in0.0 mm 0.00 in0.0 mm
05:06 AM 47.8°F8.8°C 45.9°F7.7°C 93% 6.9 mph SE11.1 kmh SE 9.2 mph14.8 kmh 29.87 in1011.5 mb 0.00 in0.0 mm 0.00 in0.0 mm 0.00 in0.0 mm
05:07 AM 47.7°F8.7°C 45.7°F7.6°C 93% 6.9 mph SE11.1 kmh SE 9.2 mph14.8 kmh 29.87 in1011.5 mb 0.00 in0.0 mm 0.00 in0.0 mm 0.00 in0.0 mm
05:08 AM 47.7°F8.7°C 45.7°F7.6°C 93% 6.9 mph SE11.1 kmh SE 9.2 mph14.8 kmh 29.87 in1011.5 mb 0.00 in0.0 mm 0.00 in0.0 mm 0.00 in0.0 mm
05:09 AM 47.7°F8.7°C 45.7°F7.6°C 93% 6.9 mph SE11.1 kmh SE 9.8 mph15.8 kmh 29.87 in1011.5 mb 0.00 in0.0 mm 0.00 in0.0 mm 0.00 in0.0 mm
05:10 AM 47.7°F8.7°C 45.7°F7.6°C 93% 7.6 mph SE12.2 kmh SE 9.8 mph15.8 kmh 29.87 in1011.5 mb 0.00 in0.0 mm 0.00 in0.0 mm 0.00 in0.0 mm
05:11 AM 47.7°F8.7°C 45.7°F7.6°C 93% 8.3 mph SE13.4 kmh SE 9.8 mph15.8 kmh 29.87 in1011.5 mb 0.00 in0.0 mm 0.00 in0.0 mm 0.00 in0.0 mm
05:12 AM 47.7°F8.7°C 45.7°F7.6°C 93% 8.3 mph SE13.4 kmh SE 10.7 mph17.2 kmh 29.87 in1011.5 mb 0.00 in0.0 mm 0.00 in0.0 mm 0.00 in0.0 mm
05:13 AM 47.7°F8.7°C 45.7°F7.6°C 93% 3.1 mph SE5.0 kmh SE 10.7 mph17.2 kmh 29.87 in1011.5 mb 0.00 in0.0 mm 0.00 in0.0 mm 0.00 in0.0 mm
05:14 AM 47.7°F8.7°C 45.7°F7.6°C 93% 2.2 mph SE3.5 kmh SE 10.7 mph17.2 kmh 29.87 in1011.5 mb 0.00 in0.0 mm 0.00 in0.0 mm 0.00 in0.0 mm
05:15 AM 47.7°F8.7°C 45.7°F7.6°C 93% 1.6 mph SE2.6 kmh SE 10.7 mph17.2 kmh 29.87 in1011.5 mb 0.00 in0.0 mm 0.00 in0.0 mm 0.00 in0.0 mm
05:16 AM 47.7°F8.7°C 45.7°F7.6°C 93% 3.1 mph SE5.0 kmh SE 10.7 mph17.2 kmh 29.87 in1011.5 mb 0.00 in0.0 mm 0.00 in0.0 mm 0.00 in0.0 mm
05:17 AM 47.7°F8.7°C 45.7°F7.6°C 93% 3.1 mph SE5.0 kmh SE 10.7 mph17.2 kmh 29.87 in1011.5 mb 0.00 in0.0 mm 0.00 in0.0 mm 0.00 in0.0 mm
05:18 AM 47.7°F8.7°C 45.7°F7.6°C 93% 4.5 mph SE7.2 kmh SE 10.7 mph17.2 kmh 29.87 in1011.5 mb 0.00 in0.0 mm 0.00 in0.0 mm 0.00 in0.0 mm
05:19 AM 47.7°F8.7°C 45.7°F7.6°C 93% 4.5 mph SE7.2 kmh SE 10.7 mph17.2 kmh 29.87 in1011.5 mb 0.00 in0.0 mm 0.00 in0.0 mm 0.00 in0.0 mm
05:20 AM 47.7°F8.7°C 45.7°F7.6°C 93% 3.8 mph SE6.1 kmh SE 10.7 mph17.2 kmh 29.87 in1011.5 mb 0.00 in0.0 mm 0.00 in0.0 mm 0.00 in0.0 mm
05:21 AM 47.8°F8.8°C 45.9°F7.7°C 93% 4.5 mph SE7.2 kmh SE 10.7 mph17.2 kmh 29.87 in1011.5 mb 0.00 in0.0 mm 0.00 in0.0 mm 0.00 in0.0 mm
05:22 AM 47.8°F8.8°C 45.9°F7.7°C 93% 4.5 mph SE7.2 kmh SE 7.6 mph12.2 kmh 29.87 in1011.5 mb 0.00 in0.0 mm 0.00 in0.0 mm 0.00 in0.0 mm
05:23 AM 47.8°F8.8°C 45.9°F7.7°C 93% 4.5 mph SE7.2 kmh SE 7.6 mph12.2 kmh 29.87 in1011.5 mb 0.00 in0.0 mm 0.00 in0.0 mm 0.00 in0.0 mm
05:24 AM 47.8°F8.8°C 45.9°F7.7°C 93% 6.0 mph SE9.7 kmh SE 7.6 mph12.2 kmh 29.86 in1011.2 mb 0.00 in0.0 mm 0.00 in0.0 mm 0.00 in0.0 mm
05:25 AM 47.8°F8.8°C 45.9°F7.7°C 93% 3.1 mph SE5.0 kmh SE 7.6 mph12.2 kmh 29.87 in1011.5 mb 0.00 in0.0 mm 0.00 in0.0 mm 0.00 in0.0 mm
05:26 AM 47.8°F8.8°C 45.9°F7.7°C 93% 3.1 mph SE5.0 kmh SE 7.6 mph12.2 kmh 29.87 in1011.5 mb 0.00 in0.0 mm 0.00 in0.0 mm 0.00 in0.0 mm
05:27 AM 47.8°F8.8°C 45.9°F7.7°C 93% 4.5 mph SE7.2 kmh SE 7.6 mph12.2 kmh 29.87 in1011.5 mb 0.00 in0.0 mm 0.00 in0.0 mm 0.00 in0.0 mm
05:28 AM 47.8°F8.8°C 45.9°F7.7°C 93% 4.5 mph SE7.2 kmh SE 7.6 mph12.2 kmh 29.87 in1011.5 mb 0.00 in0.0 mm 0.00 in0.0 mm 0.00 in0.0 mm
05:29 AM 47.8°F8.8°C 45.9°F7.7°C 93% 5.4 mph SE8.7 kmh SE 7.6 mph12.2 kmh 29.86 in1011.2 mb 0.00 in0.0 mm 0.00 in0.0 mm 0.00 in0.0 mm
05:30 AM 47.8°F8.8°C 45.9°F7.7°C 93% 4.5 mph SE7.2 kmh SE 7.6 mph12.2 kmh 29.87 in1011.5 mb 0.00 in0.0 mm 0.00 in0.0 mm 0.00 in0.0 mm
05:31 AM 47.8°F8.8°C 45.9°F7.7°C 93% 3.8 mph SE6.1 kmh SE 7.6 mph12.2 kmh 29.87 in1011.5 mb 0.00 in0.0 mm 0.00 in0.0 mm 0.00 in0.0 mm
05:32 AM 47.8°F8.8°C 45.9°F7.7°C 93% 4.5 mph SE7.2 kmh SE 7.6 mph12.2 kmh 29.86 in1011.2 mb 0.00 in0.0 mm 0.00 in0.0 mm 0.00 in0.0 mm
05:33 AM 47.8°F8.8°C 45.9°F7.7°C 93% 3.1 mph SE5.0 kmh SE 7.6 mph12.2 kmh 29.87 in1011.5 mb 0.00 in0.0 mm 0.00 in0.0 mm 0.00 in0.0 mm
05:34 AM 47.8°F8.8°C 45.9°F7.7°C 93% 3.8 mph SE6.1 kmh SE 7.6 mph12.2 kmh 29.87 in1011.5 mb 0.00 in0.0 mm 0.00 in0.0 mm 0.00 in0.0 mm
05:35 AM 47.8°F8.8°C 45.9°F7.7°C 93% 3.8 mph SE6.1 kmh SE 7.6 mph12.2 kmh 29.87 in1011.5 mb 0.00 in0.0 mm 0.00 in0.0 mm 0.00 in0.0 mm
05:36 AM 47.8°F8.8°C 45.9°F7.7°C 93% 5.4 mph SE8.7 kmh SE 7.6 mph12.2 kmh 29.86 in1011.2 mb 0.00 in0.0 mm 0.00 in0.0 mm 0.00 in0.0 mm
05:37 AM 47.8°F8.8°C 45.9°F7.7°C 93% 3.1 mph SE5.0 kmh SE 7.6 mph12.2 kmh 29.86 in1011.2 mb 0.00 in0.0 mm 0.00 in0.0 mm 0.00 in0.0 mm
05:38 AM 47.8°F8.8°C 45.9°F7.7°C 93% 1.6 mph SE2.6 kmh SE 7.6 mph12.2 kmh 29.86 in1011.2 mb 0.00 in0.0 mm 0.00 in0.0 mm 0.00 in0.0 mm
05:39 AM 47.8°F8.8°C 45.9°F7.7°C 93% 3.8 mph SE6.1 kmh SE 7.6 mph12.2 kmh 29.87 in1011.5 mb 0.00 in0.0 mm 0.00 in0.0 mm 0.00 in0.0 mm
05:40 AM 47.8°F8.8°C 45.9°F7.7°C 93% 2.2 mph SE3.5 kmh SE 6.9 mph11.1 kmh 29.87 in1011.5 mb 0.00 in0.0 mm 0.00 in0.0 mm 0.00 in0.0 mm
05:41 AM 47.8°F8.8°C 45.9°F7.7°C 93% 2.2 mph SE3.5 kmh SE 6.9 mph11.1 kmh 29.87 in1011.5 mb 0.00 in0.0 mm 0.00 in0.0 mm 0.00 in0.0 mm
05:42 AM 47.8°F8.8°C 45.9°F7.7°C 93% 1.6 mph SE2.6 kmh SE 6.9 mph11.1 kmh 29.87 in1011.5 mb 0.00 in0.0 mm 0.00 in0.0 mm 0.00 in0.0 mm
05:43 AM 47.7°F8.7°C 45.7°F7.6°C 93% 2.2 mph SE3.5 kmh SE 6.9 mph11.1 kmh 29.87 in1011.5 mb 0.00 in0.0 mm 0.00 in0.0 mm 0.00 in0.0 mm
05:44 AM 47.7°F8.7°C 45.7°F7.6°C 93% 3.1 mph SE5.0 kmh SE 6.9 mph11.1 kmh 29.87 in1011.5 mb 0.00 in0.0 mm 0.00 in0.0 mm 0.00 in0.0 mm
05:45 AM 47.7°F8.7°C 45.7°F7.6°C 93% 5.4 mph SE8.7 kmh SE 6.9 mph11.1 kmh 29.87 in1011.5 mb 0.00 in0.0 mm 0.00 in0.0 mm 0.00 in0.0 mm
05:46 AM 47.7°F8.7°C 45.7°F7.6°C 93% 5.4 mph SE8.7 kmh SE 6.9 mph11.1 kmh 29.87 in1011.5 mb 0.00 in0.0 mm 0.00 in0.0 mm 0.00 in0.0 mm
05:47 AM 47.7°F8.7°C 45.7°F7.6°C 93% 3.8 mph SE6.1 kmh SE 6.9 mph11.1 kmh 29.87 in1011.5 mb 0.00 in0.0 mm 0.00 in0.0 mm 0.00 in0.0 mm
05:48 AM 47.7°F8.7°C 45.7°F7.6°C 93% 4.5 mph SE7.2 kmh SE 6.9 mph11.1 kmh 29.87 in1011.5 mb 0.00 in0.0 mm 0.00 in0.0 mm 0.00 in0.0 mm
05:49 AM 47.7°F8.7°C 45.7°F7.6°C 93% 3.8 mph SE6.1 kmh SE 6.9 mph11.1 kmh 29.87 in1011.5 mb 0.00 in0.0 mm 0.00 in0.0 mm 0.00 in0.0 mm
05:50 AM 47.7°F8.7°C 45.7°F7.6°C 93% 3.1 mph SE5.0 kmh SE 6.9 mph11.1 kmh 29.87 in1011.5 mb 0.00 in0.0 mm 0.00 in0.0 mm 0.00 in0.0 mm
05:51 AM 47.7°F8.7°C 45.7°F7.6°C 93% 3.1 mph ESE5.0 kmh ESE 6.9 mph11.1 kmh 29.87 in1011.5 mb 0.00 in0.0 mm 0.00 in0.0 mm 0.00 in0.0 mm
05:52 AM 47.7°F8.7°C 45.7°F7.6°C 93% 3.1 mph ESE5.0 kmh ESE 6.9 mph11.1 kmh 29.87 in1011.5 mb 0.00 in0.0 mm 0.00 in0.0 mm 0.00 in0.0 mm
05:53 AM 47.7°F8.7°C 45.7°F7.6°C 93% 2.2 mph ESE3.5 kmh ESE 6.9 mph11.1 kmh 29.87 in1011.5 mb 0.00 in0.0 mm 0.00 in0.0 mm 0.00 in0.0 mm
05:54 AM 47.7°F8.7°C 45.7°F7.6°C 93% 4.5 mph ESE7.2 kmh ESE 6.9 mph11.1 kmh 29.87 in1011.5 mb 0.00 in0.0 mm 0.00 in0.0 mm 0.00 in0.0 mm
05:55 AM 47.7°F8.7°C 45.7°F7.6°C 93% 5.4 mph ESE8.7 kmh ESE 6.9 mph11.1 kmh 29.87 in1011.5 mb 0.00 in0.0 mm 0.00 in0.0 mm 0.00 in0.0 mm
05:56 AM 47.7°F8.7°C 45.7°F7.6°C 93% 3.8 mph ESE6.1 kmh ESE 6.9 mph11.1 kmh 29.87 in1011.5 mb 0.00 in0.0 mm 0.00 in0.0 mm 0.00 in0.0 mm
05:57 AM 47.7°F8.7°C 45.7°F7.6°C 93% 3.8 mph SE6.1 kmh SE 6.9 mph11.1 kmh 29.87 in1011.5 mb 0.00 in0.0 mm 0.00 in0.0 mm 0.00 in0.0 mm
05:58 AM 47.7°F8.7°C 45.7°F7.6°C 93% 3.1 mph ESE5.0 kmh ESE 6.9 mph11.1 kmh 29.87 in1011.5 mb 0.00 in0.0 mm 0.00 in0.0 mm 0.00 in0.0 mm
05:59 AM 47.7°F8.7°C 46.0°F7.8°C 94% 5.4 mph ESE8.7 kmh ESE 6.9 mph11.1 kmh 29.87 in1011.5 mb 0.00 in0.0 mm 0.00 in0.0 mm 0.00 in0.0 mm
06:00 AM 47.7°F8.7°C 46.0°F7.8°C 94% 3.1 mph SE5.0 kmh SE 6.9 mph11.1 kmh 29.87 in1011.5 mb 0.00 in0.0 mm 0.00 in0.0 mm 0.00 in0.0 mm
06:01 AM 47.7°F8.7°C 46.0°F7.8°C 94% 2.2 mph SE3.5 kmh SE 6.9 mph11.1 kmh 29.87 in1011.5 mb 0.00 in0.0 mm 0.00 in0.0 mm 0.00 in0.0 mm
06:02 AM 47.7°F8.7°C 46.0°F7.8°C 94% 2.2 mph SE3.5 kmh SE 6.9 mph11.1 kmh 29.87 in1011.5 mb 0.00 in0.0 mm 0.00 in0.0 mm 0.00 in0.0 mm
06:03 AM 47.7°F8.7°C 46.0°F7.8°C 94% 2.2 mph SE3.5 kmh SE 6.9 mph11.1 kmh 29.87 in1011.5 mb 0.00 in0.0 mm 0.00 in0.0 mm 0.00 in0.0 mm
06:04 AM 47.7°F8.7°C 46.0°F7.8°C 94% 2.2 mph SE3.5 kmh SE 6.9 mph11.1 kmh 29.87 in1011.5 mb 0.00 in0.0 mm 0.00 in0.0 mm 0.00 in0.0 mm
06:05 AM 47.7°F8.7°C 46.0°F7.8°C 94% 2.2 mph SE3.5 kmh SE 6.9 mph11.1 kmh 29.87 in1011.5 mb 0.00 in0.0 mm 0.00 in0.0 mm 0.00 in0.0 mm
06:06 AM 47.7°F8.7°C 46.0°F7.8°C 94% 2.2 mph ESE3.5 kmh ESE 6.9 mph11.1 kmh 29.87 in1011.5 mb 0.00 in0.0 mm 0.00 in0.0 mm 0.00 in0.0 mm
06:07 AM 47.7°F8.7°C 46.0°F7.8°C 94% 2.2 mph E3.5 kmh E 6.9 mph11.1 kmh 29.86 in1011.2 mb 0.00 in0.0 mm 0.00 in0.0 mm 0.00 in0.0 mm
06:08 AM 47.7°F8.7°C 46.0°F7.8°C 94% 2.2 mph E3.5 kmh E 6.9 mph11.1 kmh 29.87 in1011.5 mb 0.00 in0.0 mm 0.00 in0.0 mm 0.00 in0.0 mm
06:09 AM 47.7°F8.7°C 46.0°F7.8°C 94% 3.8 mph E6.1 kmh E 6.9 mph11.1 kmh 29.86 in1011.2 mb 0.00 in0.0 mm 0.00 in0.0 mm 0.00 in0.0 mm
06:10 AM 47.7°F8.7°C 46.0°F7.8°C 94% 1.6 mph E2.6 kmh E 6.0 mph9.7 kmh 29.86 in1011.2 mb 0.00 in0.0 mm 0.00 in0.0 mm 0.00 in0.0 mm
06:11 AM 47.7°F8.7°C 46.0°F7.8°C 94% 3.1 mph E5.0 kmh E 6.0 mph9.7 kmh 29.87 in1011.5 mb 0.00 in0.0 mm 0.00 in0.0 mm 0.00 in0.0 mm
06:12 AM 47.7°F8.7°C 46.0°F7.8°C 94% 5.4 mph E8.7 kmh E 6.9 mph11.1 kmh 29.86 in1011.2 mb 0.00 in0.0 mm 0.00 in0.0 mm 0.00 in0.0 mm
06:13 AM 47.7°F8.7°C 46.0°F7.8°C 94% 3.1 mph E5.0 kmh E 6.9 mph11.1 kmh 29.87 in1011.5 mb 0.00 in0.0 mm 0.00 in0.0 mm 0.00 in0.0 mm
06:14 AM 47.7°F8.7°C 46.0°F7.8°C 94% 6.9 mph ESE11.1 kmh ESE 8.3 mph13.4 kmh 29.86 in1011.2 mb 0.00 in0.0 mm 0.00 in0.0 mm 0.00 in0.0 mm
06:15 AM 47.7°F8.7°C 46.0°F7.8°C 94% 4.5 mph ESE7.2 kmh ESE 8.3 mph13.4 kmh 29.86 in1011.2 mb 0.00 in0.0 mm 0.00 in0.0 mm 0.00 in0.0 mm
06:16 AM 47.7°F8.7°C 46.0°F7.8°C 94% 4.5 mph ESE7.2 kmh ESE 8.3 mph13.4 kmh 29.86 in1011.2 mb 0.00 in0.0 mm 0.00 in0.0 mm 0.00 in0.0 mm
06:17 AM 47.7°F8.7°C 46.0°F7.8°C 94% 2.2 mph ESE3.5 kmh ESE 8.3 mph13.4 kmh 29.86 in1011.2 mb 0.00 in0.0 mm 0.00 in0.0 mm 0.00 in0.0 mm
06:18 AM 47.7°F8.7°C 46.0°F7.8°C 94% 3.8 mph SE6.1 kmh SE 8.3 mph13.4 kmh 29.86 in1011.2 mb 0.00 in0.0 mm 0.00 in0.0 mm 0.00 in0.0 mm
06:19 AM 47.7°F8.7°C 46.0°F7.8°C 94% 3.8 mph SE6.1 kmh SE 8.3 mph13.4 kmh 29.86 in1011.2 mb 0.00 in0.0 mm 0.00 in0.0 mm 0.00 in0.0 mm
06:20 AM 47.7°F8.7°C 46.0°F7.8°C 94% 4.5 mph SE7.2 kmh SE 8.3 mph13.4 kmh 29.86 in1011.2 mb 0.00 in0.0 mm 0.00 in0.0 mm 0.00 in0.0 mm
06:21 AM 47.7°F8.7°C 46.0°F7.8°C 94% 3.8 mph SE6.1 kmh SE 8.3 mph13.4 kmh 29.86 in1011.2 mb 0.00 in0.0 mm 0.00 in0.0 mm 0.00 in0.0 mm
06:22 AM 47.7°F8.7°C 46.0°F7.8°C 94% 2.2 mph SE3.5 kmh SE 8.3 mph13.4 kmh 29.86 in1011.2 mb 0.00 in0.0 mm 0.00 in0.0 mm 0.00 in0.0 mm
06:23 AM 47.7°F8.7°C 46.0°F7.8°C 94% 6.0 mph SE9.7 kmh SE 8.3 mph13.4 kmh 29.86 in1011.2 mb 0.00 in0.0 mm 0.00 in0.0 mm 0.00 in0.0 mm
06:24 AM 47.7°F8.7°C 46.0°F7.8°C 94% 4.5 mph SE7.2 kmh SE 8.3 mph13.4 kmh 29.86 in1011.2 mb 0.00 in0.0 mm 0.00 in0.0 mm 0.00 in0.0 mm
06:25 AM 47.7°F8.7°C 46.0°F7.8°C 94% 3.8 mph SE6.1 kmh SE 7.6 mph12.2 kmh 29.86 in1011.2 mb 0.00 in0.0 mm 0.00 in0.0 mm 0.00 in0.0 mm
06:26 AM 47.7°F8.7°C 46.0°F7.8°C 94% 3.1 mph SE5.0 kmh SE 7.6 mph12.2 kmh 29.86 in1011.2 mb 0.00 in0.0 mm 0.00 in0.0 mm 0.00 in0.0 mm
06:27 AM 47.7°F8.7°C 46.0°F7.8°C 94% 3.8 mph SE6.1 kmh SE 7.6 mph12.2 kmh 29.86 in1011.2 mb 0.00 in0.0 mm 0.00 in0.0 mm 0.00 in0.0 mm
06:28 AM 47.7°F8.7°C 46.0°F7.8°C 94% 5.4 mph SE8.7 kmh SE 7.6 mph12.2 kmh 29.86 in1011.2 mb 0.00 in0.0 mm 0.00 in0.0 mm 0.00 in0.0 mm
06:29 AM 47.7°F8.7°C 46.0°F7.8°C 94% 5.4 mph SE8.7 kmh SE 7.6 mph12.2 kmh 29.86 in1011.2 mb 0.00 in0.0 mm 0.00 in0.0 mm 0.00 in0.0 mm
06:30 AM 47.7°F8.7°C 46.0°F7.8°C 94% 4.5 mph SE7.2 kmh SE 7.6 mph12.2 kmh 29.85 in1010.8 mb 0.00 in0.0 mm 0.00 in0.0 mm 0.00 in0.0 mm
06:31 AM 47.7°F8.7°C 46.0°F7.8°C 94% 3.8 mph SE6.1 kmh SE 7.6 mph12.2 kmh 29.86 in1011.2 mb 0.00 in0.0 mm 0.00 in0.0 mm 0.00 in0.0 mm
06:32 AM 47.7°F8.7°C 46.0°F7.8°C 94% 3.8 mph SE6.1 kmh SE 7.6 mph12.2 kmh 29.86 in1011.2 mb 0.00 in0.0 mm 0.00 in0.0 mm 0.00 in0.0 mm
06:33 AM 47.7°F8.7°C 46.0°F7.8°C 94% 3.8 mph SE6.1 kmh SE 7.6 mph12.2 kmh 29.86 in1011.2 mb 0.00 in0.0 mm 0.00 in0.0 mm 0.00 in0.0 mm
06:34 AM 47.5°F8.6°C 45.8°F7.7°C 94% 3.1 mph SE5.0 kmh SE 7.6 mph12.2 kmh 29.86 in1011.2 mb 0.00 in0.0 mm 0.00 in0.0 mm 0.00 in0.0 mm
06:35 AM 47.5°F8.6°C 45.8°F7.7°C 94% 3.1 mph SE5.0 kmh SE 7.6 mph12.2 kmh 29.86 in1011.2 mb 0.00 in0.0 mm 0.00 in0.0 mm 0.00 in0.0 mm
06:36 AM 47.5°F8.6°C 45.8°F7.7°C 94% 0.7 mph ESE1.1 kmh ESE 7.6 mph12.2 kmh 29.86 in1011.2 mb 0.00 in0.0 mm 0.00 in0.0 mm 0.00 in0.0 mm
06:37 AM 47.5°F8.6°C 45.8°F7.7°C 94% 6.9 mph SE11.1 kmh SE 7.6 mph12.2 kmh 29.86 in1011.2 mb 0.00 in0.0 mm 0.00 in0.0 mm 0.00 in0.0 mm
06:38 AM 47.5°F8.6°C 45.8°F7.7°C 94% 5.4 mph SE8.7 kmh SE 7.6 mph12.2 kmh 29.85 in1010.8 mb 0.00 in0.0 mm 0.00 in0.0 mm 0.00 in0.0 mm
06:39 AM 47.5°F8.6°C 45.8°F7.7°C 94% 2.2 mph SE3.5 kmh SE 7.6 mph12.2 kmh 29.85 in1010.8 mb 0.00 in0.0 mm 0.00 in0.0 mm 0.00 in0.0 mm
06:40 AM 47.5°F8.6°C 45.8°F7.7°C 94% 3.1 mph SE5.0 kmh SE 7.6 mph12.2 kmh 29.85 in1010.8 mb 0.00 in0.0 mm 0.00 in0.0 mm 0.00 in0.0 mm
06:41 AM 47.5°F8.6°C 45.8°F7.7°C 94% 4.5 mph SE7.2 kmh SE 7.6 mph12.2 kmh 29.86 in1011.2 mb 0.00 in0.0 mm 0.00 in0.0 mm 0.00 in0.0 mm
06:42 AM 47.5°F8.6°C 45.8°F7.7°C 94% 5.4 mph SE8.7 kmh SE 7.6 mph12.2 kmh 29.86 in1011.2 mb 0.00 in0.0 mm 0.00 in0.0 mm 0.00 in0.0 mm
06:43 AM 47.5°F8.6°C 45.8°F7.7°C 94% 5.4 mph ESE8.7 kmh ESE 7.6 mph12.2 kmh 29.86 in1011.2 mb 0.00 in0.0 mm 0.00 in0.0 mm 0.00 in0.0 mm
06:44 AM 47.5°F8.6°C 45.8°F7.7°C 94% 5.4 mph ESE8.7 kmh ESE 7.6 mph12.2 kmh 29.86 in1011.2 mb 0.00 in0.0 mm 0.00 in0.0 mm 0.00 in0.0 mm
06:45 AM 47.5°F8.6°C 45.8°F7.7°C 94% 6.0 mph ESE9.7 kmh ESE 8.3 mph13.4 kmh 29.86 in1011.2 mb 0.00 in0.0 mm 0.00 in0.0 mm 0.00 in0.0 mm
06:46 AM 47.5°F8.6°C 45.8°F7.7°C 94% 6.0 mph ESE9.7 kmh ESE 8.3 mph13.4 kmh 29.86 in1011.2 mb 0.00 in0.0 mm 0.00 in0.0 mm 0.00 in0.0 mm
06:47 AM 47.5°F8.6°C 45.8°F7.7°C 94% 6.0 mph ESE9.7 kmh ESE 8.3 mph13.4 kmh 29.86 in1011.2 mb 0.00 in0.0 mm 0.00 in0.0 mm 0.00 in0.0 mm
06:48 AM 47.5°F8.6°C 45.8°F7.7°C 94% 5.4 mph ESE8.7 kmh ESE 8.3 mph13.4 kmh 29.86 in1011.2 mb 0.00 in0.0 mm 0.00 in0.0 mm 0.00 in0.0 mm
06:49 AM 47.5°F8.6°C 45.8°F7.7°C 94% 3.8 mph ESE6.1 kmh ESE 8.3 mph13.4 kmh 29.86 in1011.2 mb 0.00 in0.0 mm 0.00 in0.0 mm 0.00 in0.0 mm
06:50 AM 47.5°F8.6°C 45.8°F7.7°C 94% 3.8 mph ESE6.1 kmh ESE 8.3 mph13.4 kmh 29.86 in1011.2 mb 0.00 in0.0 mm 0.00 in0.0 mm 0.00 in0.0 mm
06:51 AM 47.5°F8.6°C 45.8°F7.7°C 94% 2.2 mph ESE3.5 kmh ESE 8.3 mph13.4 kmh 29.86 in1011.2 mb 0.00 in0.0 mm 0.00 in0.0 mm 0.00 in0.0 mm
06:52 AM 47.5°F8.6°C 45.8°F7.7°C 94% 2.2 mph ESE3.5 kmh ESE 8.3 mph13.4 kmh 29.86 in1011.2 mb 0.00 in0.0 mm 0.00 in0.0 mm 0.00 in0.0 mm
06:53 AM 47.5°F8.6°C 45.8°F7.7°C 94% 3.8 mph SE6.1 kmh SE 8.3 mph13.4 kmh 29.86 in1011.2 mb 0.00 in0.0 mm 0.00 in0.0 mm 0.00 in0.0 mm
06:54 AM 47.5°F8.6°C 45.8°F7.7°C 94% 3.1 mph SE5.0 kmh SE 8.3 mph13.4 kmh 29.86 in1011.2 mb 0.00 in0.0 mm 0.00 in0.0 mm 0.00 in0.0 mm
06:55 AM 47.5°F8.6°C 45.8°F7.7°C 94% 3.1 mph SE5.0 kmh SE 8.3 mph13.4 kmh 29.86 in1011.2 mb 0.00 in0.0 mm 0.00 in0.0 mm 0.00 in0.0 mm
06:56 AM 47.5°F8.6°C 45.8°F7.7°C 94% 3.8 mph SE6.1 kmh SE 7.6 mph12.2 kmh 29.86 in1011.2 mb 0.00 in0.0 mm 0.00 in0.0 mm 0.00 in0.0 mm
06:57 AM 47.5°F8.6°C 45.8°F7.7°C 94% 4.5 mph SE7.2 kmh SE 7.6 mph12.2 kmh 29.86 in1011.2 mb 0.00 in0.0 mm 0.00 in0.0 mm 0.00 in0.0 mm
06:58 AM 47.5°F8.6°C 45.8°F7.7°C 94% 3.8 mph SE6.1 kmh SE 7.6 mph12.2 kmh 29.86 in1011.2 mb 0.00 in0.0 mm 0.00 in0.0 mm 0.00 in0.0 mm
06:59 AM 47.5°F8.6°C 45.8°F7.7°C 94% 3.1 mph SE5.0 kmh SE 6.0 mph9.7 kmh 29.85 in1010.8 mb 0.00 in0.0 mm 0.00 in0.0 mm 0.00 in0.0 mm
07:00 AM 47.5°F8.6°C 45.8°F7.7°C 94% 1.6 mph SE2.6 kmh SE 6.0 mph9.7 kmh 29.85 in1010.8 mb 0.00 in0.0 mm 0.00 in0.0 mm 0.00 in0.0 mm
07:01 AM 47.5°F8.6°C 45.8°F7.7°C 94% 2.2 mph SE3.5 kmh SE 6.0 mph9.7 kmh 29.86 in1011.2 mb 0.00 in0.0 mm 0.00 in0.0 mm 0.00 in0.0 mm
07:02 AM 47.5°F8.6°C 45.8°F7.7°C 94% 3.1 mph ESE5.0 kmh ESE 6.0 mph9.7 kmh 29.86 in1011.2 mb 0.00 in0.0 mm 0.00 in0.0 mm 0.00 in0.0 mm
07:03 AM 47.5°F8.6°C 45.8°F7.7°C 94% 6.9 mph SE11.1 kmh SE 8.3 mph13.4 kmh 29.85 in1010.8 mb 0.00 in0.0 mm 0.00 in0.0 mm 0.00 in0.0 mm
07:04 AM 47.5°F8.6°C 45.8°F7.7°C 94% 6.0 mph SE9.7 kmh SE 8.3 mph13.4 kmh 29.85 in1010.8 mb 0.00 in0.0 mm 0.00 in0.0 mm 0.00 in0.0 mm
07:05 AM 47.5°F8.6°C 45.8°F7.7°C 94% 3.8 mph SE6.1 kmh SE 8.3 mph13.4 kmh 29.86 in1011.2 mb 0.00 in0.0 mm 0.00 in0.0 mm 0.00 in0.0 mm
07:06 AM 47.5°F8.6°C 45.8°F7.7°C 94% 4.5 mph SE7.2 kmh SE 8.3 mph13.4 kmh 29.85 in1010.8 mb 0.00 in0.0 mm 0.00 in0.0 mm 0.00 in0.0 mm
07:07 AM 47.5°F8.6°C 45.8°F7.7°C 94% 5.4 mph SE8.7 kmh SE 8.3 mph13.4 kmh 29.85 in1010.8 mb 0.00 in0.0 mm 0.00 in0.0 mm 0.00 in0.0 mm
07:08 AM 47.5°F8.6°C 45.8°F7.7°C 94% 2.2 mph SE3.5 kmh SE 8.3 mph13.4 kmh 29.85 in1010.8 mb 0.00 in0.0 mm 0.00 in0.0 mm 0.00 in0.0 mm
07:09 AM 47.5°F8.6°C 45.8°F7.7°C 94% 6.9 mph ESE11.1 kmh ESE 9.8 mph15.8 kmh 29.85 in1010.8 mb 0.00 in0.0 mm 0.00 in0.0 mm 0.00 in0.0 mm
07:10 AM 47.5°F8.6°C 45.8°F7.7°C 94% 3.8 mph ESE6.1 kmh ESE 9.8 mph15.8 kmh 29.85 in1010.8 mb 0.00 in0.0 mm 0.00 in0.0 mm 0.00 in0.0 mm
07:11 AM 47.5°F8.6°C 45.8°F7.7°C 94% 3.1 mph ESE5.0 kmh ESE 9.8 mph15.8 kmh 29.85 in1010.8 mb 0.00 in0.0 mm 0.00 in0.0 mm 0.00 in0.0 mm
07:12 AM 47.5°F8.6°C 45.8°F7.7°C 94% 5.4 mph ESE8.7 kmh ESE 9.8 mph15.8 kmh 29.85 in1010.8 mb 0.00 in0.0 mm 0.00 in0.0 mm 0.00 in0.0 mm
07:13 AM 47.5°F8.6°C 45.8°F7.7°C 94% 4.5 mph ESE7.2 kmh ESE 9.8 mph15.8 kmh 29.85 in1010.8 mb 0.00 in0.0 mm 0.00 in0.0 mm 0.00 in0.0 mm
07:14 AM 47.5°F8.6°C 45.8°F7.7°C 94% 3.8 mph ESE6.1 kmh ESE 9.8 mph15.8 kmh 29.85 in1010.8 mb 0.00 in0.0 mm 0.00 in0.0 mm 0.00 in0.0 mm
07:15 AM 47.5°F8.6°C 45.8°F7.7°C 94% 3.8 mph ESE6.1 kmh ESE 9.8 mph15.8 kmh 29.85 in1010.8 mb 0.00 in0.0 mm 0.00 in0.0 mm 0.00 in0.0 mm
07:16 AM 47.5°F8.6°C 45.8°F7.7°C 94% 7.6 mph ESE12.2 kmh ESE 9.8 mph15.8 kmh 29.85 in1010.8 mb 0.00 in0.0 mm 0.00 in0.0 mm 0.00 in0.0 mm
07:17 AM 47.5°F8.6°C 45.8°F7.7°C 94% 6.0 mph ESE9.7 kmh ESE 11.4 mph18.3 kmh 29.85 in1010.8 mb 0.00 in0.0 mm 0.00 in0.0 mm 0.00 in0.0 mm
07:18 AM 47.5°F8.6°C 45.8°F7.7°C 94% 5.4 mph ESE8.7 kmh ESE 11.4 mph18.3 kmh 29.85 in1010.8 mb 0.00 in0.0 mm 0.00 in0.0 mm 0.00 in0.0 mm
07:19 AM 47.5°F8.6°C 45.8°F7.7°C 94% 6.9 mph ESE11.1 kmh ESE 11.4 mph18.3 kmh 29.85 in1010.8 mb 0.00 in0.0 mm 0.00 in0.0 mm 0.00 in0.0 mm
07:20 AM 47.5°F8.6°C 45.8°F7.7°C 94% 5.4 mph ESE8.7 kmh ESE 11.4 mph18.3 kmh 29.85 in1010.8 mb 0.00 in0.0 mm 0.00 in0.0 mm 0.00 in0.0 mm
07:21 AM 47.5°F8.6°C 45.8°F7.7°C 94% 6.0 mph ESE9.7 kmh ESE 11.4 mph18.3 kmh 29.85 in1010.8 mb 0.00 in0.0 mm 0.00 in0.0 mm 0.00 in0.0 mm
07:22 AM 47.5°F8.6°C 45.8°F7.7°C 94% 7.6 mph SE12.2 kmh SE 11.4 mph18.3 kmh 29.85 in1010.8 mb 0.00 in0.0 mm 0.00 in0.0 mm 0.00 in0.0 mm
07:23 AM 47.5°F8.6°C 45.8°F7.7°C 94% 6.9 mph SE11.1 kmh SE 11.4 mph18.3 kmh 29.85 in1010.8 mb 0.00 in0.0 mm 0.00 in0.0 mm 0.00 in0.0 mm
07:24 AM 47.7°F8.7°C 46.0°F7.8°C 94% 5.4 mph SE8.7 kmh SE 11.4 mph18.3 kmh 29.85 in1010.8 mb 0.00 in0.0 mm 0.00 in0.0 mm 0.00 in0.0 mm
07:25 AM 47.7°F8.7°C 46.0°F7.8°C 94% 3.1 mph SE5.0 kmh SE 11.4 mph18.3 kmh 29.85 in1010.8 mb 0.00 in0.0 mm 0.00 in0.0 mm 0.00 in0.0 mm
07:26 AM 47.7°F8.7°C 46.0°F7.8°C 94% 5.4 mph ESE8.7 kmh ESE 11.4 mph18.3 kmh 29.84 in1010.5 mb 0.00 in0.0 mm 0.00 in0.0 mm 0.00 in0.0 mm
07:27 AM 47.7°F8.7°C 46.0°F7.8°C 94% 4.5 mph ESE7.2 kmh ESE 9.2 mph14.8 kmh 29.85 in1010.8 mb 0.00 in0.0 mm 0.00 in0.0 mm 0.00 in0.0 mm
07:28 AM 47.7°F8.7°C 46.0°F7.8°C 94% 3.8 mph ESE6.1 kmh ESE 9.2 mph14.8 kmh 29.84 in1010.5 mb 0.00 in0.0 mm 0.00 in0.0 mm 0.00 in0.0 mm
07:29 AM 47.7°F8.7°C 46.0°F7.8°C 94% 4.5 mph SE7.2 kmh SE 9.2 mph14.8 kmh 29.85 in1010.8 mb 0.00 in0.0 mm 0.00 in0.0 mm 0.00 in0.0 mm
07:30 AM 47.7°F8.7°C 46.0°F7.8°C 94% 4.5 mph SE7.2 kmh SE 9.2 mph14.8 kmh 29.85 in1010.8 mb 0.00 in0.0 mm 0.00 in0.0 mm 0.00 in0.0 mm
07:31 AM 47.7°F8.7°C 46.0°F7.8°C 94% 5.4 mph ESE8.7 kmh ESE 9.2 mph14.8 kmh 29.85 in1010.8 mb 0.00 in0.0 mm 0.00 in0.0 mm 0.00 in0.0 mm
07:32 AM 47.7°F8.7°C 46.0°F7.8°C 94% 3.8 mph ESE6.1 kmh ESE 8.3 mph13.4 kmh 29.85 in1010.8 mb 0.00 in0.0 mm 0.00 in0.0 mm 0.00 in0.0 mm
07:33 AM 47.7°F8.7°C 46.0°F7.8°C 94% 6.0 mph E9.7 kmh E 8.3 mph13.4 kmh 29.85 in1010.8 mb 0.00 in0.0 mm 0.00 in0.0 mm 0.00 in0.0 mm
07:34 AM 47.7°F8.7°C 46.0°F7.8°C 94% 5.4 mph ESE8.7 kmh ESE 8.3 mph13.4 kmh 29.85 in1010.8 mb 0.00 in0.0 mm 0.00 in0.0 mm 0.00 in0.0 mm
07:35 AM 47.7°F8.7°C 46.0°F7.8°C 94% 3.1 mph SE5.0 kmh SE 8.3 mph13.4 kmh 29.85 in1010.8 mb 0.00 in0.0 mm 0.00 in0.0 mm 0.00 in0.0 mm
07:36 AM 47.7°F8.7°C 46.0°F7.8°C 94% 6.0 mph ESE9.7 kmh ESE 8.3 mph13.4 kmh 29.85 in1010.8 mb 0.00 in0.0 mm 0.00 in0.0 mm 0.00 in0.0 mm
07:37 AM 47.7°F8.7°C 46.0°F7.8°C 94% 4.5 mph SE7.2 kmh SE 8.3 mph13.4 kmh 29.85 in1010.8 mb 0.00 in0.0 mm 0.00 in0.0 mm 0.00 in0.0 mm
07:38 AM 47.7°F8.7°C 46.0°F7.8°C 94% 6.9 mph SE11.1 kmh SE 9.8 mph15.8 kmh 29.85 in1010.8 mb 0.00 in0.0 mm 0.00 in0.0 mm 0.00 in0.0 mm
07:39 AM 47.7°F8.7°C 46.0°F7.8°C 94% 6.0 mph SE9.7 kmh SE 9.8 mph15.8 kmh 29.85 in1010.8 mb 0.00 in0.0 mm 0.00 in0.0 mm 0.00 in0.0 mm
07:40 AM 47.7°F8.7°C 46.0°F7.8°C 94% 5.4 mph SE8.7 kmh SE 9.8 mph15.8 kmh 29.86 in1011.2 mb 0.00 in0.0 mm 0.00 in0.0 mm 0.00 in0.0 mm
07:41 AM 47.7°F8.7°C 46.3°F7.9°C 95% 7.6 mph SE12.2 kmh SE 9.8 mph15.8 kmh 29.85 in1010.8 mb 0.00 in0.0 mm 0.00 in0.0 mm 0.00 in0.0 mm
07:42 AM 47.7°F8.7°C 46.3°F7.9°C 95% 5.4 mph SE8.7 kmh SE 9.8 mph15.8 kmh 29.85 in1010.8 mb 0.00 in0.0 mm 0.00 in0.0 mm 0.00 in0.0 mm
07:43 AM 47.7°F8.7°C 46.3°F7.9°C 95% 6.0 mph SE9.7 kmh SE 9.8 mph15.8 kmh 29.85 in1010.8 mb 0.00 in0.0 mm 0.00 in0.0 mm 0.00 in0.0 mm
07:44 AM 47.7°F8.7°C 46.3°F7.9°C 95% 5.4 mph SE8.7 kmh SE 9.8 mph15.8 kmh 29.85 in1010.8 mb 0.00 in0.0 mm 0.00 in0.0 mm 0.00 in0.0 mm
07:45 AM 47.7°F8.7°C 46.3°F7.9°C 95% 6.0 mph SE9.7 kmh SE 9.8 mph15.8 kmh 29.85 in1010.8 mb 0.00 in0.0 mm 0.00 in0.0 mm 0.00 in0.0 mm
07:46 AM 47.7°F8.7°C 46.3°F7.9°C 95% 4.5 mph SE7.2 kmh SE 9.8 mph15.8 kmh 29.85 in1010.8 mb 0.00 in0.0 mm 0.00 in0.0 mm 0.00 in0.0 mm
07:47 AM 47.7°F8.7°C 46.3°F7.9°C 95% 4.5 mph SE7.2 kmh SE 9.8 mph15.8 kmh 29.85 in1010.8 mb 0.00 in0.0 mm 0.00 in0.0 mm 0.00 in0.0 mm
07:48 AM 47.7°F8.7°C 46.3°F7.9°C 95% 3.8 mph SE6.1 kmh SE 9.8 mph15.8 kmh 29.85 in1010.8 mb 0.00 in0.0 mm 0.00 in0.0 mm 0.00 in0.0 mm
07:49 AM 47.8°F8.8°C 46.5°F8.1°C 95% 4.5 mph SE7.2 kmh SE 9.8 mph15.8 kmh 29.85 in1010.8 mb 0.00 in0.0 mm 0.00 in0.0 mm 0.00 in0.0 mm
07:50 AM 47.8°F8.8°C 46.5°F8.1°C 95% 4.5 mph SE7.2 kmh SE 9.8 mph15.8 kmh 29.84 in1010.5 mb 0.00 in0.0 mm 0.00 in0.0 mm 0.00 in0.0 mm
07:51 AM 47.8°F8.8°C 46.5°F8.1°C 95% 3.8 mph SE6.1 kmh SE 9.8 mph15.8 kmh 29.84 in1010.5 mb 0.00 in0.0 mm 0.00 in0.0 mm 0.00 in0.0 mm
07:52 AM 47.8°F8.8°C 46.5°F8.1°C 95% 2.2 mph SE3.5 kmh SE 9.2 mph14.8 kmh 29.84 in1010.5 mb 0.00 in0.0 mm 0.00 in0.0 mm 0.00 in0.0 mm
07:53 AM 47.8°F8.8°C 46.5°F8.1°C 95% 6.0 mph SE9.7 kmh SE 9.8 mph15.8 kmh 29.84 in1010.5 mb 0.00 in0.0 mm 0.00 in0.0 mm 0.00 in0.0 mm
07:54 AM 47.8°F8.8°C 46.5°F8.1°C 95% 8.3 mph SE13.4 kmh SE 12.1 mph19.5 kmh 29.84 in1010.5 mb 0.00 in0.0 mm 0.00 in0.0 mm 0.00 in0.0 mm
07:55 AM 47.8°F8.8°C 46.5°F8.1°C 95% 6.0 mph SE9.7 kmh SE 12.1 mph19.5 kmh 29.84 in1010.5 mb 0.00 in0.0 mm 0.00 in0.0 mm 0.00 in0.0 mm
07:56 AM 47.8°F8.8°C 46.5°F8.1°C 95% 6.0 mph SE9.7 kmh SE 12.1 mph19.5 kmh 29.84 in1010.5 mb 0.00 in0.0 mm 0.00 in0.0 mm 0.00 in0.0 mm
07:57 AM 47.8°F8.8°C 46.5°F8.1°C 95% 9.2 mph SE14.8 kmh SE 12.1 mph19.5 kmh 29.84 in1010.5 mb 0.00 in0.0 mm 0.00 in0.0 mm 0.00 in0.0 mm
07:58 AM 47.8°F8.8°C 46.5°F8.1°C 95% 3.8 mph ESE6.1 kmh ESE 12.1 mph19.5 kmh 29.84 in1010.5 mb 0.00 in0.0 mm 0.00 in0.0 mm 0.00 in0.0 mm
07:59 AM 47.8°F8.8°C 46.5°F8.1°C 95% 6.9 mph ESE11.1 kmh ESE 12.1 mph19.5 kmh 29.84 in1010.5 mb 0.00 in0.0 mm 0.00 in0.0 mm 0.00 in0.0 mm
08:00 AM 47.8°F8.8°C 46.5°F8.1°C 95% 3.8 mph ESE6.1 kmh ESE 12.1 mph19.5 kmh 29.84 in1010.5 mb 0.00 in0.0 mm 0.00 in0.0 mm 0.00 in0.0 mm
08:01 AM 47.8°F8.8°C 46.5°F8.1°C 95% 5.4 mph ESE8.7 kmh ESE 12.1 mph19.5 kmh 29.84 in1010.5 mb 0.00 in0.0 mm 0.00 in0.0 mm 0.00 in0.0 mm
08:02 AM 47.8°F8.8°C 46.5°F8.1°C 95% 5.4 mph ESE8.7 kmh ESE 12.1 mph19.5 kmh 29.84 in1010.5 mb 0.00 in0.0 mm 0.00 in0.0 mm 0.00 in0.0 mm
08:03 AM 47.8°F8.8°C 46.5°F8.1°C 95% 5.4 mph ESE8.7 kmh ESE 12.1 mph19.5 kmh 29.84 in1010.5 mb 0.00 in0.0 mm 0.00 in0.0 mm 0.00 in0.0 mm
08:04 AM 47.8°F8.8°C 46.5°F8.1°C 95% 5.4 mph ESE8.7 kmh ESE 12.1 mph19.5 kmh 29.84 in1010.5 mb 0.00 in0.0 mm 0.00 in0.0 mm 0.00 in0.0 mm
08:05 AM 47.8°F8.8°C 46.5°F8.1°C 95% 5.4 mph ESE8.7 kmh ESE 11.4 mph18.3 kmh 29.84 in1010.5 mb 0.00 in0.0 mm 0.00 in0.0 mm 0.00 in0.0 mm
08:06 AM 47.8°F8.8°C 46.5°F8.1°C 95% 5.4 mph ESE8.7 kmh ESE 11.4 mph18.3 kmh 29.84 in1010.5 mb 0.00 in0.0 mm 0.00 in0.0 mm 0.00 in0.0 mm
08:07 AM 47.8°F8.8°C 46.5°F8.1°C 95% 5.4 mph ESE8.7 kmh ESE 10.7 mph17.2 kmh 29.84 in1010.5 mb 0.00 in0.0 mm 0.00 in0.0 mm 0.00 in0.0 mm
08:08 AM 47.8°F8.8°C 46.5°F8.1°C 95% 5.4 mph ESE8.7 kmh ESE 9.2 mph14.8 kmh 29.84 in1010.5 mb 0.00 in0.0 mm 0.00 in0.0 mm 0.00 in0.0 mm
08:09 AM 47.8°F8.8°C 46.5°F8.1°C 95% 5.4 mph ESE8.7 kmh ESE 9.2 mph14.8 kmh 29.84 in1010.5 mb 0.00 in0.0 mm 0.00 in0.0 mm 0.00 in0.0 mm
08:10 AM 47.8°F8.8°C 46.5°F8.1°C 95% 8.3 mph ESE13.4 kmh ESE 10.7 mph17.2 kmh 29.84 in1010.5 mb 0.00 in0.0 mm 0.00 in0.0 mm 0.00 in0.0 mm
08:11 AM 47.8°F8.8°C 46.5°F8.1°C 95% 4.5 mph ESE7.2 kmh ESE 10.7 mph17.2 kmh 29.84 in1010.5 mb 0.00 in0.0 mm 0.00 in0.0 mm 0.00 in0.0 mm
08:12 AM 47.8°F8.8°C 46.5°F8.1°C 95% 5.4 mph ESE8.7 kmh ESE 10.7 mph17.2 kmh 29.84 in1010.5 mb 0.00 in0.0 mm 0.00 in0.0 mm 0.00 in0.0 mm
08:13 AM 47.8°F8.8°C 46.5°F8.1°C 95% 2.2 mph ESE3.5 kmh ESE 10.7 mph17.2 kmh 29.85 in1010.8 mb 0.00 in0.0 mm 0.00 in0.0 mm 0.00 in0.0 mm
08:14 AM 47.8°F8.8°C 46.5°F8.1°C 95% 3.1 mph ESE5.0 kmh ESE 10.7 mph17.2 kmh 29.84 in1010.5 mb 0.00 in0.0 mm 0.00 in0.0 mm 0.00 in0.0 mm
08:15 AM 47.8°F8.8°C 46.5°F8.1°C 95% 5.4 mph ESE8.7 kmh ESE 10.7 mph17.2 kmh 29.85 in1010.8 mb 0.00 in0.0 mm 0.00 in0.0 mm 0.00 in0.0 mm
08:16 AM 47.8°F8.8°C 46.5°F8.1°C 95% 4.5 mph ESE7.2 kmh ESE 10.7 mph17.2 kmh 29.84 in1010.5 mb 0.00 in0.0 mm 0.00 in0.0 mm 0.00 in0.0 mm
08:17 AM 47.8°F8.8°C 46.5°F8.1°C 95% 3.8 mph ESE6.1 kmh ESE 10.7 mph17.2 kmh 29.85 in1010.8 mb 0.00 in0.0 mm 0.00 in0.0 mm 0.00 in0.0 mm
08:18 AM 47.8°F8.8°C 46.5°F8.1°C 95% 6.9 mph ESE11.1 kmh ESE 10.7 mph17.2 kmh 29.85 in1010.8 mb 0.00 in0.0 mm 0.00 in0.0 mm 0.00 in0.0 mm
08:19 AM 47.8°F8.8°C 46.5°F8.1°C 95% 1.6 mph SE2.6 kmh SE 10.7 mph17.2 kmh 29.85 in1010.8 mb 0.00 in0.0 mm 0.00 in0.0 mm 0.00 in0.0 mm
08:20 AM 47.8°F8.8°C 46.5°F8.1°C 95% 3.1 mph SE5.0 kmh SE 10.7 mph17.2 kmh 29.85 in1010.8 mb 0.00 in0.0 mm 0.00 in0.0 mm 0.00 in0.0 mm
08:21 AM 47.8°F8.8°C 46.5°F8.1°C 95% 4.5 mph SE7.2 kmh SE 9.2 mph14.8 kmh 29.85 in1010.8 mb 0.00 in0.0 mm 0.00 in0.0 mm 0.00 in0.0 mm
08:22 AM 47.8°F8.8°C 46.5°F8.1°C 95% 6.9 mph SE11.1 kmh SE 9.2 mph14.8 kmh 29.85 in1010.8 mb 0.00 in0.0 mm 0.00 in0.0 mm 0.00 in0.0 mm
08:23 AM 47.8°F8.8°C 46.5°F8.1°C 95% 7.6 mph ESE12.2 kmh ESE 9.2 mph14.8 kmh 29.85 in1010.8 mb 0.00 in0.0 mm 0.00 in0.0 mm 0.00 in0.0 mm
08:24 AM 47.8°F8.8°C 46.5°F8.1°C 95% 3.1 mph ESE5.0 kmh ESE 9.2 mph14.8 kmh 29.84 in1010.5 mb 0.00 in0.0 mm 0.00 in0.0 mm 0.00 in0.0 mm
08:25 AM 47.8°F8.8°C 46.5°F8.1°C 95% 5.4 mph ESE8.7 kmh ESE 9.2 mph14.8 kmh 29.84 in1010.5 mb 0.00 in0.0 mm 0.00 in0.0 mm 0.00 in0.0 mm
08:26 AM 47.8°F8.8°C 46.5°F8.1°C 95% 6.9 mph ESE11.1 kmh ESE 9.2 mph14.8 kmh 29.84 in1010.5 mb 0.00 in0.0 mm 0.00 in0.0 mm 0.00 in0.0 mm
08:27 AM 47.8°F8.8°C 46.5°F8.1°C 95% 3.8 mph ESE6.1 kmh ESE 9.2 mph14.8 kmh 29.84 in1010.5 mb 0.00 in0.0 mm 0.00 in0.0 mm 0.00 in0.0 mm
08:28 AM 47.8°F8.8°C 46.5°F8.1°C 95% 3.8 mph ESE6.1 kmh ESE 9.2 mph14.8 kmh 29.84 in1010.5 mb 0.00 in0.0 mm 0.00 in0.0 mm 0.00 in0.0 mm
08:29 AM 47.8°F8.8°C 46.5°F8.1°C 95% 5.4 mph ESE8.7 kmh ESE 9.2 mph14.8 kmh 29.84 in1010.5 mb 0.00 in0.0 mm 0.00 in0.0 mm 0.00 in0.0 mm
08:30 AM 47.8°F8.8°C 46.5°F8.1°C 95% 5.4 mph ESE8.7 kmh ESE 9.2 mph14.8 kmh 29.84 in1010.5 mb 0.00 in0.0 mm 0.00 in0.0 mm 0.00 in0.0 mm
08:31 AM 47.8°F8.8°C 46.5°F8.1°C 95% 4.5 mph ESE7.2 kmh ESE 9.2 mph14.8 kmh 29.85 in1010.8 mb 0.00 in0.0 mm 0.00 in0.0 mm 0.00 in0.0 mm
08:32 AM 47.8°F8.8°C 46.5°F8.1°C 95% 5.4 mph ESE8.7 kmh ESE 9.2 mph14.8 kmh 29.84 in1010.5 mb 0.00 in0.0 mm 0.00 in0.0 mm 0.00 in0.0 mm
08:33 AM 47.8°F8.8°C 46.5°F8.1°C 95% 3.1 mph SE5.0 kmh SE 11.4 mph18.3 kmh 29.85 in1010.8 mb 0.00 in0.0 mm 0.00 in0.0 mm 0.00 in0.0 mm
08:34 AM 47.8°F8.8°C 46.5°F8.1°C 95% 2.2 mph ESE3.5 kmh ESE 11.4 mph18.3 kmh 29.85 in1010.8 mb 0.00 in0.0 mm 0.00 in0.0 mm 0.00 in0.0 mm
08:35 AM 47.8°F8.8°C 46.5°F8.1°C 95% 8.3 mph SE13.4 kmh SE 11.4 mph18.3 kmh 29.85 in1010.8 mb 0.00 in0.0 mm 0.00 in0.0 mm 0.00 in0.0 mm
08:36 AM 47.8°F8.8°C 46.5°F8.1°C 95% 7.6 mph SE12.2 kmh SE 11.4 mph18.3 kmh 29.85 in1010.8 mb 0.00 in0.0 mm 0.00 in0.0 mm 0.00 in0.0 mm
08:37 AM 47.8°F8.8°C 46.5°F8.1°C 95% 6.0 mph SE9.7 kmh SE 11.4 mph18.3 kmh 29.85 in1010.8 mb 0.00 in0.0 mm 0.00 in0.0 mm 0.00 in0.0 mm
08:38 AM 47.8°F8.8°C 46.5°F8.1°C 95% 6.0 mph SE9.7 kmh SE 11.4 mph18.3 kmh 29.85 in1010.8 mb 0.00 in0.0 mm 0.00 in0.0 mm 0.00 in0.0 mm
08:39 AM 47.8°F8.8°C 46.5°F8.1°C 95% 6.0 mph SE9.7 kmh SE 11.4 mph18.3 kmh 29.84 in1010.5 mb 0.00 in0.0 mm 0.00 in0.0 mm 0.00 in0.0 mm
08:40 AM 47.8°F8.8°C 46.5°F8.1°C 95% 4.5 mph SE7.2 kmh SE 11.4 mph18.3 kmh 29.84 in1010.5 mb 0.00 in0.0 mm 0.00 in0.0 mm 0.00 in0.0 mm
08:41 AM 47.8°F8.8°C 46.5°F8.1°C 95% 5.4 mph SE8.7 kmh SE 11.4 mph18.3 kmh 29.84 in1010.5 mb 0.00 in0.0 mm 0.00 in0.0 mm 0.00 in0.0 mm
08:42 AM 47.8°F8.8°C 46.5°F8.1°C 95% 2.2 mph SE3.5 kmh SE 11.4 mph18.3 kmh 29.84 in1010.5 mb 0.00 in0.0 mm 0.00 in0.0 mm 0.00 in0.0 mm
08:43 AM 47.8°F8.8°C 46.5°F8.1°C 95% 3.8 mph SE6.1 kmh SE 9.8 mph15.8 kmh 29.84 in1010.5 mb 0.00 in0.0 mm 0.00 in0.0 mm 0.00 in0.0 mm
08:44 AM 47.8°F8.8°C 46.5°F8.1°C 95% 6.0 mph SE9.7 kmh SE 9.8 mph15.8 kmh 29.84 in1010.5 mb 0.00 in0.0 mm 0.00 in0.0 mm 0.00 in0.0 mm
08:45 AM 47.8°F8.8°C 46.5°F8.1°C 95% 6.0 mph SE9.7 kmh SE 9.8 mph15.8 kmh 29.84 in1010.5 mb 0.00 in0.0 mm 0.00 in0.0 mm 0.00 in0.0 mm
08:46 AM 47.8°F8.8°C 46.5°F8.1°C 95% 5.4 mph SE8.7 kmh SE 9.8 mph15.8 kmh 29.84 in1010.5 mb 0.00 in0.0 mm 0.00 in0.0 mm 0.00 in0.0 mm
08:47 AM 47.8°F8.8°C 46.5°F8.1°C 95% 4.5 mph SE7.2 kmh SE 9.8 mph15.8 kmh 29.84 in1010.5 mb 0.00 in0.0 mm 0.00 in0.0 mm 0.00 in0.0 mm
08:48 AM 47.8°F8.8°C 46.5°F8.1°C 95% 3.1 mph ESE5.0 kmh ESE 9.8 mph15.8 kmh 29.84 in1010.5 mb 0.00 in0.0 mm 0.00 in0.0 mm 0.00 in0.0 mm
08:49 AM 47.8°F8.8°C 46.5°F8.1°C 95% 9.8 mph ESE15.8 kmh ESE 12.1 mph19.5 kmh 29.84 in1010.5 mb 0.00 in0.0 mm 0.00 in0.0 mm 0.00 in0.0 mm
08:50 AM 47.8°F8.8°C 46.5°F8.1°C 95% 9.2 mph ESE14.8 kmh ESE 13.6 mph21.9 kmh 29.84 in1010.5 mb 0.00 in0.0 mm 0.00 in0.0 mm 0.00 in0.0 mm
08:51 AM 47.8°F8.8°C 46.5°F8.1°C 95% 8.3 mph ESE13.4 kmh ESE 13.6 mph21.9 kmh 29.84 in1010.5 mb 0.00 in0.0 mm 0.00 in0.0 mm 0.00 in0.0 mm
08:52 AM 47.8°F8.8°C 46.5°F8.1°C 95% 9.8 mph ESE15.8 kmh ESE 13.6 mph21.9 kmh 29.84 in1010.5 mb 0.00 in0.0 mm 0.00 in0.0 mm 0.00 in0.0 mm
08:53 AM 47.8°F8.8°C 46.5°F8.1°C 95% 4.5 mph E7.2 kmh E 13.6 mph21.9 kmh 29.84 in1010.5 mb 0.00 in0.0 mm 0.00 in0.0 mm 0.00 in0.0 mm
08:54 AM 47.8°F8.8°C 46.5°F8.1°C 95% 6.9 mph ESE11.1 kmh ESE 13.6 mph21.9 kmh 29.84 in1010.5 mb 0.00 in0.0 mm 0.00 in0.0 mm 0.00 in0.0 mm
08:55 AM 47.8°F8.8°C 46.5°F8.1°C 95% 4.5 mph ESE7.2 kmh ESE 13.6 mph21.9 kmh 29.84 in1010.5 mb 0.00 in0.0 mm 0.00 in0.0 mm 0.00 in0.0 mm
08:56 AM 47.8°F8.8°C 46.5°F8.1°C 95% 5.4 mph ESE8.7 kmh ESE 13.6 mph21.9 kmh 29.84 in1010.5 mb 0.00 in0.0 mm 0.00 in0.0 mm 0.00 in0.0 mm
08:57 AM 47.8°F8.8°C 46.5°F8.1°C 95% 6.0 mph ESE9.7 kmh ESE 13.6 mph21.9 kmh 29.84 in1010.5 mb 0.00 in0.0 mm 0.00 in0.0 mm 0.00 in0.0 mm
08:58 AM 47.8°F8.8°C 46.5°F8.1°C 95% 8.3 mph ESE13.4 kmh ESE 13.6 mph21.9 kmh 29.84 in1010.5 mb 0.00 in0.0 mm 0.00 in0.0 mm 0.00 in0.0 mm
08:59 AM 47.8°F8.8°C 46.5°F8.1°C 95% 5.4 mph ESE8.7 kmh ESE 13.6 mph21.9 kmh 29.84 in1010.5 mb 0.00 in0.0 mm 0.00 in0.0 mm 0.00 in0.0 mm
09:00 AM 47.8°F8.8°C 46.5°F8.1°C 95% 12.1 mph ESE19.5 kmh ESE 17.4 mph28.0 kmh 29.84 in1010.5 mb 0.00 in0.0 mm 0.00 in0.0 mm 0.00 in0.0 mm
09:01 AM 47.8°F8.8°C 46.5°F8.1°C 95% 7.6 mph ESE12.2 kmh ESE 17.4 mph28.0 kmh 29.84 in1010.5 mb 0.00 in0.0 mm 0.00 in0.0 mm 0.00 in0.0 mm
09:02 AM 47.8°F8.8°C 46.5°F8.1°C 95% 9.2 mph ESE14.8 kmh ESE 17.4 mph28.0 kmh 29.84 in1010.5 mb 0.00 in0.0 mm 0.00 in0.0 mm 0.00 in0.0 mm
09:03 AM 47.8°F8.8°C 46.5°F8.1°C 95% 9.2 mph SE14.8 kmh SE 17.4 mph28.0 kmh 29.84 in1010.5 mb 0.00 in0.0 mm 0.00 in0.0 mm 0.00 in0.0 mm
09:04 AM 47.8°F8.8°C 46.5°F8.1°C 95% 5.4 mph SE8.7 kmh SE 17.4 mph28.0 kmh 29.84 in1010.5 mb 0.00 in0.0 mm 0.00 in0.0 mm 0.00 in0.0 mm
09:05 AM 47.8°F8.8°C 46.5°F8.1°C 95% 9.8 mph SE15.8 kmh SE 17.4 mph28.0 kmh 29.84 in1010.5 mb 0.00 in0.0 mm 0.00 in0.0 mm 0.00 in0.0 mm
09:06 AM 47.8°F8.8°C 46.5°F8.1°C 95% 7.6 mph SE12.2 kmh SE 17.4 mph28.0 kmh 29.84 in1010.5 mb 0.00 in0.0 mm 0.00 in0.0 mm 0.00 in0.0 mm
09:07 AM 47.8°F8.8°C 46.5°F8.1°C 95% 6.9 mph SE11.1 kmh SE 17.4 mph28.0 kmh 29.84 in1010.5 mb 0.00 in0.0 mm 0.00 in0.0 mm 0.00 in0.0 mm
09:08 AM 47.8°F8.8°C 46.5°F8.1°C 95% 5.4 mph SE8.7 kmh SE 17.4 mph28.0 kmh 29.84 in1010.5 mb 0.00 in0.0 mm 0.00 in0.0 mm 0.00 in0.0 mm
09:09 AM 47.8°F8.8°C 46.5°F8.1°C 95% 4.5 mph SE7.2 kmh SE 17.4 mph28.0 kmh 29.84 in1010.5 mb 0.00 in0.0 mm 0.00 in0.0 mm 0.00 in0.0 mm
09:10 AM 47.8°F8.8°C 46.5°F8.1°C 95% 6.0 mph SE9.7 kmh SE 12.1 mph19.5 kmh 29.84 in1010.5 mb 0.00 in0.0 mm 0.00 in0.0 mm 0.00 in0.0 mm
09:11 AM 47.8°F8.8°C 46.5°F8.1°C 95% 6.9 mph SE11.1 kmh SE 12.1 mph19.5 kmh 29.84 in1010.5 mb 0.00 in0.0 mm 0.00 in0.0 mm 0.00 in0.0 mm
09:12 AM 47.8°F8.8°C 46.5°F8.1°C 95% 6.9 mph SE11.1 kmh SE 12.1 mph19.5 kmh 29.84 in1010.5 mb 0.00 in0.0 mm 0.00 in0.0 mm 0.00 in0.0 mm
09:13 AM 47.8°F8.8°C 46.5°F8.1°C 95% 6.9 mph SE11.1 kmh SE 11.4 mph18.3 kmh 29.84 in1010.5 mb 0.00 in0.0 mm 0.00 in0.0 mm 0.00 in0.0 mm
09:14 AM 47.8°F8.8°C 46.5°F8.1°C 95% 6.0 mph SE9.7 kmh SE 11.4 mph18.3 kmh 29.84 in1010.5 mb 0.00 in0.0 mm 0.00 in0.0 mm 0.00 in0.0 mm
09:15 AM 47.8°F8.8°C 46.5°F8.1°C 95% 9.8 mph SE15.8 kmh SE 11.4 mph18.3 kmh 29.84 in1010.5 mb 0.00 in0.0 mm 0.00 in0.0 mm 0.00 in0.0 mm
09:16 AM 47.8°F8.8°C 46.5°F8.1°C 95% 8.3 mph SE13.4 kmh SE 11.4 mph18.3 kmh 29.84 in1010.5 mb 0.00 in0.0 mm 0.00 in0.0 mm 0.00 in0.0 mm
09:17 AM 47.8°F8.8°C 46.5°F8.1°C 95% 6.0 mph SE9.7 kmh SE 11.4 mph18.3 kmh 29.84 in1010.5 mb 0.00 in0.0 mm 0.00 in0.0 mm 0.00 in0.0 mm
09:18 AM 47.8°F8.8°C 46.5°F8.1°C 95% 6.9 mph ESE11.1 kmh ESE 11.4 mph18.3 kmh 29.84 in1010.5 mb 0.00 in0.0 mm 0.00 in0.0 mm 0.00 in0.0 mm
09:19 AM 47.8°F8.8°C 46.5°F8.1°C 95% 6.0 mph SE9.7 kmh SE 11.4 mph18.3 kmh 29.84 in1010.5 mb 0.00 in0.0 mm 0.00 in0.0 mm 0.00 in0.0 mm
09:20 AM 47.8°F8.8°C 46.5°F8.1°C 95% 8.3 mph SE13.4 kmh SE 11.4 mph18.3 kmh 29.84 in1010.5 mb 0.00 in0.0 mm 0.00 in0.0 mm 0.00 in0.0 mm
09:21 AM 47.8°F8.8°C 46.5°F8.1°C 95% 6.9 mph SE11.1 kmh SE 11.4 mph18.3 kmh 29.84 in1010.5 mb 0.00 in0.0 mm 0.00 in0.0 mm 0.00 in0.0 mm
09:22 AM 47.8°F8.8°C 46.5°F8.1°C 95% 5.4 mph SE8.7 kmh SE 11.4 mph18.3 kmh 29.84 in1010.5 mb 0.00 in0.0 mm 0.00 in0.0 mm 0.00 in0.0 mm
09:23 AM 48.0°F8.9°C 46.7°F8.2°C 95% 6.9 mph SE11.1 kmh SE 11.4 mph18.3 kmh 29.84 in1010.5 mb 0.00 in0.0 mm 0.00 in0.0 mm 0.00 in0.0 mm
09:24 AM 48.0°F8.9°C 46.7°F8.2°C 95% 6.0 mph SE9.7 kmh SE 11.4 mph18.3 kmh 29.84 in1010.5 mb 0.00 in0.0 mm 0.00 in0.0 mm 0.00 in0.0 mm
09:25 AM 48.0°F8.9°C 46.7°F8.2°C 95% 8.3 mph SE13.4 kmh SE 11.4 mph18.3 kmh 29.84 in1010.5 mb 0.00 in0.0 mm 0.00 in0.0 mm 0.00 in0.0 mm
09:26 AM 48.0°F8.9°C 46.7°F8.2°C 95% 8.3 mph SE13.4 kmh SE 11.4 mph18.3 kmh 29.84 in1010.5 mb 0.00 in0.0 mm 0.00 in0.0 mm 0.00 in0.0 mm
09:27 AM 48.0°F8.9°C 46.7°F8.2°C 95% 6.0 mph SE9.7 kmh SE 11.4 mph18.3 kmh 29.84 in1010.5 mb 0.00 in0.0 mm 0.00 in0.0 mm 0.00 in0.0 mm
09:28 AM 48.0°F8.9°C 46.7°F8.2°C 95% 5.4 mph SE8.7 kmh SE 11.4 mph18.3 kmh 29.84 in1010.5 mb 0.00 in0.0 mm 0.00 in0.0 mm 0.00 in0.0 mm
09:29 AM 48.0°F8.9°C 46.7°F8.2°C 95% 6.9 mph SE11.1 kmh SE 11.4 mph18.3 kmh 29.84 in1010.5 mb 0.00 in0.0 mm 0.00 in0.0 mm 0.00 in0.0 mm
09:30 AM 48.0°F8.9°C 46.7°F8.2°C 95% 5.4 mph SE8.7 kmh SE 11.4 mph18.3 kmh 29.84 in1010.5 mb 0.00 in0.0 mm 0.00 in0.0 mm 0.00 in0.0 mm
09:31 AM 48.0°F8.9°C 46.7°F8.2°C 95% 6.0 mph SE9.7 kmh SE 11.4 mph18.3 kmh 29.84 in1010.5 mb 0.00 in0.0 mm 0.00 in0.0 mm 0.00 in0.0 mm
09:32 AM 48.0°F8.9°C 46.7°F8.2°C 95% 6.0 mph SE9.7 kmh SE 11.4 mph18.3 kmh 29.84 in1010.5 mb 0.00 in0.0 mm 0.00 in0.0 mm 0.00 in0.0 mm
09:33 AM 48.2°F9.0°C 46.8°F8.2°C 95% 6.9 mph SE11.1 kmh SE 11.4 mph18.3 kmh 29.84 in1010.5 mb 0.00 in0.0 mm 0.00 in0.0 mm 0.00 in0.0 mm
09:34 AM 48.2°F9.0°C 46.8°F8.2°C 95% 6.9 mph SE11.1 kmh SE 11.4 mph18.3 kmh 29.84 in1010.5 mb 0.00 in0.0 mm 0.00 in0.0 mm 0.00 in0.0 mm
09:35 AM 48.2°F9.0°C 46.8°F8.2°C 95% 7.6 mph SE12.2 kmh SE 11.4 mph18.3 kmh 29.84 in1010.5 mb 0.00 in0.0 mm 0.00 in0.0 mm 0.00 in0.0 mm
09:36 AM 48.2°F9.0°C 46.8°F8.2°C 95% 9.8 mph SE15.8 kmh SE 11.4 mph18.3 kmh 29.84 in1010.5 mb 0.00 in0.0 mm 0.00 in0.0 mm 0.00 in0.0 mm
09:37 AM 48.2°F9.0°C 46.8°F8.2°C 95% 7.6 mph SE12.2 kmh SE 11.4 mph18.3 kmh 29.84 in1010.5 mb 0.00 in0.0 mm 0.00 in0.0 mm 0.00 in0.0 mm
09:38 AM 48.2°F9.0°C 46.8°F8.2°C 95% 5.4 mph ESE8.7 kmh ESE 11.4 mph18.3 kmh 29.84 in1010.5 mb 0.00 in0.0 mm 0.00 in0.0 mm 0.00 in0.0 mm
09:39 AM 48.2°F9.0°C 46.8°F8.2°C 95% 6.0 mph ESE9.7 kmh ESE 11.4 mph18.3 kmh 29.84 in1010.5 mb 0.00 in0.0 mm 0.00 in0.0 mm 0.00 in0.0 mm
09:40 AM 48.4°F9.1°C 47.0°F8.3°C 95% 8.3 mph ESE13.4 kmh ESE 11.4 mph18.3 kmh 29.84 in1010.5 mb 0.00 in0.0 mm 0.00 in0.0 mm 0.00 in0.0 mm
09:41 AM 48.4°F9.1°C 47.0°F8.3°C 95% 6.9 mph SE11.1 kmh SE 11.4 mph18.3 kmh 29.84 in1010.5 mb 0.00 in0.0 mm 0.00 in0.0 mm 0.00 in0.0 mm
09:42 AM 48.4°F9.1°C 47.0°F8.3°C 95% 5.4 mph ESE8.7 kmh ESE 11.4 mph18.3 kmh 29.84 in1010.5 mb 0.00 in0.0 mm 0.00 in0.0 mm 0.00 in0.0 mm
09:43 AM 48.4°F9.1°C 47.0°F8.3°C 95% 6.0 mph SE9.7 kmh SE 11.4 mph18.3 kmh 29.84 in1010.5 mb 0.00 in0.0 mm 0.00 in0.0 mm 0.00 in0.0 mm
09:44 AM 48.4°F9.1°C 47.0°F8.3°C 95% 9.2 mph ESE14.8 kmh ESE 13.0 mph20.9 kmh 29.84 in1010.5 mb 0.00 in0.0 mm 0.00 in0.0 mm 0.00 in0.0 mm
09:45 AM 48.4°F9.1°C 47.0°F8.3°C 95% 8.3 mph SE13.4 kmh SE 13.0 mph20.9 kmh 29.84 in1010.5 mb 0.00 in0.0 mm 0.00 in0.0 mm 0.00 in0.0 mm
09:46 AM 48.4°F9.1°C 47.0°F8.3°C 95% 9.2 mph SE14.8 kmh SE 13.0 mph20.9 kmh 29.84 in1010.5 mb 0.00 in0.0 mm 0.00 in0.0 mm 0.00 in0.0 mm
09:47 AM 48.4°F9.1°C 46.7°F8.2°C 94% 9.2 mph SE14.8 kmh SE 13.0 mph20.9 kmh 29.84 in1010.5 mb 0.00 in0.0 mm 0.00 in0.0 mm 0.00 in0.0 mm
09:48 AM 48.4°F9.1°C 46.7°F8.2°C 94% 9.2 mph SE14.8 kmh SE 13.0 mph20.9 kmh 29.84 in1010.5 mb 0.00 in0.0 mm 0.00 in0.0 mm 0.00 in0.0 mm
09:49 AM 48.4°F9.1°C 46.7°F8.2°C 94% 8.3 mph SE13.4 kmh SE 13.0 mph20.9 kmh 29.84 in1010.5 mb 0.00 in0.0 mm 0.00 in0.0 mm 0.00 in0.0 mm
09:50 AM 48.4°F9.1°C 46.7°F8.2°C 94% 9.8 mph SE15.8 kmh SE 13.0 mph20.9 kmh 29.84 in1010.5 mb 0.00 in0.0 mm 0.00 in0.0 mm 0.00 in0.0 mm
09:51 AM 48.6°F9.2°C 46.9°F8.3°C 94% 9.8 mph SE15.8 kmh SE 13.0 mph20.9 kmh 29.84 in1010.5 mb 0.00 in0.0 mm 0.00 in0.0 mm 0.00 in0.0 mm
09:52 AM 48.6°F9.2°C 46.9°F8.3°C 94% 8.3 mph SE13.4 kmh SE 13.0 mph20.9 kmh 29.84 in1010.5 mb 0.00 in0.0 mm 0.00 in0.0 mm 0.00 in0.0 mm
09:53 AM 48.6°F9.2°C 46.9°F8.3°C 94% 8.3 mph SE13.4 kmh SE 13.0 mph20.9 kmh 29.84 in1010.5 mb 0.00 in0.0 mm 0.00 in0.0 mm 0.00 in0.0 mm
09:54 AM 48.4°F9.1°C 46.7°F8.2°C 94% 10.7 mph SE17.2 kmh SE 13.0 mph20.9 kmh 29.84 in1010.5 mb 0.00 in0.0 mm 0.00 in0.0 mm 0.00 in0.0 mm
09:55 AM 48.4°F9.1°C 46.7°F8.2°C 94% 8.3 mph SE13.4 kmh SE 13.0 mph20.9 kmh 29.84 in1010.5 mb 0.00 in0.0 mm 0.00 in0.0 mm 0.00 in0.0 mm
09:56 AM 48.4°F9.1°C 46.7°F8.2°C 94% 8.3 mph SE13.4 kmh SE 13.0 mph20.9 kmh 29.84 in1010.5 mb 0.00 in0.0 mm 0.00 in0.0 mm 0.00 in0.0 mm
09:57 AM 48.6°F9.2°C 46.6°F8.1°C 93% 7.6 mph SE12.2 kmh SE 13.0 mph20.9 kmh 29.84 in1010.5 mb 0.00 in0.0 mm 0.00 in0.0 mm 0.00 in0.0 mm
09:58 AM 48.6°F9.2°C 46.6°F8.1°C 93% 7.6 mph SE12.2 kmh SE 13.0 mph20.9 kmh 29.84 in1010.5 mb 0.00 in0.0 mm 0.00 in0.0 mm 0.00 in0.0 mm
09:59 AM 48.6°F9.2°C 46.6°F8.1°C 93% 6.0 mph SE9.7 kmh SE 13.0 mph20.9 kmh 29.84 in1010.5 mb 0.00 in0.0 mm 0.00 in0.0 mm 0.00 in0.0 mm
10:00 AM 48.6°F9.2°C 46.6°F8.1°C 93% 4.5 mph SE7.2 kmh SE 13.0 mph20.9 kmh 29.84 in1010.5 mb 0.00 in0.0 mm 0.00 in0.0 mm 0.00 in0.0 mm
10:01 AM 48.6°F9.2°C 46.6°F8.1°C 93% 9.2 mph SE14.8 kmh SE 13.0 mph20.9 kmh 29.84 in1010.5 mb 0.00 in0.0 mm 0.00 in0.0 mm 0.00 in0.0 mm
10:02 AM 48.6°F9.2°C 46.6°F8.1°C 93% 9.2 mph SE14.8 kmh SE 13.0 mph20.9 kmh 29.84 in1010.5 mb 0.00 in0.0 mm 0.00 in0.0 mm 0.00 in0.0 mm
10:03 AM 48.6°F9.2°C 46.6°F8.1°C 93% 9.2 mph SE14.8 kmh SE 13.0 mph20.9 kmh 29.84 in1010.5 mb 0.00 in0.0 mm 0.00 in0.0 mm 0.00 in0.0 mm
10:04 AM 48.6°F9.2°C 46.6°F8.1°C 93% 9.2 mph SE14.8 kmh SE 13.0 mph20.9 kmh 29.84 in1010.5 mb 0.00 in0.0 mm 0.00 in0.0 mm 0.00 in0.0 mm
10:05 AM 48.6°F9.2°C 46.6°F8.1°C 93% 9.2 mph SE14.8 kmh SE 11.4 mph18.3 kmh 29.84 in1010.5 mb 0.00 in0.0 mm 0.00 in0.0 mm 0.00 in0.0 mm
10:06 AM 48.6°F9.2°C 46.6°F8.1°C 93% 9.2 mph SE14.8 kmh SE 10.7 mph17.2 kmh 29.84 in1010.5 mb 0.00 in0.0 mm 0.00 in0.0 mm 0.00 in0.0 mm
10:07 AM 48.6°F9.2°C 46.3°F7.9°C 92% 5.4 mph SE8.7 kmh SE 10.7 mph17.2 kmh 29.84 in1010.5 mb 0.00 in0.0 mm 0.00 in0.0 mm 0.00 in0.0 mm
10:08 AM 48.6°F9.2°C 46.3°F7.9°C 92% 6.9 mph SE11.1 kmh SE 10.7 mph17.2 kmh 29.84 in1010.5 mb 0.00 in0.0 mm 0.00 in0.0 mm 0.00 in0.0 mm
10:09 AM 48.6°F9.2°C 46.3°F7.9°C 92% 6.9 mph SE11.1 kmh SE 10.7 mph17.2 kmh 29.84 in1010.5 mb 0.00 in0.0 mm 0.00 in0.0 mm 0.00 in0.0 mm
10:10 AM 48.6°F9.2°C 46.1°F7.8°C 91% 6.9 mph SE11.1 kmh SE 10.7 mph17.2 kmh 29.84 in1010.5 mb 0.00 in0.0 mm 0.00 in0.0 mm 0.00 in0.0 mm
10:11 AM 48.6°F9.2°C 46.1°F7.8°C 91% 6.0 mph SE9.7 kmh SE 10.7 mph17.2 kmh 29.84 in1010.5 mb 0.00 in0.0 mm 0.00 in0.0 mm 0.00 in0.0 mm
10:12 AM 48.6°F9.2°C 46.1°F7.8°C 91% 8.3 mph SE13.4 kmh SE 13.0 mph20.9 kmh 29.84 in1010.5 mb 0.00 in0.0 mm 0.00 in0.0 mm 0.00 in0.0 mm
10:13 AM 48.7°F9.3°C 46.2°F7.9°C 91% 5.4 mph SE8.7 kmh SE 13.0 mph20.9 kmh 29.84 in1010.5 mb 0.00 in0.0 mm 0.00 in0.0 mm 0.00 in0.0 mm
10:14 AM 48.7°F9.3°C 46.2°F7.9°C 91% 7.6 mph SE12.2 kmh SE 13.0 mph20.9 kmh 29.84 in1010.5 mb 0.00 in0.0 mm 0.00 in0.0 mm 0.00 in0.0 mm
10:15 AM 48.7°F9.3°C 46.2°F7.9°C 91% 7.6 mph SE12.2 kmh SE 13.0 mph20.9 kmh 29.84 in1010.5 mb 0.00 in0.0 mm 0.00 in0.0 mm 0.00 in0.0 mm
10:16 AM 48.7°F9.3°C 46.2°F7.9°C 91% 7.6 mph SE12.2 kmh SE 13.0 mph20.9 kmh 29.84 in1010.5 mb 0.00 in0.0 mm 0.00 in0.0 mm 0.00 in0.0 mm
10:17 AM 48.7°F9.3°C 46.2°F7.9°C 91% 6.9 mph SE11.1 kmh SE 13.0 mph20.9 kmh 29.84 in1010.5 mb 0.00 in0.0 mm 0.00 in0.0 mm 0.00 in0.0 mm
10:18 AM 48.7°F9.3°C 46.2°F7.9°C 91% 9.2 mph SE14.8 kmh SE 13.0 mph20.9 kmh 29.84 in1010.5 mb 0.00 in0.0 mm 0.00 in0.0 mm 0.00 in0.0 mm
10:19 AM 48.7°F9.3°C 46.2°F7.9°C 91% 8.3 mph SE13.4 kmh SE 13.0 mph20.9 kmh 29.84 in1010.5 mb 0.00 in0.0 mm 0.00 in0.0 mm 0.00 in0.0 mm
10:20 AM 48.7°F9.3°C 46.2°F7.9°C 91% 6.9 mph SE11.1 kmh SE 13.0 mph20.9 kmh 29.84 in1010.5 mb 0.00 in0.0 mm 0.00 in0.0 mm 0.00 in0.0 mm
10:21 AM 48.9°F9.4°C 46.1°F7.8°C 90% 6.9 mph SE11.1 kmh SE 13.0 mph20.9 kmh 29.84 in1010.5 mb 0.00 in0.0 mm 0.00 in0.0 mm 0.00 in0.0 mm
10:22 AM 48.9°F9.4°C 46.1°F7.8°C 90% 5.4 mph SE8.7 kmh SE 13.0 mph20.9 kmh 29.84 in1010.5 mb 0.00 in0.0 mm 0.00 in0.0 mm 0.00 in0.0 mm
10:23 AM 48.9°F9.4°C 46.1°F7.8°C 90% 6.0 mph SE9.7 kmh SE 11.4 mph18.3 kmh 29.84 in1010.5 mb 0.00 in0.0 mm 0.00 in0.0 mm 0.00 in0.0 mm
10:24 AM 48.9°F9.4°C 46.1°F7.8°C 90% 6.0 mph SE9.7 kmh SE 11.4 mph18.3 kmh 29.84 in1010.5 mb 0.00 in0.0 mm 0.00 in0.0 mm 0.00 in0.0 mm
10:25 AM 48.9°F9.4°C 46.1°F7.8°C 90% 6.9 mph SE11.1 kmh SE 11.4 mph18.3 kmh 29.84 in1010.5 mb 0.00 in0.0 mm 0.00 in0.0 mm 0.00 in0.0 mm
10:26 AM 49.1°F9.5°C 46.3°F7.9°C 90% 4.5 mph SE7.2 kmh SE 11.4 mph18.3 kmh 29.84 in1010.5 mb 0.00 in0.0 mm 0.00 in0.0 mm 0.00 in0.0 mm
10:27 AM 49.1°F9.5°C 46.3°F7.9°C 90% 5.4 mph SE8.7 kmh SE 11.4 mph18.3 kmh 29.84 in1010.5 mb 0.00 in0.0 mm 0.00 in0.0 mm 0.00 in0.0 mm
10:28 AM 49.1°F9.5°C 46.3°F7.9°C 90% 5.4 mph SE8.7 kmh SE 11.4 mph18.3 kmh 29.84 in1010.5 mb 0.00 in0.0 mm 0.00 in0.0 mm 0.00 in0.0 mm
10:29 AM 49.1°F9.5°C 46.3°F7.9°C 90% 5.4 mph SE8.7 kmh SE 10.7 mph17.2 kmh 29.84 in1010.5 mb 0.00 in0.0 mm 0.00 in0.0 mm 0.00 in0.0 mm
10:30 AM 49.1°F9.5°C 46.3°F7.9°C 90% 5.4 mph SE8.7 kmh SE 10.7 mph17.2 kmh 29.84 in1010.5 mb 0.00 in0.0 mm 0.00 in0.0 mm 0.00 in0.0 mm
10:31 AM 49.1°F9.5°C 46.3°F7.9°C 90% 5.4 mph SE8.7 kmh SE 10.7 mph17.2 kmh 29.84 in1010.5 mb 0.00 in0.0 mm 0.00 in0.0 mm 0.00 in0.0 mm
10:32 AM 49.3°F9.6°C 46.5°F8.1°C 90% 5.4 mph SSE8.7 kmh SSE 10.7 mph17.2 kmh 29.84 in1010.5 mb 0.00 in0.0 mm 0.00 in0.0 mm 0.00 in0.0 mm
10:33 AM 49.3°F9.6°C 46.5°F8.1°C 90% 3.1 mph SSE5.0 kmh SSE 10.7 mph17.2 kmh 29.84 in1010.5 mb 0.00 in0.0 mm 0.00 in0.0 mm 0.00 in0.0 mm
10:34 AM 49.3°F9.6°C 46.5°F8.1°C 90% 3.8 mph SE6.1 kmh SE 9.2 mph14.8 kmh 29.84 in1010.5 mb 0.00 in0.0 mm 0.00 in0.0 mm 0.00 in0.0 mm
10:35 AM 49.3°F9.6°C 46.5°F8.1°C 90% 3.8 mph SSE6.1 kmh SSE 9.2 mph14.8 kmh 29.84 in1010.5 mb 0.00 in0.0 mm 0.00 in0.0 mm 0.00 in0.0 mm
10:36 AM 49.3°F9.6°C 46.5°F8.1°C 90% 6.0 mph SSE9.7 kmh SSE 9.8 mph15.8 kmh 29.84 in1010.5 mb 0.00 in0.0 mm 0.00 in0.0 mm 0.00 in0.0 mm
10:37 AM 49.3°F9.6°C 46.5°F8.1°C 90% 6.9 mph SSE11.1 kmh SSE 9.8 mph15.8 kmh 29.84 in1010.5 mb 0.00 in0.0 mm 0.00 in0.0 mm 0.00 in0.0 mm
10:38 AM 49.3°F9.6°C 46.2°F7.9°C 89% 6.0 mph SSE9.7 kmh SSE 9.8 mph15.8 kmh 29.84 in1010.5 mb 0.00 in0.0 mm 0.00 in0.0 mm 0.00 in0.0 mm
10:39 AM 49.3°F9.6°C 46.2°F7.9°C 89% 6.9 mph SSE11.1 kmh SSE 9.8 mph15.8 kmh 29.84 in1010.5 mb 0.00 in0.0 mm 0.00 in0.0 mm 0.00 in0.0 mm
10:40 AM 49.3°F9.6°C 46.2°F7.9°C 89% 6.0 mph SE9.7 kmh SE 9.8 mph15.8 kmh 29.84 in1010.5 mb 0.00 in0.0 mm 0.00 in0.0 mm 0.00 in0.0 mm
10:41 AM 49.3°F9.6°C 46.2°F7.9°C 89% 9.2 mph SE14.8 kmh SE 11.4 mph18.3 kmh 29.84 in1010.5 mb 0.00 in0.0 mm 0.00 in0.0 mm 0.00 in0.0 mm
10:42 AM 49.3°F9.6°C 46.2°F7.9°C 89% 7.6 mph SE12.2 kmh SE 11.4 mph18.3 kmh 29.83 in1010.2 mb 0.00 in0.0 mm 0.00 in0.0 mm 0.00 in0.0 mm
10:43 AM 49.3°F9.6°C 46.2°F7.9°C 89% 5.4 mph SE8.7 kmh SE 11.4 mph18.3 kmh 29.84 in1010.5 mb 0.00 in0.0 mm 0.00 in0.0 mm 0.00 in0.0 mm
10:44 AM 49.3°F9.6°C 46.2°F7.9°C 89% 5.4 mph SE8.7 kmh SE 11.4 mph18.3 kmh 29.84 in1010.5 mb 0.00 in0.0 mm 0.00 in0.0 mm 0.00 in0.0 mm
10:45 AM 49.5°F9.7°C 46.4°F8.0°C 89% 5.4 mph SE8.7 kmh SE 11.4 mph18.3 kmh 29.84 in1010.5 mb 0.00 in0.0 mm 0.00 in0.0 mm 0.00 in0.0 mm
10:46 AM 49.5°F9.7°C 46.4°F8.0°C 89% 4.5 mph SE7.2 kmh SE 11.4 mph18.3 kmh 29.83 in1010.2 mb 0.00 in0.0 mm 0.00 in0.0 mm 0.00 in0.0 mm
10:47 AM 49.5°F9.7°C 46.1°F7.8°C 88% 4.5 mph SE7.2 kmh SE 11.4 mph18.3 kmh 29.83 in1010.2 mb 0.00 in0.0 mm 0.00 in0.0 mm 0.00 in0.0 mm
10:48 AM 49.5°F9.7°C 46.1°F7.8°C 88% 4.5 mph SE7.2 kmh SE 11.4 mph18.3 kmh 29.83 in1010.2 mb 0.00 in0.0 mm 0.00 in0.0 mm 0.00 in0.0 mm
10:49 AM 49.5°F9.7°C 46.1°F7.8°C 88% 6.9 mph SE11.1 kmh SE 11.4 mph18.3 kmh 29.84 in1010.5 mb 0.00 in0.0 mm 0.00 in0.0 mm 0.00 in0.0 mm
10:50 AM 49.6°F9.8°C 46.2°F7.9°C 88% 6.0 mph SE9.7 kmh SE 11.4 mph18.3 kmh 29.83 in1010.2 mb 0.00 in0.0 mm 0.00 in0.0 mm 0.00 in0.0 mm
10:51 AM 49.6°F9.8°C 46.2°F7.9°C 88% 3.8 mph SE6.1 kmh SE 11.4 mph18.3 kmh 29.84 in1010.5 mb 0.00 in0.0 mm 0.00 in0.0 mm 0.00 in0.0 mm
10:52 AM 49.6°F9.8°C 46.2°F7.9°C 88% 6.9 mph SE11.1 kmh SE 9.2 mph14.8 kmh 29.84 in1010.5 mb 0.00 in0.0 mm 0.00 in0.0 mm 0.00 in0.0 mm
10:53 AM 49.6°F9.8°C 46.2°F7.9°C 88% 5.4 mph SE8.7 kmh SE 9.2 mph14.8 kmh 29.83 in1010.2 mb 0.00 in0.0 mm 0.00 in0.0 mm 0.00 in0.0 mm
10:54 AM 49.6°F9.8°C 46.2°F7.9°C 88% 5.4 mph SE8.7 kmh SE 9.8 mph15.8 kmh 29.83 in1010.2 mb 0.00 in0.0 mm 0.00 in0.0 mm 0.00 in0.0 mm
10:55 AM 49.6°F9.8°C 46.2°F7.9°C 88% 9.8 mph SE15.8 kmh SE 12.1 mph19.5 kmh 29.84 in1010.5 mb 0.00 in0.0 mm 0.00 in0.0 mm 0.00 in0.0 mm
10:56 AM 49.8°F9.9°C 46.4°F8.0°C 88% 4.5 mph SE7.2 kmh SE 12.1 mph19.5 kmh 29.83 in1010.2 mb 0.00 in0.0 mm 0.00 in0.0 mm 0.00 in0.0 mm
10:57 AM 49.8°F9.9°C 46.4°F8.0°C 88% 5.4 mph SE8.7 kmh SE 12.1 mph19.5 kmh 29.84 in1010.5 mb 0.00 in0.0 mm 0.00 in0.0 mm 0.00 in0.0 mm
10:58 AM 49.8°F9.9°C 46.4°F8.0°C 88% 5.4 mph SE8.7 kmh SE 12.1 mph19.5 kmh 29.84 in1010.5 mb 0.00 in0.0 mm 0.00 in0.0 mm 0.00 in0.0 mm
10:59 AM 49.8°F9.9°C 46.1°F7.8°C 87% 6.0 mph SE9.7 kmh SE 12.1 mph19.5 kmh 29.84 in1010.5 mb 0.00 in0.0 mm 0.00 in0.0 mm 0.00 in0.0 mm
11:00 AM 49.8°F9.9°C 46.1°F7.8°C 87% 5.4 mph SE8.7 kmh SE 12.1 mph19.5 kmh 29.84 in1010.5 mb 0.00 in0.0 mm 0.00 in0.0 mm 0.00 in0.0 mm
11:01 AM 49.8°F9.9°C 46.1°F7.8°C 87% 4.5 mph SE7.2 kmh SE 12.1 mph19.5 kmh 29.84 in1010.5 mb 0.00 in0.0 mm 0.00 in0.0 mm 0.00 in0.0 mm
11:02 AM 49.8°F9.9°C 46.1°F7.8°C 87% 5.4 mph SE8.7 kmh SE 12.1 mph19.5 kmh 29.84 in1010.5 mb 0.00 in0.0 mm 0.00 in0.0 mm 0.00 in0.0 mm
11:03 AM 49.8°F9.9°C 46.1°F7.8°C 87% 5.4 mph SE8.7 kmh SE 12.1 mph19.5 kmh 29.84 in1010.5 mb 0.00 in0.0 mm 0.00 in0.0 mm 0.00 in0.0 mm
11:04 AM 50.0°F10.0°C 46.3°F7.9°C 87% 4.5 mph SE7.2 kmh SE 12.1 mph19.5 kmh 29.84 in1010.5 mb 0.00 in0.0 mm 0.00 in0.0 mm 0.00 in0.0 mm
11:05 AM 50.0°F10.0°C 46.3°F7.9°C 87% 6.0 mph SE9.7 kmh SE 12.1 mph19.5 kmh 29.83 in1010.2 mb 0.00 in0.0 mm 0.00 in0.0 mm 0.00 in0.0 mm
11:06 AM 50.0°F10.0°C 46.3°F7.9°C 87% 6.0 mph SE9.7 kmh SE 10.7 mph17.2 kmh 29.83 in1010.2 mb 0.00 in0.0 mm 0.00 in0.0 mm 0.00 in0.0 mm
11:07 AM 50.0°F10.0°C 46.3°F7.9°C 87% 4.5 mph SE7.2 kmh SE 8.3 mph13.4 kmh 29.84 in1010.5 mb 0.00 in0.0 mm 0.00 in0.0 mm 0.00 in0.0 mm
11:08 AM 50.0°F10.0°C 46.0°F7.8°C 86% 7.6 mph SE12.2 kmh SE 9.8 mph15.8 kmh 29.84 in1010.5 mb 0.00 in0.0 mm 0.00 in0.0 mm 0.00 in0.0 mm
11:09 AM 50.0°F10.0°C 46.0°F7.8°C 86% 4.5 mph SE7.2 kmh SE 9.8 mph15.8 kmh 29.84 in1010.5 mb 0.00 in0.0 mm 0.00 in0.0 mm 0.00 in0.0 mm
11:10 AM 50.0°F10.0°C 46.0°F7.8°C 86% 5.4 mph SE8.7 kmh SE 9.8 mph15.8 kmh 29.84 in1010.5 mb 0.00 in0.0 mm 0.00 in0.0 mm 0.00 in0.0 mm
11:11 AM 50.0°F10.0°C 46.0°F7.8°C 86% 3.1 mph SE5.0 kmh SE 9.8 mph15.8 kmh 29.83 in1010.2 mb 0.00 in0.0 mm 0.00 in0.0 mm 0.00 in0.0 mm
11:12 AM 50.2°F10.1°C 46.2°F7.9°C 86% 4.5 mph SE7.2 kmh SE 9.8 mph15.8 kmh 29.84 in1010.5 mb 0.00 in0.0 mm 0.00 in0.0 mm 0.00 in0.0 mm
11:13 AM 50.2°F10.1°C 46.2°F7.9°C 86% 6.9 mph SE11.1 kmh SE 9.8 mph15.8 kmh 29.83 in1010.2 mb 0.00 in0.0 mm 0.00 in0.0 mm 0.00 in0.0 mm
11:14 AM 50.2°F10.1°C 46.2°F7.9°C 86% 8.3 mph SE13.4 kmh SE 11.4 mph18.3 kmh 29.83 in1010.2 mb 0.00 in0.0 mm 0.00 in0.0 mm 0.00 in0.0 mm
11:15 AM 50.2°F10.1°C 46.2°F7.9°C 86% 9.2 mph SE14.8 kmh SE 11.4 mph18.3 kmh 29.83 in1010.2 mb 0.00 in0.0 mm 0.00 in0.0 mm 0.00 in0.0 mm
11:16 AM 50.0°F10.0°C 46.0°F7.8°C 86% 8.3 mph SE13.4 kmh SE 11.4 mph18.3 kmh 29.83 in1010.2 mb 0.00 in0.0 mm 0.00 in0.0 mm 0.00 in0.0 mm
11:17 AM 50.0°F10.0°C 45.7°F7.6°C 85% 9.2 mph SE14.8 kmh SE 11.4 mph18.3 kmh 29.83 in1010.2 mb 0.00 in0.0 mm 0.00 in0.0 mm 0.00 in0.0 mm
11:18 AM 50.2°F10.1°C 45.8°F7.7°C 85% 3.8 mph SE6.1 kmh SE 11.4 mph18.3 kmh 29.83 in1010.2 mb 0.00 in0.0 mm 0.00 in0.0 mm 0.00 in0.0 mm
11:19 AM 50.2°F10.1°C 45.8°F7.7°C 85% 6.9 mph SE11.1 kmh SE 11.4 mph18.3 kmh 29.83 in1010.2 mb 0.00 in0.0 mm 0.00 in0.0 mm 0.00 in0.0 mm
11:20 AM 50.2°F10.1°C 45.8°F7.7°C 85% 6.9 mph SE11.1 kmh SE 11.4 mph18.3 kmh 29.83 in1010.2 mb 0.00 in0.0 mm 0.00 in0.0 mm 0.00 in0.0 mm
11:21 AM 50.0°F10.0°C 45.7°F7.6°C 85% 6.9 mph SE11.1 kmh SE 11.4 mph18.3 kmh 29.83 in1010.2 mb 0.00 in0.0 mm 0.00 in0.0 mm 0.00 in0.0 mm
11:22 AM 50.2°F10.1°C 45.8°F7.7°C 85% 6.9 mph SE11.1 kmh SE 11.4 mph18.3 kmh 29.83 in1010.2 mb 0.00 in0.0 mm 0.00 in0.0 mm 0.00 in0.0 mm
11:23 AM 50.2°F10.1°C 45.8°F7.7°C 85% 5.4 mph SE8.7 kmh SE 11.4 mph18.3 kmh 29.83 in1010.2 mb 0.00 in0.0 mm 0.00 in0.0 mm 0.00 in0.0 mm
11:24 AM 50.2°F10.1°C 45.8°F7.7°C 85% 5.4 mph SE8.7 kmh SE 11.4 mph18.3 kmh 29.83 in1010.2 mb 0.00 in0.0 mm 0.00 in0.0 mm 0.00 in0.0 mm
11:25 AM 50.2°F10.1°C 45.8°F7.7°C 85% 7.6 mph SE12.2 kmh SE 11.4 mph18.3 kmh 29.83 in1010.2 mb 0.00 in0.0 mm 0.00 in0.0 mm 0.00 in0.0 mm
11:26 AM 50.2°F10.1°C 45.8°F7.7°C 85% 8.3 mph SE13.4 kmh SE 10.7 mph17.2 kmh 29.83 in1010.2 mb 0.00 in0.0 mm 0.00 in0.0 mm 0.00 in0.0 mm
11:27 AM 50.2°F10.1°C 45.8°F7.7°C 85% 7.6 mph SE12.2 kmh SE 10.7 mph17.2 kmh 29.83 in1010.2 mb 0.00 in0.0 mm 0.00 in0.0 mm 0.00 in0.0 mm
11:28 AM 50.2°F10.1°C 45.8°F7.7°C 85% 5.4 mph SE8.7 kmh SE 9.8 mph15.8 kmh 29.83 in1010.2 mb 0.00 in0.0 mm 0.00 in0.0 mm 0.00 in0.0 mm
11:29 AM 50.2°F10.1°C 45.8°F7.7°C 85% 7.6 mph SE12.2 kmh SE 9.8 mph15.8 kmh 29.83 in1010.2 mb 0.00 in0.0 mm 0.00 in0.0 mm 0.00 in0.0 mm
11:30 AM 50.2°F10.1°C 45.8°F7.7°C 85% 8.3 mph SE13.4 kmh SE 9.8 mph15.8 kmh 29.83 in1010.2 mb 0.00 in0.0 mm 0.00 in0.0 mm 0.00 in0.0 mm
11:31 AM 50.2°F10.1°C 45.8°F7.7°C 85% 6.9 mph SE11.1 kmh SE 9.8 mph15.8 kmh 29.84 in1010.5 mb 0.00 in0.0 mm 0.00 in0.0 mm 0.00 in0.0 mm
11:32 AM 50.2°F10.1°C 45.8°F7.7°C 85% 6.9 mph SE11.1 kmh SE 9.8 mph15.8 kmh 29.84 in1010.5 mb 0.00 in0.0 mm 0.00 in0.0 mm 0.00 in0.0 mm
11:33 AM 50.2°F10.1°C 45.8°F7.7°C 85% 3.8 mph SE6.1 kmh SE 9.8 mph15.8 kmh 29.83 in1010.2 mb 0.00 in0.0 mm 0.00 in0.0 mm 0.00 in0.0 mm
11:34 AM 50.2°F10.1°C 45.8°F7.7°C 85% 4.5 mph SE7.2 kmh SE 9.8 mph15.8 kmh 29.83 in1010.2 mb 0.00 in0.0 mm 0.00 in0.0 mm 0.00 in0.0 mm
11:35 AM 50.2°F10.1°C 45.8°F7.7°C 85% 6.0 mph SE9.7 kmh SE 9.8 mph15.8 kmh 29.84 in1010.5 mb 0.00 in0.0 mm 0.00 in0.0 mm 0.00 in0.0 mm
11:36 AM 50.2°F10.1°C 45.8°F7.7°C 85% 7.6 mph SE12.2 kmh SE 10.7 mph17.2 kmh 29.83 in1010.2 mb 0.00 in0.0 mm 0.00 in0.0 mm 0.00 in0.0 mm
11:37 AM 50.4°F10.2°C 46.0°F7.8°C 85% 8.3 mph SE13.4 kmh SE 10.7 mph17.2 kmh 29.83 in1010.2 mb 0.00 in0.0 mm 0.00 in0.0 mm 0.00 in0.0 mm
11:38 AM 50.4°F10.2°C 46.0°F7.8°C 85% 6.9 mph SE11.1 kmh SE 10.7 mph17.2 kmh 29.83 in1010.2 mb 0.00 in0.0 mm 0.00 in0.0 mm 0.00 in0.0 mm
11:39 AM 50.2°F10.1°C 45.8°F7.7°C 85% 6.0 mph SE9.7 kmh SE 10.7 mph17.2 kmh 29.83 in1010.2 mb 0.00 in0.0 mm 0.00 in0.0 mm 0.00 in0.0 mm
11:40 AM 50.4°F10.2°C 46.0°F7.8°C 85% 6.9 mph SSE11.1 kmh SSE 10.7 mph17.2 kmh 29.84 in1010.5 mb 0.00 in0.0 mm 0.00 in0.0 mm 0.00 in0.0 mm
11:41 AM 50.4°F10.2°C 46.0°F7.8°C 85% 8.3 mph SE13.4 kmh SE 11.4 mph18.3 kmh 29.84 in1010.5 mb 0.00 in0.0 mm 0.00 in0.0 mm 0.00 in0.0 mm
11:42 AM 50.2°F10.1°C 45.8°F7.7°C 85% 8.3 mph SE13.4 kmh SE 11.4 mph18.3 kmh 29.84 in1010.5 mb 0.00 in0.0 mm 0.00 in0.0 mm 0.00 in0.0 mm
11:43 AM 50.2°F10.1°C 45.8°F7.7°C 85% 7.6 mph SE12.2 kmh SE 11.4 mph18.3 kmh 29.83 in1010.2 mb 0.00 in0.0 mm 0.00 in0.0 mm 0.00 in0.0 mm
11:44 AM 50.4°F10.2°C 46.0°F7.8°C 85% 8.3 mph SE13.4 kmh SE 11.4 mph18.3 kmh 29.83 in1010.2 mb 0.00 in0.0 mm 0.00 in0.0 mm 0.00 in0.0 mm
11:45 AM 50.4°F10.2°C 46.0°F7.8°C 85% 9.2 mph SE14.8 kmh SE 11.4 mph18.3 kmh 29.83 in1010.2 mb 0.00 in0.0 mm 0.00 in0.0 mm 0.00 in0.0 mm
11:46 AM 50.4°F10.2°C 46.0°F7.8°C 85% 9.2 mph SE14.8 kmh SE 11.4 mph18.3 kmh 29.83 in1010.2 mb 0.00 in0.0 mm 0.00 in0.0 mm 0.00 in0.0 mm
11:47 AM 50.4°F10.2°C 46.0°F7.8°C 85% 5.4 mph SE8.7 kmh SE 11.4 mph18.3 kmh 29.83 in1010.2 mb 0.00 in0.0 mm 0.00 in0.0 mm 0.00 in0.0 mm
11:48 AM 50.4°F10.2°C 46.0°F7.8°C 85% 8.3 mph SE13.4 kmh SE 11.4 mph18.3 kmh 29.83 in1010.2 mb 0.00 in0.0 mm 0.00 in0.0 mm 0.00 in0.0 mm
11:49 AM 50.5°F10.3°C 46.2°F7.9°C 85% 6.9 mph SE11.1 kmh SE 11.4 mph18.3 kmh 29.83 in1010.2 mb 0.00 in0.0 mm 0.00 in0.0 mm 0.00 in0.0 mm
11:50 AM 50.5°F10.3°C 46.2°F7.9°C 85% 6.9 mph SE11.1 kmh SE 11.4 mph18.3 kmh 29.83 in1010.2 mb 0.00 in0.0 mm 0.00 in0.0 mm 0.00 in0.0 mm
11:51 AM 50.5°F10.3°C 46.2°F7.9°C 85% 10.7 mph SE17.2 kmh SE 13.6 mph21.9 kmh 29.83 in1010.2 mb 0.00 in0.0 mm 0.00 in0.0 mm 0.00 in0.0 mm
11:52 AM 50.5°F10.3°C 45.9°F7.7°C 84% 9.2 mph SE14.8 kmh SE 13.6 mph21.9 kmh 29.83 in1010.2 mb 0.00 in0.0 mm 0.00 in0.0 mm 0.00 in0.0 mm
11:53 AM 50.5°F10.3°C 45.9°F7.7°C 84% 6.9 mph SE11.1 kmh SE 13.6 mph21.9 kmh 29.82 in1009.8 mb 0.00 in0.0 mm 0.00 in0.0 mm 0.00 in0.0 mm
11:54 AM 50.5°F10.3°C 45.9°F7.7°C 84% 6.9 mph SE11.1 kmh SE 13.6 mph21.9 kmh 29.82 in1009.8 mb 0.00 in0.0 mm 0.00 in0.0 mm 0.00 in0.0 mm
11:55 AM 50.5°F10.3°C 45.9°F7.7°C 84% 8.3 mph SE13.4 kmh SE 13.6 mph21.9 kmh 29.82 in1009.8 mb 0.00 in0.0 mm 0.00 in0.0 mm 0.00 in0.0 mm
11:56 AM 50.5°F10.3°C 45.9°F7.7°C 84% 9.2 mph SE14.8 kmh SE 13.6 mph21.9 kmh 29.82 in1009.8 mb 0.00 in0.0 mm 0.00 in0.0 mm 0.00 in0.0 mm
11:57 AM 50.7°F10.4°C 46.1°F7.8°C 84% 7.6 mph SE12.2 kmh SE 13.6 mph21.9 kmh 29.82 in1009.8 mb 0.00 in0.0 mm 0.00 in0.0 mm 0.00 in0.0 mm
11:58 AM 50.7°F10.4°C 46.1°F7.8°C 84% 6.0 mph SE9.7 kmh SE 13.6 mph21.9 kmh 29.82 in1009.8 mb 0.00 in0.0 mm 0.00 in0.0 mm 0.00 in0.0 mm
11:59 AM 50.7°F10.4°C 46.1°F7.8°C 84% 5.4 mph SE8.7 kmh SE 13.6 mph21.9 kmh 29.82 in1009.8 mb 0.00 in0.0 mm 0.00 in0.0 mm 0.00 in0.0 mm
12:00 PM 50.7°F10.4°C 46.1°F7.8°C 84% 7.6 mph SE12.2 kmh SE 13.6 mph21.9 kmh 29.82 in1009.8 mb 0.00 in0.0 mm 0.00 in0.0 mm 0.00 in0.0 mm
12:01 PM 50.7°F10.4°C 46.1°F7.8°C 84% 8.3 mph SE13.4 kmh SE 12.1 mph19.5 kmh 29.82 in1009.8 mb 0.00 in0.0 mm 0.00 in0.0 mm 0.00 in0.0 mm
12:02 PM 50.7°F10.4°C 46.1°F7.8°C 84% 8.3 mph SE13.4 kmh SE 12.1 mph19.5 kmh 29.82 in1009.8 mb 0.00 in0.0 mm 0.00 in0.0 mm 0.00 in0.0 mm
12:03 PM 50.7°F10.4°C 46.1°F7.8°C 84% 8.3 mph SE13.4 kmh SE 12.1 mph19.5 kmh 29.82 in1009.8 mb 0.00 in0.0 mm 0.00 in0.0 mm 0.00 in0.0 mm
12:04 PM 50.7°F10.4°C 46.1°F7.8°C 84% 8.3 mph SE13.4 kmh SE 12.1 mph19.5 kmh 29.82 in1009.8 mb 0.00 in0.0 mm 0.00 in0.0 mm 0.00 in0.0 mm
12:05 PM 50.7°F10.4°C 46.1°F7.8°C 84% 8.3 mph SE13.4 kmh SE 12.1 mph19.5 kmh 29.81 in1009.5 mb 0.00 in0.0 mm 0.00 in0.0 mm 0.00 in0.0 mm
12:06 PM 50.7°F10.4°C 46.1°F7.8°C 84% 8.3 mph SE13.4 kmh SE 12.1 mph19.5 kmh 29.81 in1009.5 mb 0.00 in0.0 mm 0.00 in0.0 mm 0.00 in0.0 mm
12:07 PM 51.1°F10.6°C 46.4°F8.0°C 84% 8.3 mph SE13.4 kmh SE 12.1 mph19.5 kmh 29.81 in1009.5 mb 0.00 in0.0 mm 0.00 in0.0 mm 0.00 in0.0 mm
12:08 PM 51.1°F10.6°C 46.1°F7.8°C 83% 5.4 mph SE8.7 kmh SE 12.1 mph19.5 kmh 29.80 in1009.1 mb 0.00 in0.0 mm 0.00 in0.0 mm 0.00 in0.0 mm
12:09 PM 51.1°F10.6°C 46.1°F7.8°C 83% 7.6 mph SE12.2 kmh SE 12.1 mph19.5 kmh 29.80 in1009.1 mb 0.00 in0.0 mm 0.00 in0.0 mm 0.00 in0.0 mm
12:10 PM 51.1°F10.6°C 46.1°F7.8°C 83% 6.0 mph SE9.7 kmh SE 12.1 mph19.5 kmh 29.80 in1009.1 mb 0.00 in0.0 mm 0.00 in0.0 mm 0.00 in0.0 mm
12:11 PM 51.3°F10.7°C 46.3°F7.9°C 83% 6.0 mph SE9.7 kmh SE 12.1 mph19.5 kmh 29.81 in1009.5 mb 0.00 in0.0 mm 0.00 in0.0 mm 0.00 in0.0 mm
12:12 PM 51.3°F10.7°C 46.3°F7.9°C 83% 5.4 mph SE8.7 kmh SE 12.1 mph19.5 kmh 29.81 in1009.5 mb 0.00 in0.0 mm 0.00 in0.0 mm 0.00 in0.0 mm
12:13 PM 51.3°F10.7°C 46.3°F7.9°C 83% 6.9 mph SE11.1 kmh SE 12.1 mph19.5 kmh 29.80 in1009.1 mb 0.00 in0.0 mm 0.00 in0.0 mm 0.00 in0.0 mm
12:14 PM 51.3°F10.7°C 46.3°F7.9°C 83% 6.9 mph SE11.1 kmh SE 12.1 mph19.5 kmh 29.80 in1009.1 mb 0.00 in0.0 mm 0.00 in0.0 mm 0.00 in0.0 mm
12:15 PM 51.3°F10.7°C 46.3°F7.9°C 83% 6.0 mph SE9.7 kmh SE 12.1 mph19.5 kmh 29.80 in1009.1 mb 0.00 in0.0 mm 0.00 in0.0 mm 0.00 in0.0 mm
12:16 PM 51.3°F10.7°C 46.3°F7.9°C 83% 6.0 mph SE9.7 kmh SE 12.1 mph19.5 kmh 29.80 in1009.1 mb 0.00 in0.0 mm 0.00 in0.0 mm 0.00 in0.0 mm
12:17 PM 51.1°F10.6°C 45.8°F7.7°C 82% 9.8 mph SE15.8 kmh SE 11.4 mph18.3 kmh 29.80 in1009.1 mb 0.00 in0.0 mm 0.00 in0.0 mm 0.00 in0.0 mm
12:18 PM 51.1°F10.6°C 45.8°F7.7°C 82% 6.9 mph SE11.1 kmh SE 11.4 mph18.3 kmh 29.80 in1009.1 mb 0.00 in0.0 mm 0.00 in0.0 mm 0.00 in0.0 mm
12:19 PM 51.3°F10.7°C 46.0°F7.8°C 82% 6.9 mph SE11.1 kmh SE 11.4 mph18.3 kmh 29.80 in1009.1 mb 0.00 in0.0 mm 0.00 in0.0 mm 0.00 in0.0 mm
12:20 PM 51.1°F10.6°C 45.8°F7.7°C 82% 8.3 mph SE13.4 kmh SE 11.4 mph18.3 kmh 29.80 in1009.1 mb 0.00 in0.0 mm 0.00 in0.0 mm 0.00 in0.0 mm
12:21 PM 51.3°F10.7°C 46.0°F7.8°C 82% 4.5 mph SE7.2 kmh SE 11.4 mph18.3 kmh 29.80 in1009.1 mb 0.00 in0.0 mm 0.00 in0.0 mm 0.00 in0.0 mm
12:22 PM 51.3°F10.7°C 46.0°F7.8°C 82% 6.0 mph SE9.7 kmh SE 11.4 mph18.3 kmh 29.81 in1009.5 mb 0.00 in0.0 mm 0.00 in0.0 mm 0.00 in0.0 mm
12:23 PM 51.3°F10.7°C 46.0°F7.8°C 82% 5.4 mph SE8.7 kmh SE 11.4 mph18.3 kmh 29.81 in1009.5 mb 0.00 in0.0 mm 0.00 in0.0 mm 0.00 in0.0 mm
12:24 PM 51.3°F10.7°C 46.0°F7.8°C 82% 5.4 mph SE8.7 kmh SE 11.4 mph18.3 kmh 29.81 in1009.5 mb 0.00 in0.0 mm 0.00 in0.0 mm 0.00 in0.0 mm
12:25 PM 51.3°F10.7°C 46.0°F7.8°C 82% 4.5 mph SE7.2 kmh SE 11.4 mph18.3 kmh 29.81 in1009.5 mb 0.00 in0.0 mm 0.00 in0.0 mm 0.00 in0.0 mm
12:26 PM 51.3°F10.7°C 46.0°F7.8°C 82% 8.3 mph SE13.4 kmh SE 11.4 mph18.3 kmh 29.81 in1009.5 mb 0.00 in0.0 mm 0.00 in0.0 mm 0.00 in0.0 mm
12:27 PM 51.3°F10.7°C 46.0°F7.8°C 82% 7.6 mph SE12.2 kmh SE 11.4 mph18.3 kmh 29.81 in1009.5 mb 0.00 in0.0 mm 0.00 in0.0 mm 0.00 in0.0 mm
12:28 PM 51.3°F10.7°C 46.0°F7.8°C 82% 6.9 mph SE11.1 kmh SE 9.8 mph15.8 kmh 29.80 in1009.1 mb 0.00 in0.0 mm 0.00 in0.0 mm 0.00 in0.0 mm
12:29 PM 51.1°F10.6°C 45.8°F7.7°C 82% 4.5 mph SE7.2 kmh SE 9.8 mph15.8 kmh 29.81 in1009.5 mb 0.00 in0.0 mm 0.00 in0.0 mm 0.00 in0.0 mm
12:30 PM 51.3°F10.7°C 46.0°F7.8°C 82% 2.2 mph SE3.5 kmh SE 9.8 mph15.8 kmh 29.80 in1009.1 mb 0.00 in0.0 mm 0.00 in0.0 mm 0.00 in0.0 mm
12:31 PM 51.3°F10.7°C 46.0°F7.8°C 82% 6.0 mph SE9.7 kmh SE 9.8 mph15.8 kmh 29.80 in1009.1 mb 0.00 in0.0 mm 0.00 in0.0 mm 0.00 in0.0 mm
12:32 PM 51.3°F10.7°C 46.0°F7.8°C 82% 4.5 mph SE7.2 kmh SE 9.8 mph15.8 kmh 29.80 in1009.1 mb 0.00 in0.0 mm 0.00 in0.0 mm 0.00 in0.0 mm
12:33 PM 51.4°F10.8°C 46.1°F7.8°C 82% 3.8 mph SE6.1 kmh SE 9.8 mph15.8 kmh 29.80 in1009.1 mb 0.00 in0.0 mm 0.00 in0.0 mm 0.00 in0.0 mm
12:34 PM 51.4°F10.8°C 46.1°F7.8°C 82% 5.4 mph SE8.7 kmh SE 9.8 mph15.8 kmh 29.80 in1009.1 mb 0.00 in0.0 mm 0.00 in0.0 mm 0.00 in0.0 mm
12:35 PM 51.4°F10.8°C 46.4°F8.0°C 83% 5.4 mph SE8.7 kmh SE 9.8 mph15.8 kmh 29.80 in1009.1 mb 0.00 in0.0 mm 0.00 in0.0 mm 0.00 in0.0 mm
12:36 PM 51.4°F10.8°C 46.1°F7.8°C 82% 8.3 mph SE13.4 kmh SE 14.5 mph23.3 kmh 29.80 in1009.1 mb 0.00 in0.0 mm 0.00 in0.0 mm 0.00 in0.0 mm
12:37 PM 51.4°F10.8°C 46.1°F7.8°C 82% 6.9 mph SE11.1 kmh SE 14.5 mph23.3 kmh 29.80 in1009.1 mb 0.00 in0.0 mm 0.00 in0.0 mm 0.00 in0.0 mm
12:38 PM 51.4°F10.8°C 46.1°F7.8°C 82% 6.0 mph SE9.7 kmh SE 14.5 mph23.3 kmh 29.79 in1008.8 mb 0.00 in0.0 mm 0.00 in0.0 mm 0.00 in0.0 mm
12:39 PM 51.4°F10.8°C 46.1°F7.8°C 82% 7.6 mph SE12.2 kmh SE 14.5 mph23.3 kmh 29.80 in1009.1 mb 0.00 in0.0 mm 0.00 in0.0 mm 0.00 in0.0 mm
12:40 PM 51.4°F10.8°C 46.1°F7.8°C 82% 7.6 mph SE12.2 kmh SE 14.5 mph23.3 kmh 29.79 in1008.8 mb 0.00 in0.0 mm 0.00 in0.0 mm 0.00 in0.0 mm
12:41 PM 51.4°F10.8°C 46.1°F7.8°C 82% 5.4 mph SE8.7 kmh SE 14.5 mph23.3 kmh 29.80 in1009.1 mb 0.00 in0.0 mm 0.00 in0.0 mm 0.00 in0.0 mm
12:42 PM 51.6°F10.9°C 46.3°F7.9°C 82% 5.4 mph SE8.7 kmh SE 14.5 mph23.3 kmh 29.80 in1009.1 mb 0.00 in0.0 mm 0.00 in0.0 mm 0.00 in0.0 mm
12:43 PM 51.6°F10.9°C 46.3°F7.9°C 82% 6.0 mph SE9.7 kmh SE 14.5 mph23.3 kmh 29.79 in1008.8 mb 0.00 in0.0 mm 0.00 in0.0 mm 0.00 in0.0 mm
12:44 PM 51.6°F10.9°C 46.3°F7.9°C 82% 4.5 mph SE7.2 kmh SE 14.5 mph23.3 kmh 29.79 in1008.8 mb 0.00 in0.0 mm 0.00 in0.0 mm 0.00 in0.0 mm
12:45 PM 51.6°F10.9°C 46.3°F7.9°C 82% 3.8 mph SE6.1 kmh SE 14.5 mph23.3 kmh 29.79 in1008.8 mb 0.00 in0.0 mm 0.00 in0.0 mm 0.00 in0.0 mm
12:46 PM 51.6°F10.9°C 46.6°F8.1°C 83% 3.8 mph SE6.1 kmh SE 10.7 mph17.2 kmh 29.79 in1008.8 mb 0.00 in0.0 mm 0.00 in0.0 mm 0.00 in0.0 mm
12:47 PM 51.8°F11.0°C 46.8°F8.2°C 83% 6.9 mph SE11.1 kmh SE 9.8 mph15.8 kmh 29.79 in1008.8 mb 0.00 in0.0 mm 0.00 in0.0 mm 0.00 in0.0 mm
12:48 PM 51.8°F11.0°C 46.5°F8.1°C 82% 7.6 mph SE12.2 kmh SE 9.8 mph15.8 kmh 29.79 in1008.8 mb 0.00 in0.0 mm 0.00 in0.0 mm 0.00 in0.0 mm
12:49 PM 51.8°F11.0°C 46.5°F8.1°C 82% 6.9 mph SE11.1 kmh SE 9.8 mph15.8 kmh 29.79 in1008.8 mb 0.00 in0.0 mm 0.00 in0.0 mm 0.00 in0.0 mm
12:50 PM 51.8°F11.0°C 46.5°F8.1°C 82% 6.9 mph SE11.1 kmh SE 9.8 mph15.8 kmh 29.79 in1008.8 mb 0.00 in0.0 mm 0.00 in0.0 mm 0.00 in0.0 mm
12:51 PM 51.8°F11.0°C 46.5°F8.1°C 82% 8.3 mph SE13.4 kmh SE 11.4 mph18.3 kmh 29.79 in1008.8 mb 0.00 in0.0 mm 0.00 in0.0 mm 0.00 in0.0 mm
12:52 PM 51.8°F11.0°C 46.5°F8.1°C 82% 6.0 mph SE9.7 kmh SE 11.4 mph18.3 kmh 29.79 in1008.8 mb 0.00 in0.0 mm 0.00 in0.0 mm 0.00 in0.0 mm
12:53 PM 51.8°F11.0°C 46.5°F8.1°C 82% 7.6 mph SE12.2 kmh SE 11.4 mph18.3 kmh 29.79 in1008.8 mb 0.00 in0.0 mm 0.00 in0.0 mm 0.00 in0.0 mm
12:54 PM 51.8°F11.0°C 46.5°F8.1°C 82% 6.0 mph SE9.7 kmh SE 11.4 mph18.3 kmh 29.79 in1008.8 mb 0.00 in0.0 mm 0.00 in0.0 mm 0.00 in0.0 mm
12:55 PM 52.0°F11.1°C 46.7°F8.2°C 82% 6.9 mph SE11.1 kmh SE 11.4 mph18.3 kmh 29.79 in1008.8 mb 0.00 in0.0 mm 0.00 in0.0 mm 0.00 in0.0 mm
12:56 PM 52.0°F11.1°C 46.7°F8.2°C 82% 2.2 mph SE3.5 kmh SE 11.4 mph18.3 kmh 29.78 in1008.5 mb 0.00 in0.0 mm 0.00 in0.0 mm 0.00 in0.0 mm
12:57 PM 52.2°F11.2°C 46.8°F8.2°C 82% 5.4 mph SE8.7 kmh SE 11.4 mph18.3 kmh 29.78 in1008.5 mb 0.00 in0.0 mm 0.00 in0.0 mm 0.00 in0.0 mm
12:58 PM 52.2°F11.2°C 46.8°F8.2°C 82% 3.8 mph SE6.1 kmh SE 11.4 mph18.3 kmh 29.78 in1008.5 mb 0.00 in0.0 mm 0.00 in0.0 mm 0.00 in0.0 mm
12:59 PM 52.2°F11.2°C 46.8°F8.2°C 82% 5.4 mph SE8.7 kmh SE 11.4 mph18.3 kmh 29.78 in1008.5 mb 0.00 in0.0 mm 0.00 in0.0 mm 0.00 in0.0 mm
01:00 PM 52.2°F11.2°C 46.5°F8.1°C 81% 9.2 mph SE14.8 kmh SE 12.1 mph19.5 kmh 29.78 in1008.5 mb 0.00 in0.0 mm 0.00 in0.0 mm 0.00 in0.0 mm
01:01 PM 52.3°F11.3°C 46.7°F8.2°C 81% 4.5 mph SE7.2 kmh SE 12.1 mph19.5 kmh 29.78 in1008.5 mb 0.00 in0.0 mm 0.00 in0.0 mm 0.00 in0.0 mm
01:02 PM 52.3°F11.3°C 46.7°F8.2°C 81% 7.6 mph SE12.2 kmh SE 12.1 mph19.5 kmh 29.78 in1008.5 mb 0.00 in0.0 mm 0.00 in0.0 mm 0.00 in0.0 mm
01:03 PM 52.3°F11.3°C 46.7°F8.2°C 81% 6.9 mph SE11.1 kmh SE 12.1 mph19.5 kmh 29.78 in1008.5 mb 0.00 in0.0 mm 0.00 in0.0 mm 0.00 in0.0 mm
01:04 PM 52.3°F11.3°C 46.7°F8.2°C 81% 7.6 mph SE12.2 kmh SE 12.1 mph19.5 kmh 29.78 in1008.5 mb 0.00 in0.0 mm 0.00 in0.0 mm 0.00 in0.0 mm
01:05 PM 52.5°F11.4°C 46.9°F8.3°C 81% 6.9 mph SE11.1 kmh SE 12.1 mph19.5 kmh 29.78 in1008.5 mb 0.00 in0.0 mm 0.00 in0.0 mm 0.00 in0.0 mm
01:06 PM 52.5°F11.4°C 46.9°F8.3°C 81% 8.3 mph SE13.4 kmh SE 12.1 mph19.5 kmh 29.78 in1008.5 mb 0.00 in0.0 mm 0.00 in0.0 mm 0.00 in0.0 mm
01:07 PM 52.5°F11.4°C 46.9°F8.3°C 81% 9.8 mph SE15.8 kmh SE 13.0 mph20.9 kmh 29.78 in1008.5 mb 0.00 in0.0 mm 0.00 in0.0 mm 0.00 in0.0 mm
01:08 PM 52.5°F11.4°C 46.9°F8.3°C 81% 8.3 mph SE13.4 kmh SE 13.0 mph20.9 kmh 29.78 in1008.5 mb 0.00 in0.0 mm 0.00 in0.0 mm 0.00 in0.0 mm
01:09 PM 52.5°F11.4°C 46.5°F8.1°C 80% 6.0 mph SE9.7 kmh SE 13.0 mph20.9 kmh 29.78 in1008.5 mb 0.00 in0.0 mm 0.00 in0.0 mm 0.00 in0.0 mm
01:10 PM 52.5°F11.4°C 46.5°F8.1°C 80% 6.9 mph SE11.1 kmh SE 13.0 mph20.9 kmh 29.77 in1008.1 mb 0.00 in0.0 mm 0.00 in0.0 mm 0.00 in0.0 mm
01:11 PM 52.7°F11.5°C 46.7°F8.2°C 80% 6.9 mph SE11.1 kmh SE 13.0 mph20.9 kmh 29.77 in1008.1 mb 0.00 in0.0 mm 0.00 in0.0 mm 0.00 in0.0 mm
01:12 PM 52.7°F11.5°C 46.7°F8.2°C 80% 6.0 mph SE9.7 kmh SE 13.0 mph20.9 kmh 29.77 in1008.1 mb 0.00 in0.0 mm 0.00 in0.0 mm 0.00 in0.0 mm
01:13 PM 52.7°F11.5°C 46.7°F8.2°C 80% 8.3 mph SE13.4 kmh SE 14.5 mph23.3 kmh 29.77 in1008.1 mb 0.00 in0.0 mm 0.00 in0.0 mm 0.00 in0.0 mm
01:14 PM 52.9°F11.6°C 46.9°F8.3°C 80% 9.2 mph SE14.8 kmh SE 14.5 mph23.3 kmh 29.77 in1008.1 mb 0.00 in0.0 mm 0.00 in0.0 mm 0.00 in0.0 mm
01:15 PM 52.9°F11.6°C 46.9°F8.3°C 80% 8.3 mph SE13.4 kmh SE 14.5 mph23.3 kmh 29.77 in1008.1 mb 0.00 in0.0 mm 0.00 in0.0 mm 0.00 in0.0 mm
01:16 PM 52.9°F11.6°C 46.9°F8.3°C 80% 8.3 mph SE13.4 kmh SE 14.5 mph23.3 kmh 29.77 in1008.1 mb 0.00 in0.0 mm 0.00 in0.0 mm 0.00 in0.0 mm
01:17 PM 53.1°F11.7°C 47.1°F8.4°C 80% 6.0 mph SE9.7 kmh SE 14.5 mph23.3 kmh 29.77 in1008.1 mb 0.00 in0.0 mm 0.00 in0.0 mm 0.00 in0.0 mm
01:18 PM 53.1°F11.7°C 47.1°F8.4°C 80% 4.5 mph SE7.2 kmh SE 14.5 mph23.3 kmh 29.77 in1008.1 mb 0.00 in0.0 mm 0.00 in0.0 mm 0.00 in0.0 mm
01:19 PM 53.2°F11.8°C 47.2°F8.4°C 80% 6.0 mph SE9.7 kmh SE 14.5 mph23.3 kmh 29.77 in1008.1 mb 0.00 in0.0 mm 0.00 in0.0 mm 0.00 in0.0 mm
01:20 PM 53.2°F11.8°C 47.2°F8.4°C 80% 6.0 mph SE9.7 kmh SE 14.5 mph23.3 kmh 29.76 in1007.8 mb 0.00 in0.0 mm 0.00 in0.0 mm 0.00 in0.0 mm
01:21 PM 53.6°F12.0°C 47.6°F8.7°C 80% 3.8 mph SE6.1 kmh SE 14.5 mph23.3 kmh 29.76 in1007.8 mb 0.00 in0.0 mm 0.00 in0.0 mm 0.00 in0.0 mm
01:22 PM 53.6°F12.0°C 47.6°F8.7°C 80% 6.9 mph ESE11.1 kmh ESE 14.5 mph23.3 kmh 29.76 in1007.8 mb 0.00 in0.0 mm 0.00 in0.0 mm 0.00 in0.0 mm
01:23 PM 53.6°F12.0°C 47.6°F8.7°C 80% 5.4 mph SE8.7 kmh SE 12.1 mph19.5 kmh 29.76 in1007.8 mb 0.00 in0.0 mm 0.00 in0.0 mm 0.00 in0.0 mm
01:24 PM 53.6°F12.0°C 47.6°F8.7°C 80% 6.9 mph ESE11.1 kmh ESE 11.4 mph18.3 kmh 29.76 in1007.8 mb 0.00 in0.0 mm 0.00 in0.0 mm 0.00 in0.0 mm
01:25 PM 53.6°F12.0°C 47.2°F8.4°C 79% 7.6 mph ESE12.2 kmh ESE 11.4 mph18.3 kmh 29.76 in1007.8 mb 0.00 in0.0 mm 0.00 in0.0 mm 0.00 in0.0 mm
01:26 PM 53.6°F12.0°C 47.2°F8.4°C 79% 9.8 mph ESE15.8 kmh ESE 12.1 mph19.5 kmh 29.76 in1007.8 mb 0.00 in0.0 mm 0.00 in0.0 mm 0.00 in0.0 mm
01:27 PM 53.4°F11.9°C 47.1°F8.4°C 79% 6.0 mph SE9.7 kmh SE 12.1 mph19.5 kmh 29.76 in1007.8 mb 0.00 in0.0 mm 0.00 in0.0 mm 0.00 in0.0 mm
01:28 PM 53.4°F11.9°C 47.1°F8.4°C 79% 6.0 mph SE9.7 kmh SE 12.1 mph19.5 kmh 29.76 in1007.8 mb 0.00 in0.0 mm 0.00 in0.0 mm 0.00 in0.0 mm
01:29 PM 53.6°F12.0°C 46.9°F8.3°C 78% 3.8 mph SE6.1 kmh SE 12.1 mph19.5 kmh 29.76 in1007.8 mb 0.00 in0.0 mm 0.00 in0.0 mm 0.00 in0.0 mm
01:30 PM 53.6°F12.0°C 47.2°F8.4°C 79% 2.2 mph ESE3.5 kmh ESE 12.1 mph19.5 kmh 29.76 in1007.8 mb 0.00 in0.0 mm 0.00 in0.0 mm 0.00 in0.0 mm
01:31 PM 53.8°F12.1°C 47.4°F8.6°C 79% 3.8 mph ESE6.1 kmh ESE 12.1 mph19.5 kmh 29.76 in1007.8 mb 0.00 in0.0 mm 0.00 in0.0 mm 0.00 in0.0 mm
01:32 PM 53.8°F12.1°C 47.4°F8.6°C 79% 3.8 mph ESE6.1 kmh ESE 12.1 mph19.5 kmh 29.76 in1007.8 mb 0.00 in0.0 mm 0.00 in0.0 mm 0.00 in0.0 mm
01:33 PM 54.0°F12.2°C 47.3°F8.5°C 78% 4.5 mph SE7.2 kmh SE 12.1 mph19.5 kmh 29.76 in1007.8 mb 0.00 in0.0 mm 0.00 in0.0 mm 0.00 in0.0 mm
01:34 PM 54.1°F12.3°C 47.4°F8.6°C 78% 1.6 mph SE2.6 kmh SE 12.1 mph19.5 kmh 29.76 in1007.8 mb 0.00 in0.0 mm 0.00 in0.0 mm 0.00 in0.0 mm
01:35 PM 54.1°F12.3°C 47.4°F8.6°C 78% 7.6 mph SE12.2 kmh SE 12.1 mph19.5 kmh 29.76 in1007.8 mb 0.00 in0.0 mm 0.00 in0.0 mm 0.00 in0.0 mm
01:36 PM 54.1°F12.3°C 47.4°F8.6°C 78% 5.4 mph SE8.7 kmh SE 12.1 mph19.5 kmh 29.76 in1007.8 mb 0.00 in0.0 mm 0.00 in0.0 mm 0.00 in0.0 mm
01:37 PM 54.1°F12.3°C 47.1°F8.4°C 77% 6.9 mph ESE11.1 kmh ESE 10.7 mph17.2 kmh 29.77 in1008.1 mb 0.00 in0.0 mm 0.00 in0.0 mm 0.00 in0.0 mm
01:38 PM 54.0°F12.2°C 46.9°F8.3°C 77% 9.2 mph ESE14.8 kmh ESE 11.4 mph18.3 kmh 29.76 in1007.8 mb 0.00 in0.0 mm 0.00 in0.0 mm 0.00 in0.0 mm
01:39 PM 54.0°F12.2°C 46.9°F8.3°C 77% 8.3 mph ESE13.4 kmh ESE 11.4 mph18.3 kmh 29.76 in1007.8 mb 0.00 in0.0 mm 0.00 in0.0 mm 0.00 in0.0 mm
01:40 PM 54.0°F12.2°C 46.6°F8.1°C 76% 6.0 mph SE9.7 kmh SE 11.4 mph18.3 kmh 29.76 in1007.8 mb 0.00 in0.0 mm 0.00 in0.0 mm 0.00 in0.0 mm
01:41 PM 54.0°F12.2°C 46.6°F8.1°C 76% 6.9 mph SE11.1 kmh SE 11.4 mph18.3 kmh 29.76 in1007.8 mb 0.00 in0.0 mm 0.00 in0.0 mm 0.00 in0.0 mm
01:42 PM 53.8°F12.1°C 46.4°F8.0°C 76% 8.3 mph SE13.4 kmh SE 11.4 mph18.3 kmh 29.76 in1007.8 mb 0.00 in0.0 mm 0.00 in0.0 mm 0.00 in0.0 mm
01:43 PM 53.8°F12.1°C 46.4°F8.0°C 76% 9.2 mph SE14.8 kmh SE 11.4 mph18.3 kmh 29.76 in1007.8 mb 0.00 in0.0 mm 0.00 in0.0 mm 0.00 in0.0 mm
01:44 PM 53.6°F12.0°C 46.2°F7.9°C 76% 8.3 mph SE13.4 kmh SE 11.4 mph18.3 kmh 29.77 in1008.1 mb 0.00 in0.0 mm 0.00 in0.0 mm 0.00 in0.0 mm
01:45 PM 53.6°F12.0°C 46.2°F7.9°C 76% 7.6 mph SE12.2 kmh SE 11.4 mph18.3 kmh 29.76 in1007.8 mb 0.00 in0.0 mm 0.00 in0.0 mm 0.00 in0.0 mm
01:46 PM 53.4°F11.9°C 46.0°F7.8°C 76% 7.6 mph SE12.2 kmh SE 11.4 mph18.3 kmh 29.76 in1007.8 mb 0.00 in0.0 mm 0.00 in0.0 mm 0.00 in0.0 mm
01:47 PM 53.4°F11.9°C 46.4°F8.0°C 77% 7.6 mph SE12.2 kmh SE 11.4 mph18.3 kmh 29.76 in1007.8 mb 0.00 in0.0 mm 0.00 in0.0 mm 0.00 in0.0 mm
01:48 PM 53.4°F11.9°C 46.4°F8.0°C 77% 7.6 mph SE12.2 kmh SE 11.4 mph18.3 kmh 29.76 in1007.8 mb 0.00 in0.0 mm 0.00 in0.0 mm 0.00 in0.0 mm
01:49 PM 53.4°F11.9°C 46.4°F8.0°C 77% 5.4 mph SE8.7 kmh SE 11.4 mph18.3 kmh 29.77 in1008.1 mb 0.00 in0.0 mm 0.00 in0.0 mm 0.00 in0.0 mm
01:50 PM 53.4°F11.9°C 46.4°F8.0°C 77% 5.4 mph SE8.7 kmh SE 11.4 mph18.3 kmh 29.77 in1008.1 mb 0.00 in0.0 mm 0.00 in0.0 mm 0.00 in0.0 mm
01:51 PM 53.4°F11.9°C 46.7°F8.2°C 78% 5.4 mph SE8.7 kmh SE 11.4 mph18.3 kmh 29.76 in1007.8 mb 0.00 in0.0 mm 0.00 in0.0 mm 0.00 in0.0 mm
01:52 PM 53.4°F11.9°C 46.7°F8.2°C 78% 6.0 mph SE9.7 kmh SE 11.4 mph18.3 kmh 29.76 in1007.8 mb 0.00 in0.0 mm 0.00 in0.0 mm 0.00 in0.0 mm
01:53 PM 53.2°F11.8°C 46.6°F8.1°C 78% 8.3 mph SE13.4 kmh SE 11.4 mph18.3 kmh 29.76 in1007.8 mb 0.00 in0.0 mm 0.00 in0.0 mm 0.00 in0.0 mm
01:54 PM 53.2°F11.8°C 46.6°F8.1°C 78% 9.2 mph SE14.8 kmh SE 12.1 mph19.5 kmh 29.76 in1007.8 mb 0.00 in0.0 mm 0.00 in0.0 mm 0.00 in0.0 mm
01:55 PM 53.2°F11.8°C 46.6°F8.1°C 78% 6.0 mph SE9.7 kmh SE 12.1 mph19.5 kmh 29.76 in1007.8 mb 0.00 in0.0 mm 0.00 in0.0 mm 0.00 in0.0 mm
01:56 PM 53.2°F11.8°C 46.6°F8.1°C 78% 5.4 mph SE8.7 kmh SE 12.1 mph19.5 kmh 29.76 in1007.8 mb 0.00 in0.0 mm 0.00 in0.0 mm 0.00 in0.0 mm
01:57 PM 53.2°F11.8°C 46.6°F8.1°C 78% 8.3 mph SE13.4 kmh SE 12.1 mph19.5 kmh 29.75 in1007.5 mb 0.00 in0.0 mm 0.00 in0.0 mm 0.00 in0.0 mm
01:58 PM 53.2°F11.8°C 46.6°F8.1°C 78% 7.6 mph SE12.2 kmh SE 12.1 mph19.5 kmh 29.76 in1007.8 mb 0.00 in0.0 mm 0.00 in0.0 mm 0.00 in0.0 mm
01:59 PM 53.2°F11.8°C 46.9°F8.3°C 79% 6.0 mph SE9.7 kmh SE 12.1 mph19.5 kmh 29.75 in1007.5 mb 0.00 in0.0 mm 0.00 in0.0 mm 0.00 in0.0 mm
02:00 PM 53.2°F11.8°C 46.9°F8.3°C 79% 6.0 mph SE9.7 kmh SE 12.1 mph19.5 kmh 29.75 in1007.5 mb 0.00 in0.0 mm 0.00 in0.0 mm 0.00 in0.0 mm
02:01 PM 53.4°F11.9°C 47.1°F8.4°C 79% 5.4 mph SE8.7 kmh SE 12.1 mph19.5 kmh 29.76 in1007.8 mb 0.00 in0.0 mm 0.00 in0.0 mm 0.00 in0.0 mm
02:02 PM 53.4°F11.9°C 47.1°F8.4°C 79% 5.4 mph SE8.7 kmh SE 12.1 mph19.5 kmh 29.76 in1007.8 mb 0.00 in0.0 mm 0.00 in0.0 mm 0.00 in0.0 mm
02:03 PM 53.4°F11.9°C 47.1°F8.4°C 79% 5.4 mph SE8.7 kmh SE 12.1 mph19.5 kmh 29.76 in1007.8 mb 0.00 in0.0 mm 0.00 in0.0 mm 0.00 in0.0 mm
02:04 PM 53.4°F11.9°C 47.1°F8.4°C 79% 5.4 mph SE8.7 kmh SE 12.1 mph19.5 kmh 29.76 in1007.8 mb 0.00 in0.0 mm 0.00 in0.0 mm 0.00 in0.0 mm
02:05 PM 53.4°F11.9°C 47.1°F8.4°C 79% 5.4 mph SE8.7 kmh SE 9.8 mph15.8 kmh 29.75 in1007.5 mb 0.00 in0.0 mm 0.00 in0.0 mm 0.00 in0.0 mm
02:06 PM 53.4°F11.9°C 47.1°F8.4°C 79% 7.6 mph SE12.2 kmh SE 11.4 mph18.3 kmh 29.75 in1007.5 mb 0.00 in0.0 mm 0.00 in0.0 mm 0.00 in0.0 mm
02:07 PM 53.4°F11.9°C 47.1°F8.4°C 79% 7.6 mph SE12.2 kmh SE 11.4 mph18.3 kmh 29.75 in1007.5 mb 0.00 in0.0 mm 0.00 in0.0 mm 0.00 in0.0 mm
02:08 PM 53.4°F11.9°C 47.1°F8.4°C 79% 6.0 mph SE9.7 kmh SE 11.4 mph18.3 kmh 29.75 in1007.5 mb 0.00 in0.0 mm 0.00 in0.0 mm 0.00 in0.0 mm
02:09 PM 53.2°F11.8°C 46.6°F8.1°C 78% 7.6 mph SE12.2 kmh SE 11.4 mph18.3 kmh 29.75 in1007.5 mb 0.00 in0.0 mm 0.00 in0.0 mm 0.00 in0.0 mm
02:10 PM 53.2°F11.8°C 46.9°F8.3°C 79% 6.9 mph SE11.1 kmh SE 11.4 mph18.3 kmh 29.75 in1007.5 mb 0.00 in0.0 mm 0.00 in0.0 mm 0.00 in0.0 mm
02:11 PM 53.4°F11.9°C 47.1°F8.4°C 79% 8.3 mph SE13.4 kmh SE 11.4 mph18.3 kmh 29.75 in1007.5 mb 0.00 in0.0 mm 0.00 in0.0 mm 0.00 in0.0 mm
02:12 PM 53.4°F11.9°C 47.1°F8.4°C 79% 5.4 mph SE8.7 kmh SE 11.4 mph18.3 kmh 29.75 in1007.5 mb 0.00 in0.0 mm 0.00 in0.0 mm 0.00 in0.0 mm
02:13 PM 53.4°F11.9°C 47.1°F8.4°C 79% 9.2 mph SE14.8 kmh SE 12.1 mph19.5 kmh 29.75 in1007.5 mb 0.00 in0.0 mm 0.00 in0.0 mm 0.00 in0.0 mm
02:14 PM 53.4°F11.9°C 47.1°F8.4°C 79% 6.9 mph SE11.1 kmh SE 12.1 mph19.5 kmh 29.75 in1007.5 mb 0.00 in0.0 mm 0.00 in0.0 mm 0.00 in0.0 mm
02:15 PM 53.4°F11.9°C 47.1°F8.4°C 79% 8.3 mph SE13.4 kmh SE 12.1 mph19.5 kmh 29.75 in1007.5 mb 0.00 in0.0 mm 0.00 in0.0 mm 0.00 in0.0 mm
02:16 PM 53.4°F11.9°C 47.1°F8.4°C 79% 8.3 mph SE13.4 kmh SE 12.1 mph19.5 kmh 29.75 in1007.5 mb 0.00 in0.0 mm 0.00 in0.0 mm 0.00 in0.0 mm
02:17 PM 53.4°F11.9°C 47.1°F8.4°C 79% 8.3 mph SE13.4 kmh SE 12.1 mph19.5 kmh 29.75 in1007.5 mb 0.00 in0.0 mm 0.00 in0.0 mm 0.00 in0.0 mm
02:18 PM 53.4°F11.9°C 46.7°F8.2°C 78% 6.9 mph SE11.1 kmh SE 12.1 mph19.5 kmh 29.75 in1007.5 mb 0.00 in0.0 mm 0.00 in0.0 mm 0.00 in0.0 mm
02:19 PM 53.4°F11.9°C 46.7°F8.2°C 78% 7.6 mph SE12.2 kmh SE 12.1 mph19.5 kmh 29.75 in1007.5 mb 0.00 in0.0 mm 0.00 in0.0 mm 0.00 in0.0 mm
02:20 PM 53.4°F11.9°C 46.7°F8.2°C 78% 9.2 mph SSE14.8 kmh SSE 12.1 mph19.5 kmh 29.75 in1007.5 mb 0.00 in0.0 mm 0.00 in0.0 mm 0.00 in0.0 mm
02:21 PM 53.2°F11.8°C 46.6°F8.1°C 78% 10.7 mph SSE17.2 kmh SSE 14.5 mph23.3 kmh 29.75 in1007.5 mb 0.00 in0.0 mm 0.00 in0.0 mm 0.00 in0.0 mm
02:22 PM 53.2°F11.8°C 46.6°F8.1°C 78% 8.3 mph SSE13.4 kmh SSE 14.5 mph23.3 kmh 29.75 in1007.5 mb 0.00 in0.0 mm 0.00 in0.0 mm 0.00 in0.0 mm
02:23 PM 53.2°F11.8°C 46.6°F8.1°C 78% 9.2 mph SSE14.8 kmh SSE 14.5 mph23.3 kmh 29.75 in1007.5 mb 0.00 in0.0 mm 0.00 in0.0 mm 0.00 in0.0 mm
02:24 PM 53.2°F11.8°C 46.9°F8.3°C 79% 9.2 mph SSE14.8 kmh SSE 14.5 mph23.3 kmh 29.75 in1007.5 mb 0.00 in0.0 mm 0.00 in0.0 mm 0.00 in0.0 mm
02:25 PM 53.2°F11.8°C 46.9°F8.3°C 79% 9.8 mph SSE15.8 kmh SSE 14.5 mph23.3 kmh 29.75 in1007.5 mb 0.00 in0.0 mm 0.00 in0.0 mm 0.00 in0.0 mm
02:26 PM 53.2°F11.8°C 46.9°F8.3°C 79% 9.8 mph SSE15.8 kmh SSE 14.5 mph23.3 kmh 29.75 in1007.5 mb 0.00 in0.0 mm 0.00 in0.0 mm 0.00 in0.0 mm
02:27 PM 53.2°F11.8°C 46.9°F8.3°C 79% 6.9 mph SSE11.1 kmh SSE 14.5 mph23.3 kmh 29.75 in1007.5 mb 0.00 in0.0 mm 0.00 in0.0 mm 0.00 in0.0 mm
02:28 PM 53.2°F11.8°C 46.9°F8.3°C 79% 6.9 mph SSE11.1 kmh SSE 14.5 mph23.3 kmh 29.75 in1007.5 mb 0.00 in0.0 mm 0.00 in0.0 mm 0.00 in0.0 mm
02:29 PM 53.2°F11.8°C 46.9°F8.3°C 79% 6.9 mph SSE11.1 kmh SSE 14.5 mph23.3 kmh 29.74 in1007.1 mb 0.00 in0.0 mm 0.00 in0.0 mm 0.00 in0.0 mm
02:30 PM 53.2°F11.8°C 47.2°F8.4°C 80% 9.8 mph SE15.8 kmh SE 14.5 mph23.3 kmh 29.74 in1007.1 mb 0.00 in0.0 mm 0.00 in0.0 mm 0.00 in0.0 mm
02:31 PM 53.2°F11.8°C 47.2°F8.4°C 80% 9.2 mph SE14.8 kmh SE 14.5 mph23.3 kmh 29.75 in1007.5 mb 0.00 in0.0 mm 0.00 in0.0 mm 0.00 in0.0 mm
02:32 PM 53.2°F11.8°C 47.2°F8.4°C 80% 7.6 mph SE12.2 kmh SE 12.1 mph19.5 kmh 29.74 in1007.1 mb 0.00 in0.0 mm 0.00 in0.0 mm 0.00 in0.0 mm
02:33 PM 53.2°F11.8°C 47.2°F8.4°C 80% 6.0 mph SE9.7 kmh SE 12.1 mph19.5 kmh 29.74 in1007.1 mb 0.00 in0.0 mm 0.00 in0.0 mm 0.00 in0.0 mm
02:34 PM 53.2°F11.8°C 47.2°F8.4°C 80% 3.8 mph SE6.1 kmh SE 12.1 mph19.5 kmh 29.74 in1007.1 mb 0.00 in0.0 mm 0.00 in0.0 mm 0.00 in0.0 mm
02:35 PM 53.2°F11.8°C 47.2°F8.4°C 80% 6.9 mph SE11.1 kmh SE 12.1 mph19.5 kmh 29.74 in1007.1 mb 0.00 in0.0 mm 0.00 in0.0 mm 0.00 in0.0 mm
02:36 PM 53.2°F11.8°C 47.2°F8.4°C 80% 6.0 mph SE9.7 kmh SE 12.1 mph19.5 kmh 29.74 in1007.1 mb 0.00 in0.0 mm 0.00 in0.0 mm 0.00 in0.0 mm
02:37 PM 53.2°F11.8°C 47.2°F8.4°C 80% 5.4 mph SE8.7 kmh SE 12.1 mph19.5 kmh 29.74 in1007.1 mb 0.00 in0.0 mm 0.00 in0.0 mm 0.00 in0.0 mm
02:38 PM 53.2°F11.8°C 47.2°F8.4°C 80% 4.5 mph SE7.2 kmh SE 12.1 mph19.5 kmh 29.74 in1007.1 mb 0.00 in0.0 mm 0.00 in0.0 mm 0.00 in0.0 mm
02:39 PM 53.2°F11.8°C 47.2°F8.4°C 80% 6.9 mph SE11.1 kmh SE 12.1 mph19.5 kmh 29.74 in1007.1 mb 0.00 in0.0 mm 0.00 in0.0 mm 0.00 in0.0 mm
02:40 PM 53.2°F11.8°C 47.2°F8.4°C 80% 6.0 mph SE9.7 kmh SE 12.1 mph19.5 kmh 29.74 in1007.1 mb 0.00 in0.0 mm 0.00 in0.0 mm 0.00 in0.0 mm
02:41 PM 53.2°F11.8°C 47.2°F8.4°C 80% 3.8 mph SE6.1 kmh SE 11.4 mph18.3 kmh 29.74 in1007.1 mb 0.00 in0.0 mm 0.00 in0.0 mm 0.00 in0.0 mm
02:42 PM 53.2°F11.8°C 47.2°F8.4°C 80% 6.0 mph ESE9.7 kmh ESE 9.2 mph14.8 kmh 29.73 in1006.8 mb 0.00 in0.0 mm 0.00 in0.0 mm 0.00 in0.0 mm
02:43 PM 53.2°F11.8°C 47.2°F8.4°C 80% 5.4 mph SE8.7 kmh SE 9.2 mph14.8 kmh 29.74 in1007.1 mb 0.00 in0.0 mm 0.00 in0.0 mm 0.00 in0.0 mm
02:44 PM 53.2°F11.8°C 47.2°F8.4°C 80% 6.9 mph SE11.1 kmh SE 9.8 mph15.8 kmh 29.74 in1007.1 mb 0.00 in0.0 mm 0.00 in0.0 mm 0.00 in0.0 mm
02:45 PM 53.1°F11.7°C 47.1°F8.4°C 80% 8.3 mph SE13.4 kmh SE 11.4 mph18.3 kmh 29.73 in1006.8 mb 0.00 in0.0 mm 0.00 in0.0 mm 0.00 in0.0 mm
02:46 PM 53.1°F11.7°C 47.1°F8.4°C 80% 5.4 mph SE8.7 kmh SE 11.4 mph18.3 kmh 29.74 in1007.1 mb 0.00 in0.0 mm 0.00 in0.0 mm 0.00 in0.0 mm
02:47 PM 53.1°F11.7°C 47.1°F8.4°C 80% 6.9 mph SE11.1 kmh SE 11.4 mph18.3 kmh 29.73 in1006.8 mb 0.00 in0.0 mm 0.00 in0.0 mm 0.00 in0.0 mm
02:48 PM 53.1°F11.7°C 47.1°F8.4°C 80% 6.9 mph SE11.1 kmh SE 11.4 mph18.3 kmh 29.74 in1007.1 mb 0.00 in0.0 mm 0.00 in0.0 mm 0.00 in0.0 mm
02:49 PM 53.1°F11.7°C 47.1°F8.4°C 80% 10.7 mph SE17.2 kmh SE 12.1 mph19.5 kmh 29.73 in1006.8 mb 0.00 in0.0 mm 0.00 in0.0 mm 0.00 in0.0 mm
02:50 PM 53.1°F11.7°C 47.1°F8.4°C 80% 6.9 mph SE11.1 kmh SE 12.1 mph19.5 kmh 29.73 in1006.8 mb 0.00 in0.0 mm 0.00 in0.0 mm 0.00 in0.0 mm
02:51 PM 53.1°F11.7°C 47.1°F8.4°C 80% 8.3 mph ESE13.4 kmh ESE 12.1 mph19.5 kmh 29.74 in1007.1 mb 0.00 in0.0 mm 0.00 in0.0 mm 0.00 in0.0 mm
02:52 PM 53.1°F11.7°C 47.1°F8.4°C 80% 9.8 mph SE15.8 kmh SE 12.1 mph19.5 kmh 29.73 in1006.8 mb 0.00 in0.0 mm 0.00 in0.0 mm 0.00 in0.0 mm
02:53 PM 52.9°F11.6°C 46.9°F8.3°C 80% 6.0 mph ESE9.7 kmh ESE 12.1 mph19.5 kmh 29.73 in1006.8 mb 0.00 in0.0 mm 0.00 in0.0 mm 0.00 in0.0 mm
02:54 PM 52.9°F11.6°C 46.9°F8.3°C 80% 7.6 mph ESE12.2 kmh ESE 12.1 mph19.5 kmh 29.73 in1006.8 mb 0.00 in0.0 mm 0.00 in0.0 mm 0.00 in0.0 mm
02:55 PM 52.9°F11.6°C 47.2°F8.4°C 81% 4.5 mph ESE7.2 kmh ESE 12.1 mph19.5 kmh 29.73 in1006.8 mb 0.00 in0.0 mm 0.00 in0.0 mm 0.00 in0.0 mm
02:56 PM 52.9°F11.6°C 47.2°F8.4°C 81% 6.9 mph ESE11.1 kmh ESE 12.1 mph19.5 kmh 29.73 in1006.8 mb 0.00 in0.0 mm 0.00 in0.0 mm 0.00 in0.0 mm
02:57 PM 52.9°F11.6°C 47.2°F8.4°C 81% 6.9 mph ESE11.1 kmh ESE 12.1 mph19.5 kmh 29.74 in1007.1 mb 0.00 in0.0 mm 0.00 in0.0 mm 0.00 in0.0 mm
02:58 PM 52.9°F11.6°C 47.2°F8.4°C 81% 7.6 mph SE12.2 kmh SE 12.1 mph19.5 kmh 29.73 in1006.8 mb 0.00 in0.0 mm 0.00 in0.0 mm 0.00 in0.0 mm
02:59 PM 52.9°F11.6°C 47.2°F8.4°C 81% 7.6 mph SE12.2 kmh SE 12.1 mph19.5 kmh 29.73 in1006.8 mb 0.00 in0.0 mm 0.00 in0.0 mm 0.00 in0.0 mm
03:00 PM 52.9°F11.6°C 47.2°F8.4°C 81% 6.0 mph SE9.7 kmh SE 11.4 mph18.3 kmh 29.73 in1006.8 mb 0.00 in0.0 mm 0.00 in0.0 mm 0.00 in0.0 mm
03:01 PM 52.9°F11.6°C 47.2°F8.4°C 81% 6.9 mph SE11.1 kmh SE 11.4 mph18.3 kmh 29.73 in1006.8 mb 0.00 in0.0 mm 0.00 in0.0 mm 0.00 in0.0 mm
03:02 PM 52.9°F11.6°C 47.2°F8.4°C 81% 6.9 mph ESE11.1 kmh ESE 10.7 mph17.2 kmh 29.73 in1006.8 mb 0.00 in0.0 mm 0.00 in0.0 mm 0.00 in0.0 mm
03:03 PM 52.9°F11.6°C 47.2°F8.4°C 81% 6.9 mph ESE11.1 kmh ESE 10.7 mph17.2 kmh 29.73 in1006.8 mb 0.00 in0.0 mm 0.00 in0.0 mm 0.00 in0.0 mm
03:04 PM 52.9°F11.6°C 47.2°F8.4°C 81% 6.9 mph ESE11.1 kmh ESE 10.7 mph17.2 kmh 29.73 in1006.8 mb 0.00 in0.0 mm 0.00 in0.0 mm 0.00 in0.0 mm
03:05 PM 52.9°F11.6°C 47.2°F8.4°C 81% 6.9 mph ESE11.1 kmh ESE 10.7 mph17.2 kmh 29.73 in1006.8 mb 0.00 in0.0 mm 0.00 in0.0 mm 0.00 in0.0 mm
03:06 PM 52.9°F11.6°C 47.2°F8.4°C 81% 6.9 mph ESE11.1 kmh ESE 10.7 mph17.2 kmh 29.73 in1006.8 mb 0.00 in0.0 mm 0.00 in0.0 mm 0.00 in0.0 mm
03:07 PM 52.9°F11.6°C 47.2°F8.4°C 81% 9.2 mph ESE14.8 kmh ESE 11.4 mph18.3 kmh 29.73 in1006.8 mb 0.00 in0.0 mm 0.00 in0.0 mm 0.00 in0.0 mm
03:08 PM 52.9°F11.6°C 47.2°F8.4°C 81% 11.4 mph ESE18.3 kmh ESE 13.6 mph21.9 kmh 29.73 in1006.8 mb 0.00 in0.0 mm 0.00 in0.0 mm 0.00 in0.0 mm
03:09 PM 52.9°F11.6°C 47.2°F8.4°C 81% 10.7 mph E17.2 kmh E 13.6 mph21.9 kmh 29.73 in1006.8 mb 0.00 in0.0 mm 0.00 in0.0 mm 0.00 in0.0 mm
03:10 PM 52.9°F11.6°C 47.2°F8.4°C 81% 4.5 mph ESE7.2 kmh ESE 13.6 mph21.9 kmh 29.73 in1006.8 mb 0.00 in0.0 mm 0.00 in0.0 mm 0.00 in0.0 mm
03:11 PM 52.9°F11.6°C 47.2°F8.4°C 81% 4.5 mph ESE7.2 kmh ESE 13.6 mph21.9 kmh 29.73 in1006.8 mb 0.00 in0.0 mm 0.00 in0.0 mm 0.00 in0.0 mm
03:12 PM 52.9°F11.6°C 47.2°F8.4°C 81% 3.8 mph ESE6.1 kmh ESE 13.6 mph21.9 kmh 29.73 in1006.8 mb 0.00 in0.0 mm 0.00 in0.0 mm 0.00 in0.0 mm
03:13 PM 52.9°F11.6°C 47.2°F8.4°C 81% 3.8 mph ESE6.1 kmh ESE 13.6 mph21.9 kmh 29.73 in1006.8 mb 0.00 in0.0 mm 0.00 in0.0 mm 0.00 in0.0 mm
03:14 PM 52.9°F11.6°C 47.2°F8.4°C 81% 3.8 mph ESE6.1 kmh ESE 13.6 mph21.9 kmh 29.73 in1006.8 mb 0.00 in0.0 mm 0.00 in0.0 mm 0.00 in0.0 mm
03:15 PM 52.9°F11.6°C 47.2°F8.4°C 81% 7.6 mph SE12.2 kmh SE 13.6 mph21.9 kmh 29.73 in1006.8 mb 0.00 in0.0 mm 0.00 in0.0 mm 0.00 in0.0 mm
03:16 PM 52.9°F11.6°C 47.2°F8.4°C 81% 7.6 mph SE12.2 kmh SE 13.6 mph21.9 kmh 29.73 in1006.8 mb 0.00 in0.0 mm 0.00 in0.0 mm 0.00 in0.0 mm
03:17 PM 52.9°F11.6°C 47.2°F8.4°C 81% 4.5 mph SE7.2 kmh SE 13.6 mph21.9 kmh 29.73 in1006.8 mb 0.00 in0.0 mm 0.00 in0.0 mm 0.00 in0.0 mm
03:18 PM 52.9°F11.6°C 47.5°F8.6°C 82% 2.2 mph SE3.5 kmh SE 12.1 mph19.5 kmh 29.73 in1006.8 mb 0.00 in0.0 mm 0.00 in0.0 mm 0.00 in0.0 mm
03:19 PM 52.9°F11.6°C 47.5°F8.6°C 82% 8.3 mph SE13.4 kmh SE 13.0 mph20.9 kmh 29.73 in1006.8 mb 0.00 in0.0 mm 0.00 in0.0 mm 0.00 in0.0 mm
03:20 PM 52.9°F11.6°C 47.5°F8.6°C 82% 6.0 mph SE9.7 kmh SE 13.0 mph20.9 kmh 29.73 in1006.8 mb 0.00 in0.0 mm 0.00 in0.0 mm 0.00 in0.0 mm
03:21 PM 52.9°F11.6°C 47.5°F8.6°C 82% 5.4 mph SE8.7 kmh SE 13.0 mph20.9 kmh 29.73 in1006.8 mb 0.00 in0.0 mm 0.00 in0.0 mm 0.00 in0.0 mm
03:22 PM 52.9°F11.6°C 47.5°F8.6°C 82% 7.6 mph SE12.2 kmh SE 13.0 mph20.9 kmh 29.73 in1006.8 mb 0.00 in0.0 mm 0.00 in0.0 mm 0.00 in0.0 mm
03:23 PM 52.9°F11.6°C 47.5°F8.6°C 82% 9.2 mph SE14.8 kmh SE 13.0 mph20.9 kmh 29.73 in1006.8 mb 0.00 in0.0 mm 0.00 in0.0 mm 0.00 in0.0 mm
03:24 PM 52.9°F11.6°C 47.5°F8.6°C 82% 8.3 mph SE13.4 kmh SE 13.0 mph20.9 kmh 29.73 in1006.8 mb 0.00 in0.0 mm 0.00 in0.0 mm 0.00 in0.0 mm
03:25 PM 52.9°F11.6°C 47.5°F8.6°C 82% 6.9 mph SE11.1 kmh SE 13.0 mph20.9 kmh 29.73 in1006.8 mb 0.00 in0.0 mm 0.00 in0.0 mm 0.00 in0.0 mm
03:26 PM 52.9°F11.6°C 47.5°F8.6°C 82% 5.4 mph ESE8.7 kmh ESE 13.0 mph20.9 kmh 29.73 in1006.8 mb 0.00 in0.0 mm 0.00 in0.0 mm 0.00 in0.0 mm
03:27 PM 52.9°F11.6°C 47.5°F8.6°C 82% 3.8 mph ESE6.1 kmh ESE 13.0 mph20.9 kmh 29.73 in1006.8 mb 0.00 in0.0 mm 0.00 in0.0 mm 0.00 in0.0 mm
03:28 PM 52.9°F11.6°C 47.5°F8.6°C 82% 3.8 mph ESE6.1 kmh ESE 13.0 mph20.9 kmh 29.73 in1006.8 mb 0.00 in0.0 mm 0.00 in0.0 mm 0.00 in0.0 mm
03:29 PM 52.9°F11.6°C 47.5°F8.6°C 82% 7.6 mph ESE12.2 kmh ESE 13.0 mph20.9 kmh 29.73 in1006.8 mb 0.00 in0.0 mm 0.00 in0.0 mm 0.00 in0.0 mm
03:30 PM 52.9°F11.6°C 47.5°F8.6°C 82% 5.4 mph SE8.7 kmh SE 13.0 mph20.9 kmh 29.73 in1006.8 mb 0.00 in0.0 mm 0.00 in0.0 mm 0.00 in0.0 mm
03:31 PM 52.9°F11.6°C 47.5°F8.6°C 82% 6.9 mph SE11.1 kmh SE 13.0 mph20.9 kmh 29.73 in1006.8 mb 0.00 in0.0 mm 0.00 in0.0 mm 0.00 in0.0 mm
03:32 PM 52.9°F11.6°C 47.5°F8.6°C 82% 9.2 mph SE14.8 kmh SE 13.0 mph20.9 kmh 29.73 in1006.8 mb 0.00 in0.0 mm 0.00 in0.0 mm 0.00 in0.0 mm
03:33 PM 52.9°F11.6°C 47.5°F8.6°C 82% 6.9 mph SE11.1 kmh SE 13.0 mph20.9 kmh 29.73 in1006.8 mb 0.00 in0.0 mm 0.00 in0.0 mm 0.00 in0.0 mm
03:34 PM 52.9°F11.6°C 47.5°F8.6°C 82% 6.9 mph SE11.1 kmh SE 11.4 mph18.3 kmh 29.73 in1006.8 mb 0.00 in0.0 mm 0.00 in0.0 mm 0.00 in0.0 mm
03:35 PM 52.9°F11.6°C 47.5°F8.6°C 82% 6.0 mph SE9.7 kmh SE 11.4 mph18.3 kmh 29.73 in1006.8 mb 0.00 in0.0 mm 0.00 in0.0 mm 0.00 in0.0 mm
03:36 PM 52.9°F11.6°C 47.5°F8.6°C 82% 7.6 mph ESE12.2 kmh ESE 11.4 mph18.3 kmh 29.73 in1006.8 mb 0.00 in0.0 mm 0.00 in0.0 mm 0.00 in0.0 mm
03:37 PM 52.9°F11.6°C 47.5°F8.6°C 82% 4.5 mph SE7.2 kmh SE 11.4 mph18.3 kmh 29.73 in1006.8 mb 0.00 in0.0 mm 0.00 in0.0 mm 0.00 in0.0 mm
03:38 PM 52.9°F11.6°C 47.5°F8.6°C 82% 3.8 mph SE6.1 kmh SE 11.4 mph18.3 kmh 29.73 in1006.8 mb 0.00 in0.0 mm 0.00 in0.0 mm 0.00 in0.0 mm
03:39 PM 52.9°F11.6°C 47.5°F8.6°C 82% 5.4 mph SE8.7 kmh SE 11.4 mph18.3 kmh 29.73 in1006.8 mb 0.00 in0.0 mm 0.00 in0.0 mm 0.00 in0.0 mm
03:40 PM 52.9°F11.6°C 47.5°F8.6°C 82% 6.9 mph SE11.1 kmh SE 11.4 mph18.3 kmh 29.73 in1006.8 mb 0.00 in0.0 mm 0.00 in0.0 mm 0.00 in0.0 mm
03:41 PM 52.9°F11.6°C 47.5°F8.6°C 82% 8.3 mph SE13.4 kmh SE 11.4 mph18.3 kmh 29.73 in1006.8 mb 0.00 in0.0 mm 0.00 in0.0 mm 0.00 in0.0 mm
03:42 PM 52.9°F11.6°C 47.5°F8.6°C 82% 8.3 mph SE13.4 kmh SE 11.4 mph18.3 kmh 29.73 in1006.8 mb 0.00 in0.0 mm 0.00 in0.0 mm 0.00 in0.0 mm
03:43 PM 52.9°F11.6°C 47.5°F8.6°C 82% 5.4 mph SE8.7 kmh SE 11.4 mph18.3 kmh 29.73 in1006.8 mb 0.00 in0.0 mm 0.00 in0.0 mm 0.00 in0.0 mm
03:44 PM 52.9°F11.6°C 47.5°F8.6°C 82% 6.9 mph SE11.1 kmh SE 11.4 mph18.3 kmh 29.72 in1006.4 mb 0.00 in0.0 mm 0.00 in0.0 mm 0.00 in0.0 mm
03:45 PM 52.9°F11.6°C 47.5°F8.6°C 82% 6.0 mph SE9.7 kmh SE 11.4 mph18.3 kmh 29.73 in1006.8 mb 0.00 in0.0 mm 0.00 in0.0 mm 0.00 in0.0 mm
03:46 PM 52.9°F11.6°C 47.5°F8.6°C 82% 6.0 mph SSE9.7 kmh SSE 11.4 mph18.3 kmh 29.73 in1006.8 mb 0.00 in0.0 mm 0.00 in0.0 mm 0.00 in0.0 mm
03:47 PM 52.9°F11.6°C 47.5°F8.6°C 82% 4.5 mph SE7.2 kmh SE 11.4 mph18.3 kmh 29.73 in1006.8 mb 0.00 in0.0 mm 0.00 in0.0 mm 0.00 in0.0 mm
03:48 PM 52.9°F11.6°C 47.5°F8.6°C 82% 4.5 mph SE7.2 kmh SE 11.4 mph18.3 kmh 29.73 in1006.8 mb 0.00 in0.0 mm 0.00 in0.0 mm 0.00 in0.0 mm
03:49 PM 52.9°F11.6°C 47.5°F8.6°C 82% 5.4 mph SE8.7 kmh SE 11.4 mph18.3 kmh 29.73 in1006.8 mb 0.00 in0.0 mm 0.00 in0.0 mm 0.00 in0.0 mm
03:50 PM 52.9°F11.6°C 47.5°F8.6°C 82% 6.9 mph SE11.1 kmh SE 11.4 mph18.3 kmh 29.73 in1006.8 mb 0.00 in0.0 mm 0.00 in0.0 mm 0.00 in0.0 mm
03:51 PM 52.9°F11.6°C 47.5°F8.6°C 82% 11.4 mph SE18.3 kmh SE 13.6 mph21.9 kmh 29.72 in1006.4 mb 0.00 in0.0 mm 0.00 in0.0 mm 0.00 in0.0 mm
03:52 PM 52.9°F11.6°C 47.5°F8.6°C 82% 10.7 mph SE17.2 kmh SE 13.6 mph21.9 kmh 29.72 in1006.4 mb 0.00 in0.0 mm 0.00 in0.0 mm 0.00 in0.0 mm
03:53 PM 52.9°F11.6°C 47.5°F8.6°C 82% 8.3 mph SE13.4 kmh SE 14.5 mph23.3 kmh 29.72 in1006.4 mb 0.00 in0.0 mm 0.00 in0.0 mm 0.00 in0.0 mm
03:54 PM 52.9°F11.6°C 47.5°F8.6°C 82% 8.3 mph SE13.4 kmh SE 14.5 mph23.3 kmh 29.72 in1006.4 mb 0.00 in0.0 mm 0.00 in0.0 mm 0.00 in0.0 mm
03:55 PM 52.9°F11.6°C 47.5°F8.6°C 82% 10.7 mph SE17.2 kmh SE 14.5 mph23.3 kmh 29.72 in1006.4 mb 0.00 in0.0 mm 0.00 in0.0 mm 0.00 in0.0 mm
03:56 PM 52.9°F11.6°C 47.5°F8.6°C 82% 9.8 mph SE15.8 kmh SE 14.5 mph23.3 kmh 29.72 in1006.4 mb 0.00 in0.0 mm 0.00 in0.0 mm 0.00 in0.0 mm
03:57 PM 52.9°F11.6°C 47.5°F8.6°C 82% 8.3 mph SE13.4 kmh SE 14.5 mph23.3 kmh 29.72 in1006.4 mb 0.00 in0.0 mm 0.00 in0.0 mm 0.00 in0.0 mm
03:58 PM 52.9°F11.6°C 47.5°F8.6°C 82% 6.9 mph SE11.1 kmh SE 14.5 mph23.3 kmh 29.72 in1006.4 mb 0.00 in0.0 mm 0.00 in0.0 mm 0.00 in0.0 mm
03:59 PM 52.9°F11.6°C 47.5°F8.6°C 82% 6.0 mph SE9.7 kmh SE 14.5 mph23.3 kmh 29.72 in1006.4 mb 0.00 in0.0 mm 0.00 in0.0 mm 0.00 in0.0 mm
04:00 PM 52.9°F11.6°C 47.5°F8.6°C 82% 6.0 mph SE9.7 kmh SE 14.5 mph23.3 kmh 29.72 in1006.4 mb 0.00 in0.0 mm 0.00 in0.0 mm 0.00 in0.0 mm
04:01 PM 52.9°F11.6°C 47.2°F8.4°C 81% 9.2 mph SE14.8 kmh SE 14.5 mph23.3 kmh 29.72 in1006.4 mb 0.00 in0.0 mm 0.00 in0.0 mm 0.00 in0.0 mm
04:02 PM 52.9°F11.6°C 47.2°F8.4°C 81% 9.2 mph SE14.8 kmh SE 14.5 mph23.3 kmh 29.71 in1006.1 mb 0.00 in0.0 mm 0.00 in0.0 mm 0.00 in0.0 mm
04:03 PM 52.9°F11.6°C 47.2°F8.4°C 81% 9.2 mph SE14.8 kmh SE 13.0 mph20.9 kmh 29.71 in1006.1 mb 0.00 in0.0 mm 0.00 in0.0 mm 0.00 in0.0 mm
04:04 PM 52.9°F11.6°C 47.2°F8.4°C 81% 9.2 mph SE14.8 kmh SE 13.0 mph20.9 kmh 29.72 in1006.4 mb 0.00 in0.0 mm 0.00 in0.0 mm 0.00 in0.0 mm
04:05 PM 52.9°F11.6°C 47.2°F8.4°C 81% 9.2 mph ESE14.8 kmh ESE 13.0 mph20.9 kmh 29.72 in1006.4 mb 0.00 in0.0 mm 0.00 in0.0 mm 0.00 in0.0 mm
04:06 PM 52.9°F11.6°C 47.2°F8.4°C 81% 9.2 mph ESE14.8 kmh ESE 13.0 mph20.9 kmh 29.72 in1006.4 mb 0.00 in0.0 mm 0.00 in0.0 mm 0.00 in0.0 mm
04:07 PM 52.9°F11.6°C 47.2°F8.4°C 81% 6.0 mph ESE9.7 kmh ESE 13.0 mph20.9 kmh 29.71 in1006.1 mb 0.00 in0.0 mm 0.00 in0.0 mm 0.00 in0.0 mm
04:08 PM 52.9°F11.6°C 47.2°F8.4°C 81% 4.5 mph ESE7.2 kmh ESE 13.0 mph20.9 kmh 29.72 in1006.4 mb 0.00 in0.0 mm 0.00 in0.0 mm 0.00 in0.0 mm
04:09 PM 52.9°F11.6°C 47.2°F8.4°C 81% 9.2 mph ESE14.8 kmh ESE 13.6 mph21.9 kmh 29.71 in1006.1 mb 0.00 in0.0 mm 0.00 in0.0 mm 0.00 in0.0 mm
04:10 PM 52.9°F11.6°C 47.2°F8.4°C 81% 9.2 mph ESE14.8 kmh ESE 13.6 mph21.9 kmh 29.72 in1006.4 mb 0.00 in0.0 mm 0.00 in0.0 mm 0.00 in0.0 mm
04:11 PM 52.9°F11.6°C 47.2°F8.4°C 81% 8.3 mph ESE13.4 kmh ESE 13.6 mph21.9 kmh 29.72 in1006.4 mb 0.00 in0.0 mm 0.00 in0.0 mm 0.00 in0.0 mm
04:12 PM 52.9°F11.6°C 47.2°F8.4°C 81% 9.2 mph SE14.8 kmh SE 13.6 mph21.9 kmh 29.72 in1006.4 mb 0.00 in0.0 mm 0.00 in0.0 mm 0.00 in0.0 mm
04:13 PM 52.9°F11.6°C 47.2°F8.4°C 81% 7.6 mph SE12.2 kmh SE 13.6 mph21.9 kmh 29.71 in1006.1 mb 0.00 in0.0 mm 0.00 in0.0 mm 0.00 in0.0 mm
04:14 PM 52.9°F11.6°C 46.9°F8.3°C 80% 9.2 mph ESE14.8 kmh ESE 13.6 mph21.9 kmh 29.71 in1006.1 mb 0.00 in0.0 mm 0.00 in0.0 mm 0.00 in0.0 mm
04:15 PM 52.9°F11.6°C 46.9°F8.3°C 80% 6.9 mph ESE11.1 kmh ESE 13.6 mph21.9 kmh 29.71 in1006.1 mb 0.00 in0.0 mm 0.00 in0.0 mm 0.00 in0.0 mm
04:16 PM 52.9°F11.6°C 46.9°F8.3°C 80% 4.5 mph SE7.2 kmh SE 13.6 mph21.9 kmh 29.71 in1006.1 mb 0.00 in0.0 mm 0.00 in0.0 mm 0.00 in0.0 mm
04:17 PM 52.9°F11.6°C 46.9°F8.3°C 80% 6.0 mph SE9.7 kmh SE 13.6 mph21.9 kmh 29.71 in1006.1 mb 0.00 in0.0 mm 0.00 in0.0 mm 0.00 in0.0 mm
04:18 PM 52.9°F11.6°C 46.9°F8.3°C 80% 8.3 mph SE13.4 kmh SE 13.6 mph21.9 kmh 29.71 in1006.1 mb 0.00 in0.0 mm 0.00 in0.0 mm 0.00 in0.0 mm
04:19 PM 52.9°F11.6°C 46.9°F8.3°C 80% 4.5 mph SE7.2 kmh SE 13.6 mph21.9 kmh 29.71 in1006.1 mb 0.00 in0.0 mm 0.00 in0.0 mm 0.00 in0.0 mm
04:20 PM 52.7°F11.5°C 46.7°F8.2°C 80% 5.4 mph SE8.7 kmh SE 13.6 mph21.9 kmh 29.71 in1006.1 mb 0.00 in0.0 mm 0.00 in0.0 mm 0.00 in0.0 mm
04:21 PM 52.7°F11.5°C 46.7°F8.2°C 80% 9.2 mph SE14.8 kmh SE 13.6 mph21.9 kmh 29.71 in1006.1 mb 0.00 in0.0 mm 0.00 in0.0 mm 0.00 in0.0 mm
04:22 PM 52.7°F11.5°C 46.7°F8.2°C 80% 7.6 mph SE12.2 kmh SE 12.1 mph19.5 kmh 29.71 in1006.1 mb 0.00 in0.0 mm 0.00 in0.0 mm 0.00 in0.0 mm
04:23 PM 52.7°F11.5°C 46.7°F8.2°C 80% 6.9 mph SE11.1 kmh SE 12.1 mph19.5 kmh 29.71 in1006.1 mb 0.00 in0.0 mm 0.00 in0.0 mm 0.00 in0.0 mm
04:24 PM 52.7°F11.5°C 46.7°F8.2°C 80% 8.3 mph SE13.4 kmh SE 12.1 mph19.5 kmh 29.71 in1006.1 mb 0.00 in0.0 mm 0.00 in0.0 mm 0.00 in0.0 mm
04:25 PM 52.7°F11.5°C 46.7°F8.2°C 80% 7.6 mph SE12.2 kmh SE 12.1 mph19.5 kmh 29.71 in1006.1 mb 0.00 in0.0 mm 0.00 in0.0 mm 0.00 in0.0 mm
04:26 PM 52.7°F11.5°C 46.7°F8.2°C 80% 8.3 mph SE13.4 kmh SE 12.1 mph19.5 kmh 29.71 in1006.1 mb 0.00 in0.0 mm 0.00 in0.0 mm 0.00 in0.0 mm
04:27 PM 52.5°F11.4°C 46.5°F8.1°C 80% 7.6 mph SE12.2 kmh SE 12.1 mph19.5 kmh 29.71 in1006.1 mb 0.00 in0.0 mm 0.00 in0.0 mm 0.00 in0.0 mm
04:28 PM 52.5°F11.4°C 46.5°F8.1°C 80% 6.0 mph SE9.7 kmh SE 12.1 mph19.5 kmh 29.71 in1006.1 mb 0.00 in0.0 mm 0.00 in0.0 mm 0.00 in0.0 mm
04:29 PM 52.5°F11.4°C 46.5°F8.1°C 80% 6.9 mph SE11.1 kmh SE 12.1 mph19.5 kmh 29.71 in1006.1 mb 0.00 in0.0 mm 0.00 in0.0 mm 0.00 in0.0 mm
04:30 PM 52.5°F11.4°C 46.5°F8.1°C 80% 6.0 mph SE9.7 kmh SE 12.1 mph19.5 kmh 29.71 in1006.1 mb 0.00 in0.0 mm 0.00 in0.0 mm 0.00 in0.0 mm
04:31 PM 52.5°F11.4°C 46.5°F8.1°C 80% 9.2 mph SE14.8 kmh SE 13.6 mph21.9 kmh 29.71 in1006.1 mb 0.00 in0.0 mm 0.00 in0.0 mm 0.00 in0.0 mm
04:32 PM 52.5°F11.4°C 46.9°F8.3°C 81% 9.8 mph SE15.8 kmh SE 13.6 mph21.9 kmh 29.71 in1006.1 mb 0.00 in0.0 mm 0.00 in0.0 mm 0.00 in0.0 mm
04:33 PM 52.3°F11.3°C 46.7°F8.2°C 81% 7.6 mph SE12.2 kmh SE 13.6 mph21.9 kmh 29.70 in1005.8 mb 0.00 in0.0 mm 0.00 in0.0 mm 0.00 in0.0 mm
04:34 PM 52.3°F11.3°C 46.7°F8.2°C 81% 7.6 mph SE12.2 kmh SE 13.6 mph21.9 kmh 29.71 in1006.1 mb 0.00 in0.0 mm 0.00 in0.0 mm 0.00 in0.0 mm
04:35 PM 52.3°F11.3°C 46.7°F8.2°C 81% 6.9 mph SE11.1 kmh SE 13.6 mph21.9 kmh 29.71 in1006.1 mb 0.00 in0.0 mm 0.00 in0.0 mm 0.00 in0.0 mm
04:36 PM 52.3°F11.3°C 46.7°F8.2°C 81% 6.9 mph SE11.1 kmh SE 13.6 mph21.9 kmh 29.71 in1006.1 mb 0.00 in0.0 mm 0.00 in0.0 mm 0.00 in0.0 mm
04:37 PM 52.3°F11.3°C 46.7°F8.2°C 81% 7.6 mph SE12.2 kmh SE 13.6 mph21.9 kmh 29.70 in1005.8 mb 0.00 in0.0 mm 0.00 in0.0 mm 0.00 in0.0 mm
04:38 PM 52.3°F11.3°C 46.7°F8.2°C 81% 5.4 mph SE8.7 kmh SE 13.6 mph21.9 kmh 29.70 in1005.8 mb 0.00 in0.0 mm 0.00 in0.0 mm 0.00 in0.0 mm
04:39 PM 52.3°F11.3°C 46.7°F8.2°C 81% 5.4 mph SE8.7 kmh SE 13.6 mph21.9 kmh 29.70 in1005.8 mb 0.00 in0.0 mm 0.00 in0.0 mm 0.00 in0.0 mm
04:40 PM 52.3°F11.3°C 46.7°F8.2°C 81% 6.0 mph SE9.7 kmh SE 13.6 mph21.9 kmh 29.70 in1005.8 mb 0.00 in0.0 mm 0.00 in0.0 mm 0.00 in0.0 mm
04:41 PM 52.2°F11.2°C 46.5°F8.1°C 81% 6.0 mph SE9.7 kmh SE 13.6 mph21.9 kmh 29.71 in1006.1 mb 0.00 in0.0 mm 0.00 in0.0 mm 0.00 in0.0 mm
04:42 PM 52.2°F11.2°C 46.5°F8.1°C 81% 6.0 mph SE9.7 kmh SE 9.8 mph15.8 kmh 29.70 in1005.8 mb 0.00 in0.0 mm 0.00 in0.0 mm 0.00 in0.0 mm
04:43 PM 52.2°F11.2°C 46.5°F8.1°C 81% 6.0 mph SE9.7 kmh SE 9.8 mph15.8 kmh 29.70 in1005.8 mb 0.00 in0.0 mm 0.00 in0.0 mm 0.00 in0.0 mm
04:44 PM 52.2°F11.2°C 46.5°F8.1°C 81% 7.6 mph SE12.2 kmh SE 11.4 mph18.3 kmh 29.70 in1005.8 mb 0.00 in0.0 mm 0.00 in0.0 mm 0.00 in0.0 mm
04:45 PM 52.2°F11.2°C 46.5°F8.1°C 81% 9.8 mph SE15.8 kmh SE 12.1 mph19.5 kmh 29.70 in1005.8 mb 0.00 in0.0 mm 0.00 in0.0 mm 0.00 in0.0 mm
04:46 PM 52.2°F11.2°C 46.5°F8.1°C 81% 9.8 mph SE15.8 kmh SE 13.0 mph20.9 kmh 29.70 in1005.8 mb 0.00 in0.0 mm 0.00 in0.0 mm 0.00 in0.0 mm
04:47 PM 52.2°F11.2°C 46.5°F8.1°C 81% 9.2 mph SE14.8 kmh SE 13.0 mph20.9 kmh 29.70 in1005.8 mb 0.00 in0.0 mm 0.00 in0.0 mm 0.00 in0.0 mm
04:48 PM 52.2°F11.2°C 46.5°F8.1°C 81% 11.4 mph ESE18.3 kmh ESE 15.2 mph24.5 kmh 29.70 in1005.8 mb 0.00 in0.0 mm 0.00 in0.0 mm 0.00 in0.0 mm
04:49 PM 52.0°F11.1°C 46.3°F7.9°C 81% 9.8 mph ESE15.8 kmh ESE 15.2 mph24.5 kmh 29.70 in1005.8 mb 0.00 in0.0 mm 0.00 in0.0 mm 0.00 in0.0 mm
04:50 PM 52.0°F11.1°C 46.3°F7.9°C 81% 9.8 mph ESE15.8 kmh ESE 15.2 mph24.5 kmh 29.70 in1005.8 mb 0.00 in0.0 mm 0.00 in0.0 mm 0.00 in0.0 mm
04:51 PM 52.0°F11.1°C 46.3°F7.9°C 81% 9.2 mph ESE14.8 kmh ESE 15.2 mph24.5 kmh 29.70 in1005.8 mb 0.00 in0.0 mm 0.00 in0.0 mm 0.00 in0.0 mm
04:52 PM 52.0°F11.1°C 46.3°F7.9°C 81% 9.2 mph ESE14.8 kmh ESE 15.2 mph24.5 kmh 29.70 in1005.8 mb 0.00 in0.0 mm 0.00 in0.0 mm 0.00 in0.0 mm
04:53 PM 52.0°F11.1°C 46.7°F8.2°C 82% 9.2 mph ESE14.8 kmh ESE 15.2 mph24.5 kmh 29.69 in1005.4 mb 0.00 in0.0 mm 0.00 in0.0 mm 0.00 in0.0 mm
04:54 PM 52.0°F11.1°C 46.7°F8.2°C 82% 11.4 mph ESE18.3 kmh ESE 15.2 mph24.5 kmh 29.70 in1005.8 mb 0.00 in0.0 mm 0.00 in0.0 mm 0.00 in0.0 mm
04:55 PM 52.0°F11.1°C 46.7°F8.2°C 82% 11.4 mph ESE18.3 kmh ESE 15.2 mph24.5 kmh 29.70 in1005.8 mb 0.00 in0.0 mm 0.00 in0.0 mm 0.00 in0.0 mm
04:56 PM 52.0°F11.1°C 46.7°F8.2°C 82% 11.4 mph ESE18.3 kmh ESE 15.2 mph24.5 kmh 29.70 in1005.8 mb 0.00 in0.0 mm 0.00 in0.0 mm 0.00 in0.0 mm
04:57 PM 52.0°F11.1°C 46.7°F8.2°C 82% 9.8 mph ESE15.8 kmh ESE 15.2 mph24.5 kmh 29.69 in1005.4 mb 0.00 in0.0 mm 0.00 in0.0 mm 0.00 in0.0 mm
04:58 PM 52.0°F11.1°C 46.7°F8.2°C 82% 7.6 mph SE12.2 kmh SE 15.2 mph24.5 kmh 29.70 in1005.8 mb 0.00 in0.0 mm 0.00 in0.0 mm 0.00 in0.0 mm
04:59 PM 52.0°F11.1°C 46.7°F8.2°C 82% 7.6 mph SE12.2 kmh SE 15.2 mph24.5 kmh 29.70 in1005.8 mb 0.00 in0.0 mm 0.00 in0.0 mm 0.00 in0.0 mm
05:00 PM 52.0°F11.1°C 46.7°F8.2°C 82% 6.9 mph SE11.1 kmh SE 15.2 mph24.5 kmh 29.69 in1005.4 mb 0.00 in0.0 mm 0.00 in0.0 mm 0.00 in0.0 mm
05:01 PM 51.8°F11.0°C 46.5°F8.1°C 82% 7.6 mph SE12.2 kmh SE 15.2 mph24.5 kmh 29.69 in1005.4 mb 0.00 in0.0 mm 0.00 in0.0 mm 0.00 in0.0 mm
05:02 PM 51.8°F11.0°C 46.5°F8.1°C 82% 5.4 mph SE8.7 kmh SE 15.2 mph24.5 kmh 29.69 in1005.4 mb 0.00 in0.0 mm 0.00 in0.0 mm 0.00 in0.0 mm
05:03 PM 51.8°F11.0°C 46.5°F8.1°C 82% 10.7 mph SE17.2 kmh SE 18.3 mph29.5 kmh 29.69 in1005.4 mb 0.00 in0.0 mm 0.00 in0.0 mm 0.00 in0.0 mm
05:04 PM 51.8°F11.0°C 46.5°F8.1°C 82% 11.4 mph SE18.3 kmh SE 18.3 mph29.5 kmh 29.69 in1005.4 mb 0.00 in0.0 mm 0.00 in0.0 mm 0.00 in0.0 mm
05:05 PM 51.8°F11.0°C 46.5°F8.1°C 82% 8.3 mph SE13.4 kmh SE 18.3 mph29.5 kmh 29.69 in1005.4 mb 0.00 in0.0 mm 0.00 in0.0 mm 0.00 in0.0 mm
05:06 PM 51.8°F11.0°C 46.5°F8.1°C 82% 8.3 mph SE13.4 kmh SE 18.3 mph29.5 kmh 29.69 in1005.4 mb 0.00 in0.0 mm 0.00 in0.0 mm 0.00 in0.0 mm
05:07 PM 51.8°F11.0°C 46.5°F8.1°C 82% 6.9 mph SE11.1 kmh SE 18.3 mph29.5 kmh 29.69 in1005.4 mb 0.00 in0.0 mm 0.00 in0.0 mm 0.00 in0.0 mm
05:08 PM 51.8°F11.0°C 46.5°F8.1°C 82% 6.0 mph SE9.7 kmh SE 18.3 mph29.5 kmh 29.69 in1005.4 mb 0.00 in0.0 mm 0.00 in0.0 mm 0.00 in0.0 mm
05:09 PM 51.8°F11.0°C 46.5°F8.1°C 82% 9.8 mph SE15.8 kmh SE 18.3 mph29.5 kmh 29.69 in1005.4 mb 0.00 in0.0 mm 0.00 in0.0 mm 0.00 in0.0 mm
05:10 PM 51.8°F11.0°C 46.5°F8.1°C 82% 9.2 mph SE14.8 kmh SE 18.3 mph29.5 kmh 29.69 in1005.4 mb 0.00 in0.0 mm 0.00 in0.0 mm 0.00 in0.0 mm
05:11 PM 51.8°F11.0°C 46.5°F8.1°C 82% 9.2 mph SE14.8 kmh SE 18.3 mph29.5 kmh 29.69 in1005.4 mb 0.00 in0.0 mm 0.00 in0.0 mm 0.00 in0.0 mm
05:12 PM 51.8°F11.0°C 46.5°F8.1°C 82% 7.6 mph SE12.2 kmh SE 18.3 mph29.5 kmh 29.69 in1005.4 mb 0.00 in0.0 mm 0.00 in0.0 mm 0.00 in0.0 mm
05:13 PM 51.6°F10.9°C 46.3°F7.9°C 82% 6.9 mph SE11.1 kmh SE 18.3 mph29.5 kmh 29.69 in1005.4 mb 0.00 in0.0 mm 0.00 in0.0 mm 0.00 in0.0 mm
05:14 PM 51.6°F10.9°C 46.3°F7.9°C 82% 8.3 mph SE13.4 kmh SE 15.2 mph24.5 kmh 29.69 in1005.4 mb 0.00 in0.0 mm 0.00 in0.0 mm 0.00 in0.0 mm
05:15 PM 51.6°F10.9°C 46.3°F7.9°C 82% 8.3 mph SE13.4 kmh SE 15.2 mph24.5 kmh 29.69 in1005.4 mb 0.00 in0.0 mm 0.00 in0.0 mm 0.00 in0.0 mm
05:16 PM 51.6°F10.9°C 46.3°F7.9°C 82% 7.6 mph SE12.2 kmh SE 15.2 mph24.5 kmh 29.70 in1005.8 mb 0.00 in0.0 mm 0.00 in0.0 mm 0.00 in0.0 mm
05:17 PM 51.6°F10.9°C 46.3°F7.9°C 82% 8.3 mph SE13.4 kmh SE 15.2 mph24.5 kmh 29.69 in1005.4 mb 0.00 in0.0 mm 0.00 in0.0 mm 0.00 in0.0 mm
05:18 PM 51.6°F10.9°C 46.3°F7.9°C 82% 6.9 mph SE11.1 kmh SE 15.2 mph24.5 kmh 29.70 in1005.8 mb 0.00 in0.0 mm 0.00 in0.0 mm 0.00 in0.0 mm
05:19 PM 51.6°F10.9°C 46.3°F7.9°C 82% 4.5 mph SE7.2 kmh SE 15.2 mph24.5 kmh 29.70 in1005.8 mb 0.00 in0.0 mm 0.00 in0.0 mm 0.00 in0.0 mm
05:20 PM 51.6°F10.9°C 46.3°F7.9°C 82% 6.9 mph SE11.1 kmh SE 13.6 mph21.9 kmh 29.70 in1005.8 mb 0.00 in0.0 mm 0.00 in0.0 mm 0.00 in0.0 mm
05:21 PM 51.6°F10.9°C 46.3°F7.9°C 82% 6.9 mph SE11.1 kmh SE 13.6 mph21.9 kmh 29.70 in1005.8 mb 0.00 in0.0 mm 0.00 in0.0 mm 0.00 in0.0 mm
05:22 PM 51.6°F10.9°C 46.6°F8.1°C 83% 6.0 mph SE9.7 kmh SE 13.6 mph21.9 kmh 29.70 in1005.8 mb 0.00 in0.0 mm 0.00 in0.0 mm 0.00 in0.0 mm
05:23 PM 51.6°F10.9°C 46.6°F8.1°C 83% 5.4 mph SE8.7 kmh SE 13.6 mph21.9 kmh 29.70 in1005.8 mb 0.00 in0.0 mm 0.00 in0.0 mm 0.00 in0.0 mm
05:24 PM 51.6°F10.9°C 46.6°F8.1°C 83% 5.4 mph SE8.7 kmh SE 13.6 mph21.9 kmh 29.70 in1005.8 mb 0.00 in0.0 mm 0.00 in0.0 mm 0.00 in0.0 mm
05:25 PM 51.6°F10.9°C 46.6°F8.1°C 83% 3.1 mph SE5.0 kmh SE 13.6 mph21.9 kmh 29.70 in1005.8 mb 0.00 in0.0 mm 0.00 in0.0 mm 0.00 in0.0 mm
05:26 PM 51.6°F10.9°C 46.6°F8.1°C 83% 5.4 mph SE8.7 kmh SE 13.6 mph21.9 kmh 29.70 in1005.8 mb 0.00 in0.0 mm 0.00 in0.0 mm 0.00 in0.0 mm
05:27 PM 51.6°F10.9°C 46.6°F8.1°C 83% 5.4 mph SE8.7 kmh SE 13.6 mph21.9 kmh 29.70 in1005.8 mb 0.00 in0.0 mm 0.00 in0.0 mm 0.00 in0.0 mm
05:28 PM 51.6°F10.9°C 46.6°F8.1°C 83% 4.5 mph SE7.2 kmh SE 9.8 mph15.8 kmh 29.70 in1005.8 mb 0.00 in0.0 mm 0.00 in0.0 mm 0.00 in0.0 mm
05:29 PM 51.6°F10.9°C 46.6°F8.1°C 83% 6.0 mph SE9.7 kmh SE 9.8 mph15.8 kmh 29.70 in1005.8 mb 0.00 in0.0 mm 0.00 in0.0 mm 0.00 in0.0 mm
05:30 PM 51.6°F10.9°C 46.6°F8.1°C 83% 5.4 mph SE8.7 kmh SE 9.8 mph15.8 kmh 29.70 in1005.8 mb 0.00 in0.0 mm 0.00 in0.0 mm 0.00 in0.0 mm
05:31 PM 51.6°F10.9°C 46.6°F8.1°C 83% 5.4 mph SE8.7 kmh SE 9.8 mph15.8 kmh 29.70 in1005.8 mb 0.00 in0.0 mm 0.00 in0.0 mm 0.00 in0.0 mm
05:32 PM 51.6°F10.9°C 46.6°F8.1°C 83% 7.6 mph SE12.2 kmh SE 9.8 mph15.8 kmh 29.70 in1005.8 mb 0.00 in0.0 mm 0.00 in0.0 mm 0.00 in0.0 mm
05:33 PM 51.6°F10.9°C 46.6°F8.1°C 83% 7.6 mph SE12.2 kmh SE 9.8 mph15.8 kmh 29.70 in1005.8 mb 0.00 in0.0 mm 0.00 in0.0 mm 0.00 in0.0 mm
05:34 PM 51.6°F10.9°C 46.6°F8.1°C 83% 6.9 mph SE11.1 kmh SE 11.4 mph18.3 kmh 29.70 in1005.8 mb 0.00 in0.0 mm 0.00 in0.0 mm 0.00 in0.0 mm
05:35 PM 51.6°F10.9°C 46.6°F8.1°C 83% 6.0 mph SE9.7 kmh SE 11.4 mph18.3 kmh 29.70 in1005.8 mb 0.00 in0.0 mm 0.00 in0.0 mm 0.00 in0.0 mm
05:36 PM 51.6°F10.9°C 46.6°F8.1°C 83% 6.0 mph SE9.7 kmh SE 11.4 mph18.3 kmh 29.70 in1005.8 mb 0.00 in0.0 mm 0.00 in0.0 mm 0.00 in0.0 mm
05:37 PM 51.6°F10.9°C 46.6°F8.1°C 83% 7.6 mph SE12.2 kmh SE 12.1 mph19.5 kmh 29.70 in1005.8 mb 0.00 in0.0 mm 0.00 in0.0 mm 0.00 in0.0 mm
05:38 PM 51.6°F10.9°C 46.6°F8.1°C 83% 6.9 mph SE11.1 kmh SE 12.1 mph19.5 kmh 29.70 in1005.8 mb 0.00 in0.0 mm 0.00 in0.0 mm 0.00 in0.0 mm
05:39 PM 51.6°F10.9°C 46.6°F8.1°C 83% 8.3 mph SE13.4 kmh SE 12.1 mph19.5 kmh 29.70 in1005.8 mb 0.00 in0.0 mm 0.00 in0.0 mm 0.00 in0.0 mm
05:40 PM 51.6°F10.9°C 46.6°F8.1°C 83% 9.8 mph SE15.8 kmh SE 13.6 mph21.9 kmh 29.70 in1005.8 mb 0.00 in0.0 mm 0.00 in0.0 mm 0.00 in0.0 mm
05:41 PM 51.6°F10.9°C 46.6°F8.1°C 83% 9.2 mph SE14.8 kmh SE 13.6 mph21.9 kmh 29.70 in1005.8 mb 0.00 in0.0 mm 0.00 in0.0 mm 0.00 in0.0 mm
05:42 PM 51.6°F10.9°C 46.6°F8.1°C 83% 6.9 mph SE11.1 kmh SE 13.6 mph21.9 kmh 29.70 in1005.8 mb 0.00 in0.0 mm 0.00 in0.0 mm 0.00 in0.0 mm
05:43 PM 51.6°F10.9°C 46.6°F8.1°C 83% 6.9 mph SE11.1 kmh SE 13.6 mph21.9 kmh 29.70 in1005.8 mb 0.00 in0.0 mm 0.00 in0.0 mm 0.00 in0.0 mm
05:44 PM 51.6°F10.9°C 46.6°F8.1°C 83% 8.3 mph SE13.4 kmh SE 13.6 mph21.9 kmh 29.70 in1005.8 mb 0.00 in0.0 mm 0.00 in0.0 mm 0.00 in0.0 mm
05:45 PM 51.6°F10.9°C 46.6°F8.1°C 83% 9.8 mph SE15.8 kmh SE 13.6 mph21.9 kmh 29.70 in1005.8 mb 0.00 in0.0 mm 0.00 in0.0 mm 0.00 in0.0 mm
05:46 PM 51.6°F10.9°C 46.6°F8.1°C 83% 9.2 mph SE14.8 kmh SE 13.6 mph21.9 kmh 29.70 in1005.8 mb 0.00 in0.0 mm 0.00 in0.0 mm 0.00 in0.0 mm
05:47 PM 51.6°F10.9°C 46.6°F8.1°C 83% 8.3 mph SE13.4 kmh SE 13.6 mph21.9 kmh 29.70 in1005.8 mb 0.00 in0.0 mm 0.00 in0.0 mm 0.00 in0.0 mm
05:48 PM 51.6°F10.9°C 46.6°F8.1°C 83% 8.3 mph SE13.4 kmh SE 13.6 mph21.9 kmh 29.70 in1005.8 mb 0.00 in0.0 mm 0.00 in0.0 mm 0.00 in0.0 mm
05:49 PM 51.6°F10.9°C 46.6°F8.1°C 83% 8.3 mph SE13.4 kmh SE 13.6 mph21.9 kmh 29.70 in1005.8 mb 0.00 in0.0 mm 0.00 in0.0 mm 0.00 in0.0 mm
05:50 PM 51.6°F10.9°C 46.6°F8.1°C 83% 6.0 mph SE9.7 kmh SE 13.6 mph21.9 kmh 29.70 in1005.8 mb 0.00 in0.0 mm 0.00 in0.0 mm 0.00 in0.0 mm
05:51 PM 51.6°F10.9°C 46.6°F8.1°C 83% 5.4 mph SE8.7 kmh SE 12.1 mph19.5 kmh 29.70 in1005.8 mb 0.00 in0.0 mm 0.00 in0.0 mm 0.00 in0.0 mm
05:52 PM 51.6°F10.9°C 46.6°F8.1°C 83% 6.0 mph SE9.7 kmh SE 11.4 mph18.3 kmh 29.70 in1005.8 mb 0.00 in0.0 mm 0.00 in0.0 mm 0.00 in0.0 mm
05:53 PM 51.6°F10.9°C 46.6°F8.1°C 83% 6.9 mph SE11.1 kmh SE 11.4 mph18.3 kmh 29.70 in1005.8 mb 0.00 in0.0 mm 0.00 in0.0 mm 0.00 in0.0 mm
05:54 PM 51.6°F10.9°C 46.6°F8.1°C 83% 6.9 mph SE11.1 kmh SE 11.4 mph18.3 kmh 29.70 in1005.8 mb 0.00 in0.0 mm 0.00 in0.0 mm 0.00 in0.0 mm
05:55 PM 51.6°F10.9°C 46.6°F8.1°C 83% 4.5 mph SE7.2 kmh SE 11.4 mph18.3 kmh 29.70 in1005.8 mb 0.00 in0.0 mm 0.00 in0.0 mm 0.00 in0.0 mm
05:56 PM 51.6°F10.9°C 46.6°F8.1°C 83% 10.7 mph SE17.2 kmh SE 13.0 mph20.9 kmh 29.70 in1005.8 mb 0.00 in0.0 mm 0.00 in0.0 mm 0.00 in0.0 mm
05:57 PM 51.6°F10.9°C 46.6°F8.1°C 83% 6.9 mph SE11.1 kmh SE 13.0 mph20.9 kmh 29.70 in1005.8 mb 0.00 in0.0 mm 0.00 in0.0 mm 0.00 in0.0 mm
05:58 PM 51.6°F10.9°C 46.6°F8.1°C 83% 5.4 mph SE8.7 kmh SE 13.0 mph20.9 kmh 29.70 in1005.8 mb 0.00 in0.0 mm 0.00 in0.0 mm 0.00 in0.0 mm
05:59 PM 51.6°F10.9°C 46.6°F8.1°C 83% 6.9 mph SE11.1 kmh SE 13.0 mph20.9 kmh 29.70 in1005.8 mb 0.00 in0.0 mm 0.00 in0.0 mm 0.00 in0.0 mm
06:00 PM 51.6°F10.9°C 46.6°F8.1°C 83% 8.3 mph SE13.4 kmh SE 13.0 mph20.9 kmh 29.70 in1005.8 mb 0.00 in0.0 mm 0.00 in0.0 mm 0.00 in0.0 mm
06:01 PM 51.6°F10.9°C 46.6°F8.1°C 83% 6.9 mph SE11.1 kmh SE 13.0 mph20.9 kmh 29.70 in1005.8 mb 0.00 in0.0 mm 0.00 in0.0 mm 0.00 in0.0 mm
06:02 PM 51.6°F10.9°C 46.6°F8.1°C 83% 6.9 mph SE11.1 kmh SE 13.0 mph20.9 kmh 29.70 in1005.8 mb 0.00 in0.0 mm 0.00 in0.0 mm 0.00 in0.0 mm
06:03 PM 51.6°F10.9°C 46.6°F8.1°C 83% 6.9 mph SE11.1 kmh SE 13.0 mph20.9 kmh 29.70 in1005.8 mb 0.00 in0.0 mm 0.00 in0.0 mm 0.00 in0.0 mm
06:04 PM 51.6°F10.9°C 46.6°F8.1°C 83% 6.9 mph ESE11.1 kmh ESE 13.0 mph20.9 kmh 29.70 in1005.8 mb 0.00 in0.0 mm 0.00 in0.0 mm 0.00 in0.0 mm
06:05 PM 51.6°F10.9°C 46.6°F8.1°C 83% 6.9 mph ESE11.1 kmh ESE 13.0 mph20.9 kmh 29.70 in1005.8 mb 0.00 in0.0 mm 0.00 in0.0 mm 0.00 in0.0 mm
06:06 PM 51.6°F10.9°C 46.6°F8.1°C 83% 6.9 mph ESE11.1 kmh ESE 12.1 mph19.5 kmh 29.70 in1005.8 mb 0.00 in0.0 mm 0.00 in0.0 mm 0.00 in0.0 mm
06:07 PM 51.6°F10.9°C 46.6°F8.1°C 83% 9.2 mph E14.8 kmh E 12.1 mph19.5 kmh 29.70 in1005.8 mb 0.00 in0.0 mm 0.00 in0.0 mm 0.00 in0.0 mm
06:08 PM 51.6°F10.9°C 46.6°F8.1°C 83% 7.6 mph E12.2 kmh E 12.1 mph19.5 kmh 29.70 in1005.8 mb 0.00 in0.0 mm 0.00 in0.0 mm 0.00 in0.0 mm
06:09 PM 51.6°F10.9°C 46.6°F8.1°C 83% 7.6 mph E12.2 kmh E 12.1 mph19.5 kmh 29.70 in1005.8 mb 0.00 in0.0 mm 0.00 in0.0 mm 0.00 in0.0 mm
06:10 PM 51.6°F10.9°C 46.6°F8.1°C 83% 6.9 mph E11.1 kmh E 12.1 mph19.5 kmh 29.70 in1005.8 mb 0.00 in0.0 mm 0.00 in0.0 mm 0.00 in0.0 mm
06:11 PM 51.6°F10.9°C 46.6°F8.1°C 83% 6.9 mph ESE11.1 kmh ESE 12.1 mph19.5 kmh 29.70 in1005.8 mb 0.00 in0.0 mm 0.00 in0.0 mm 0.00 in0.0 mm
06:12 PM 51.6°F10.9°C 46.6°F8.1°C 83% 7.6 mph ESE12.2 kmh ESE 12.1 mph19.5 kmh 29.70 in1005.8 mb 0.00 in0.0 mm 0.00 in0.0 mm 0.00 in0.0 mm
06:13 PM 51.6°F10.9°C 46.6°F8.1°C 83% 7.6 mph ESE12.2 kmh ESE 12.1 mph19.5 kmh 29.70 in1005.8 mb 0.00 in0.0 mm 0.00 in0.0 mm 0.00 in0.0 mm
06:14 PM 51.6°F10.9°C 46.6°F8.1°C 83% 7.6 mph SE12.2 kmh SE 12.1 mph19.5 kmh 29.70 in1005.8 mb 0.00 in0.0 mm 0.00 in0.0 mm 0.00 in0.0 mm
06:15 PM 51.6°F10.9°C 46.6°F8.1°C 83% 8.3 mph SE13.4 kmh SE 12.1 mph19.5 kmh 29.70 in1005.8 mb 0.00 in0.0 mm 0.00 in0.0 mm 0.00 in0.0 mm
06:16 PM 51.6°F10.9°C 46.6°F8.1°C 83% 7.6 mph SE12.2 kmh SE 12.1 mph19.5 kmh 29.70 in1005.8 mb 0.00 in0.0 mm 0.00 in0.0 mm 0.00 in0.0 mm
06:17 PM 51.6°F10.9°C 46.6°F8.1°C 83% 9.8 mph SE15.8 kmh SE 14.5 mph23.3 kmh 29.70 in1005.8 mb 0.00 in0.0 mm 0.00 in0.0 mm 0.00 in0.0 mm
06:18 PM 51.6°F10.9°C 46.6°F8.1°C 83% 9.8 mph SE15.8 kmh SE 14.5 mph23.3 kmh 29.70 in1005.8 mb 0.00 in0.0 mm 0.00 in0.0 mm 0.00 in0.0 mm
06:19 PM 51.6°F10.9°C 46.6°F8.1°C 83% 9.2 mph SE14.8 kmh SE 14.5 mph23.3 kmh 29.70 in1005.8 mb 0.00 in0.0 mm 0.00 in0.0 mm 0.00 in0.0 mm
06:20 PM 51.6°F10.9°C 46.6°F8.1°C 83% 6.9 mph SE11.1 kmh SE 14.5 mph23.3 kmh 29.70 in1005.8 mb 0.00 in0.0 mm 0.00 in0.0 mm 0.00 in0.0 mm
06:21 PM 51.4°F10.8°C 46.4°F8.0°C 83% 6.9 mph SE11.1 kmh SE 14.5 mph23.3 kmh 29.70 in1005.8 mb 0.00 in0.0 mm 0.00 in0.0 mm 0.00 in0.0 mm
06:22 PM 51.4°F10.8°C 46.4°F8.0°C 83% 9.8 mph SE15.8 kmh SE 16.8 mph27.0 kmh 29.70 in1005.8 mb 0.00 in0.0 mm 0.00 in0.0 mm 0.00 in0.0 mm
06:23 PM 51.4°F10.8°C 46.4°F8.0°C 83% 6.9 mph SE11.1 kmh SE 16.8 mph27.0 kmh 29.70 in1005.8 mb 0.00 in0.0 mm 0.00 in0.0 mm 0.00 in0.0 mm
06:24 PM 51.4°F10.8°C 46.4°F8.0°C 83% 9.8 mph SE15.8 kmh SE 16.8 mph27.0 kmh 29.70 in1005.8 mb 0.00 in0.0 mm 0.00 in0.0 mm 0.00 in0.0 mm
06:25 PM 51.4°F10.8°C 46.4°F8.0°C 83% 6.0 mph SE9.7 kmh SE 16.8 mph27.0 kmh 29.70 in1005.8 mb 0.00 in0.0 mm 0.00 in0.0 mm 0.00 in0.0 mm
06:26 PM 51.4°F10.8°C 46.4°F8.0°C 83% 6.9 mph SE11.1 kmh SE 16.8 mph27.0 kmh 29.70 in1005.8 mb 0.00 in0.0 mm 0.00 in0.0 mm 0.00 in0.0 mm
06:27 PM 51.4°F10.8°C 46.4°F8.0°C 83% 7.6 mph SE12.2 kmh SE 16.8 mph27.0 kmh 29.70 in1005.8 mb 0.00 in0.0 mm 0.00 in0.0 mm 0.00 in0.0 mm
06:28 PM 51.4°F10.8°C 46.4°F8.0°C 83% 9.2 mph SE14.8 kmh SE 16.8 mph27.0 kmh 29.70 in1005.8 mb 0.00 in0.0 mm 0.00 in0.0 mm 0.00 in0.0 mm
06:29 PM 51.3°F10.7°C 46.3°F7.9°C 83% 6.0 mph SE9.7 kmh SE 16.8 mph27.0 kmh 29.70 in1005.8 mb 0.00 in0.0 mm 0.00 in0.0 mm 0.00 in0.0 mm
06:30 PM 51.3°F10.7°C 46.3°F7.9°C 83% 6.0 mph SE9.7 kmh SE 16.8 mph27.0 kmh 29.70 in1005.8 mb 0.00 in0.0 mm 0.00 in0.0 mm 0.00 in0.0 mm
06:31 PM 51.3°F10.7°C 46.3°F7.9°C 83% 6.0 mph SE9.7 kmh SE 16.8 mph27.0 kmh 29.70 in1005.8 mb 0.00 in0.0 mm 0.00 in0.0 mm 0.00 in0.0 mm
06:32 PM 51.3°F10.7°C 46.3°F7.9°C 83% 7.6 mph SE12.2 kmh SE 16.8 mph27.0 kmh 29.69 in1005.4 mb 0.00 in0.0 mm 0.00 in0.0 mm 0.00 in0.0 mm
06:33 PM 51.3°F10.7°C 46.6°F8.1°C 84% 6.0 mph SE9.7 kmh SE 12.1 mph19.5 kmh 29.70 in1005.8 mb 0.00 in0.0 mm 0.00 in0.0 mm 0.00 in0.0 mm
06:34 PM 51.3°F10.7°C 46.6°F8.1°C 84% 7.6 mph SE12.2 kmh SE 12.1 mph19.5 kmh 29.70 in1005.8 mb 0.00 in0.0 mm 0.00 in0.0 mm 0.00 in0.0 mm
06:35 PM 51.3°F10.7°C 46.6°F8.1°C 84% 6.9 mph SE11.1 kmh SE 11.4 mph18.3 kmh 29.70 in1005.8 mb 0.00 in0.0 mm 0.00 in0.0 mm 0.00 in0.0 mm
06:36 PM 51.3°F10.7°C 46.6°F8.1°C 84% 6.9 mph SE11.1 kmh SE 11.4 mph18.3 kmh 29.70 in1005.8 mb 0.00 in0.0 mm 0.00 in0.0 mm 0.00 in0.0 mm
06:37 PM 51.3°F10.7°C 46.6°F8.1°C 84% 7.6 mph SE12.2 kmh SE 11.4 mph18.3 kmh 29.70 in1005.8 mb 0.00 in0.0 mm 0.00 in0.0 mm 0.00 in0.0 mm
06:38 PM 51.1°F10.6°C 46.4°F8.0°C 84% 6.9 mph SE11.1 kmh SE 11.4 mph18.3 kmh 29.70 in1005.8 mb 0.00 in0.0 mm 0.00 in0.0 mm 0.00 in0.0 mm
06:39 PM 51.1°F10.6°C 46.4°F8.0°C 84% 8.3 mph SE13.4 kmh SE 11.4 mph18.3 kmh 29.70 in1005.8 mb 0.00 in0.0 mm 0.00 in0.0 mm 0.00 in0.0 mm
06:40 PM 51.1°F10.6°C 46.4°F8.0°C 84% 6.9 mph SE11.1 kmh SE 11.4 mph18.3 kmh 29.70 in1005.8 mb 0.00 in0.0 mm 0.00 in0.0 mm 0.00 in0.0 mm
06:41 PM 51.1°F10.6°C 46.4°F8.0°C 84% 6.9 mph SE11.1 kmh SE 11.4 mph18.3 kmh 29.70 in1005.8 mb 0.00 in0.0 mm 0.00 in0.0 mm 0.00 in0.0 mm
06:42 PM 51.1°F10.6°C 46.4°F8.0°C 84% 6.9 mph SE11.1 kmh SE 11.4 mph18.3 kmh 29.70 in1005.8 mb 0.00 in0.0 mm 0.00 in0.0 mm 0.00 in0.0 mm
06:43 PM 51.1°F10.6°C 46.4°F8.0°C 84% 6.9 mph SE11.1 kmh SE 11.4 mph18.3 kmh 29.70 in1005.8 mb 0.00 in0.0 mm 0.00 in0.0 mm 0.00 in0.0 mm
06:44 PM 51.1°F10.6°C 46.4°F8.0°C 84% 8.3 mph SE13.4 kmh SE 11.4 mph18.3 kmh 29.70 in1005.8 mb 0.00 in0.0 mm 0.00 in0.0 mm 0.00 in0.0 mm
06:45 PM 51.1°F10.6°C 46.4°F8.0°C 84% 6.9 mph SE11.1 kmh SE 11.4 mph18.3 kmh 29.70 in1005.8 mb 0.00 in0.0 mm 0.00 in0.0 mm 0.00 in0.0 mm
06:46 PM 51.1°F10.6°C 46.4°F8.0°C 84% 6.0 mph SE9.7 kmh SE 11.4 mph18.3 kmh 29.70 in1005.8 mb 0.00 in0.0 mm 0.00 in0.0 mm 0.00 in0.0 mm
06:47 PM 51.1°F10.6°C 46.4°F8.0°C 84% 6.9 mph SE11.1 kmh SE 10.7 mph17.2 kmh 29.70 in1005.8 mb 0.00 in0.0 mm 0.00 in0.0 mm 0.00 in0.0 mm
06:48 PM 51.1°F10.6°C 46.4°F8.0°C 84% 7.6 mph SSE12.2 kmh SSE 10.7 mph17.2 kmh 29.70 in1005.8 mb 0.00 in0.0 mm 0.00 in0.0 mm 0.00 in0.0 mm
06:49 PM 51.1°F10.6°C 46.4°F8.0°C 84% 9.8 mph SSE15.8 kmh SSE 12.1 mph19.5 kmh 29.70 in1005.8 mb 0.00 in0.0 mm 0.00 in0.0 mm 0.00 in0.0 mm
06:50 PM 51.3°F10.7°C 46.6°F8.1°C 84% 5.4 mph SE8.7 kmh SE 12.1 mph19.5 kmh 29.70 in1005.8 mb 0.00 in0.0 mm 0.00 in0.0 mm 0.00 in0.0 mm
06:51 PM 51.3°F10.7°C 46.9°F8.3°C 85% 6.9 mph SE11.1 kmh SE 12.1 mph19.5 kmh 29.70 in1005.8 mb 0.00 in0.0 mm 0.00 in0.0 mm 0.00 in0.0 mm
06:52 PM 51.3°F10.7°C 46.9°F8.3°C 85% 6.9 mph SSE11.1 kmh SSE 12.1 mph19.5 kmh 29.70 in1005.8 mb 0.00 in0.0 mm 0.00 in0.0 mm 0.00 in0.0 mm
06:53 PM 51.3°F10.7°C 46.9°F8.3°C 85% 8.3 mph SE13.4 kmh SE 12.1 mph19.5 kmh 29.70 in1005.8 mb 0.00 in0.0 mm 0.00 in0.0 mm 0.00 in0.0 mm
06:54 PM 51.3°F10.7°C 46.9°F8.3°C 85% 7.6 mph SE12.2 kmh SE 12.1 mph19.5 kmh 29.70 in1005.8 mb 0.00 in0.0 mm 0.00 in0.0 mm 0.00 in0.0 mm
06:55 PM 51.3°F10.7°C 46.9°F8.3°C 85% 7.6 mph SSE12.2 kmh SSE 12.1 mph19.5 kmh 29.69 in1005.4 mb 0.00 in0.0 mm 0.00 in0.0 mm 0.00 in0.0 mm
06:56 PM 51.3°F10.7°C 46.9°F8.3°C 85% 6.0 mph SSE9.7 kmh SSE 12.1 mph19.5 kmh 29.70 in1005.8 mb 0.00 in0.0 mm 0.00 in0.0 mm 0.00 in0.0 mm
06:57 PM 51.3°F10.7°C 46.9°F8.3°C 85% 7.6 mph SE12.2 kmh SE 12.1 mph19.5 kmh 29.69 in1005.4 mb 0.00 in0.0 mm 0.00 in0.0 mm 0.00 in0.0 mm
06:58 PM 51.3°F10.7°C 46.9°F8.3°C 85% 7.6 mph SE12.2 kmh SE 12.1 mph19.5 kmh 29.70 in1005.8 mb 0.00 in0.0 mm 0.00 in0.0 mm 0.00 in0.0 mm
06:59 PM 51.3°F10.7°C 46.9°F8.3°C 85% 6.9 mph SE11.1 kmh SE 12.1 mph19.5 kmh 29.70 in1005.8 mb 0.00 in0.0 mm 0.00 in0.0 mm 0.00 in0.0 mm
07:00 PM 51.3°F10.7°C 46.9°F8.3°C 85% 7.6 mph SE12.2 kmh SE 11.4 mph18.3 kmh 29.70 in1005.8 mb 0.00 in0.0 mm 0.00 in0.0 mm 0.00 in0.0 mm
07:01 PM 51.3°F10.7°C 46.9°F8.3°C 85% 9.8 mph SE15.8 kmh SE 13.6 mph21.9 kmh 29.70 in1005.8 mb 0.00 in0.0 mm 0.00 in0.0 mm 0.00 in0.0 mm
07:02 PM 51.3°F10.7°C 46.9°F8.3°C 85% 6.0 mph SE9.7 kmh SE 13.6 mph21.9 kmh 29.70 in1005.8 mb 0.00 in0.0 mm 0.00 in0.0 mm 0.00 in0.0 mm
07:03 PM 51.3°F10.7°C 46.9°F8.3°C 85% 7.6 mph SSE12.2 kmh SSE 13.6 mph21.9 kmh 29.70 in1005.8 mb 0.00 in0.0 mm 0.00 in0.0 mm 0.00 in0.0 mm
07:04 PM 51.3°F10.7°C 46.9°F8.3°C 85% 6.0 mph SSE9.7 kmh SSE 13.6 mph21.9 kmh 29.70 in1005.8 mb 0.00 in0.0 mm 0.00 in0.0 mm 0.00 in0.0 mm
07:05 PM 51.3°F10.7°C 46.9°F8.3°C 85% 9.8 mph SE15.8 kmh SE 14.5 mph23.3 kmh 29.70 in1005.8 mb 0.00 in0.0 mm 0.00 in0.0 mm 0.00 in0.0 mm
07:06 PM 51.3°F10.7°C 46.9°F8.3°C 85% 7.6 mph SE12.2 kmh SE 14.5 mph23.3 kmh 29.70 in1005.8 mb 0.00 in0.0 mm 0.00 in0.0 mm 0.00 in0.0 mm
07:07 PM 51.3°F10.7°C 46.9°F8.3°C 85% 8.3 mph SSE13.4 kmh SSE 14.5 mph23.3 kmh 29.70 in1005.8 mb 0.00 in0.0 mm 0.00 in0.0 mm 0.00 in0.0 mm
07:08 PM 51.3°F10.7°C 46.9°F8.3°C 85% 7.6 mph SSE12.2 kmh SSE 14.5 mph23.3 kmh 29.70 in1005.8 mb 0.00 in0.0 mm 0.00 in0.0 mm 0.00 in0.0 mm
07:09 PM 51.3°F10.7°C 46.9°F8.3°C 85% 6.9 mph SSE11.1 kmh SSE 14.5 mph23.3 kmh 29.70 in1005.8 mb 0.00 in0.0 mm 0.00 in0.0 mm 0.00 in0.0 mm
07:10 PM 51.3°F10.7°C 46.9°F8.3°C 85% 6.9 mph S11.1 kmh S 14.5 mph23.3 kmh 29.70 in1005.8 mb 0.00 in0.0 mm 0.00 in0.0 mm 0.00 in0.0 mm
07:11 PM 51.3°F10.7°C 46.9°F8.3°C 85% 6.9 mph S11.1 kmh S 14.5 mph23.3 kmh 29.70 in1005.8 mb 0.00 in0.0 mm 0.00 in0.0 mm 0.00 in0.0 mm
07:12 PM 51.3°F10.7°C 46.9°F8.3°C 85% 5.4 mph SSE8.7 kmh SSE 14.5 mph23.3 kmh 29.70 in1005.8 mb 0.00 in0.0 mm 0.00 in0.0 mm 0.00 in0.0 mm
07:13 PM 51.3°F10.7°C 46.9°F8.3°C 85% 6.9 mph SSE11.1 kmh SSE 14.5 mph23.3 kmh 29.70 in1005.8 mb 0.00 in0.0 mm 0.00 in0.0 mm 0.00 in0.0 mm
07:14 PM 51.3°F10.7°C 46.9°F8.3°C 85% 6.0 mph SSE9.7 kmh SSE 14.5 mph23.3 kmh 29.70 in1005.8 mb 0.00 in0.0 mm 0.00 in0.0 mm 0.00 in0.0 mm
07:15 PM 51.3°F10.7°C 46.9°F8.3°C 85% 6.0 mph SSE9.7 kmh SSE 14.5 mph23.3 kmh 29.70 in1005.8 mb 0.00 in0.0 mm 0.00 in0.0 mm 0.00 in0.0 mm
07:16 PM 51.3°F10.7°C 46.9°F8.3°C 85% 6.9 mph SSE11.1 kmh SSE 14.5 mph23.3 kmh 29.70 in1005.8 mb 0.00 in0.0 mm 0.00 in0.0 mm 0.00 in0.0 mm
07:17 PM 51.3°F10.7°C 46.9°F8.3°C 85% 8.3 mph SSE13.4 kmh SSE 14.5 mph23.3 kmh 29.70 in1005.8 mb 0.00 in0.0 mm 0.00 in0.0 mm 0.00 in0.0 mm
07:18 PM 51.3°F10.7°C 46.9°F8.3°C 85% 9.2 mph SE14.8 kmh SE 11.4 mph18.3 kmh 29.70 in1005.8 mb 0.00 in0.0 mm 0.00 in0.0 mm 0.00 in0.0 mm
07:19 PM 51.3°F10.7°C 46.9°F8.3°C 85% 7.6 mph SE12.2 kmh SE 11.4 mph18.3 kmh 29.70 in1005.8 mb 0.00 in0.0 mm 0.00 in0.0 mm 0.00 in0.0 mm
07:20 PM 51.3°F10.7°C 46.9°F8.3°C 85% 8.3 mph SE13.4 kmh SE 12.1 mph19.5 kmh 29.70 in1005.8 mb 0.00 in0.0 mm 0.00 in0.0 mm 0.00 in0.0 mm
07:21 PM 51.3°F10.7°C 46.9°F8.3°C 85% 7.6 mph SE12.2 kmh SE 12.1 mph19.5 kmh 29.70 in1005.8 mb 0.00 in0.0 mm 0.00 in0.0 mm 0.00 in0.0 mm
07:22 PM 51.3°F10.7°C 46.9°F8.3°C 85% 6.9 mph SE11.1 kmh SE 12.1 mph19.5 kmh 29.70 in1005.8 mb 0.00 in0.0 mm 0.00 in0.0 mm 0.00 in0.0 mm
07:23 PM 51.3°F10.7°C 46.9°F8.3°C 85% 6.9 mph SE11.1 kmh SE 12.1 mph19.5 kmh 29.69 in1005.4 mb 0.00 in0.0 mm 0.00 in0.0 mm 0.00 in0.0 mm
07:24 PM 51.3°F10.7°C 46.9°F8.3°C 85% 7.6 mph SE12.2 kmh SE 12.1 mph19.5 kmh 29.69 in1005.4 mb 0.00 in0.0 mm 0.00 in0.0 mm 0.00 in0.0 mm
07:25 PM 51.3°F10.7°C 46.9°F8.3°C 85% 8.3 mph SE13.4 kmh SE 12.1 mph19.5 kmh 29.69 in1005.4 mb 0.00 in0.0 mm 0.00 in0.0 mm 0.00 in0.0 mm
07:26 PM 51.3°F10.7°C 46.9°F8.3°C 85% 7.6 mph SE12.2 kmh SE 12.1 mph19.5 kmh 29.69 in1005.4 mb 0.00 in0.0 mm 0.00 in0.0 mm 0.00 in0.0 mm
07:27 PM 51.1°F10.6°C 46.7°F8.2°C 85% 7.6 mph SE12.2 kmh SE 12.1 mph19.5 kmh 29.69 in1005.4 mb 0.00 in0.0 mm 0.00 in0.0 mm 0.00 in0.0 mm
07:28 PM 51.1°F10.6°C 46.7°F8.2°C 85% 10.7 mph SE17.2 kmh SE 13.0 mph20.9 kmh 29.69 in1005.4 mb 0.00 in0.0 mm 0.00 in0.0 mm 0.00 in0.0 mm
07:29 PM 51.1°F10.6°C 46.7°F8.2°C 85% 8.3 mph SE13.4 kmh SE 13.0 mph20.9 kmh 29.70 in1005.8 mb 0.00 in0.0 mm 0.00 in0.0 mm 0.00 in0.0 mm
07:30 PM 51.1°F10.6°C 46.7°F8.2°C 85% 10.7 mph SSE17.2 kmh SSE 13.0 mph20.9 kmh 29.70 in1005.8 mb 0.00 in0.0 mm 0.00 in0.0 mm 0.00 in0.0 mm
07:31 PM 51.1°F10.6°C 46.7°F8.2°C 85% 7.6 mph SSE12.2 kmh SSE 13.0 mph20.9 kmh 29.70 in1005.8 mb 0.00 in0.0 mm 0.00 in0.0 mm 0.00 in0.0 mm
07:32 PM 51.1°F10.6°C 46.7°F8.2°C 85% 8.3 mph SSE13.4 kmh SSE 13.0 mph20.9 kmh 29.70 in1005.8 mb 0.00 in0.0 mm 0.00 in0.0 mm 0.00 in0.0 mm
07:33 PM 51.1°F10.6°C 46.7°F8.2°C 85% 9.2 mph SE14.8 kmh SE 13.0 mph20.9 kmh 29.70 in1005.8 mb 0.00 in0.0 mm 0.00 in0.0 mm 0.00 in0.0 mm
07:34 PM 51.1°F10.6°C 46.7°F8.2°C 85% 9.2 mph SSE14.8 kmh SSE 13.0 mph20.9 kmh 29.70 in1005.8 mb 0.00 in0.0 mm 0.00 in0.0 mm 0.00 in